<?xml version="1.0" encoding="UTF-8" standalone="no" ?>
<gpx xmlns="http://www.topografix.com/GPX/1/1" xmlns:xsi="http://www.w3.org/2001/XMLSchema-instance" xsi:schemaLocation="http://www.topografix.com/GPX/1/1 http://www.topografix.com/GPX/1/1/gpx.xsd" version="1.1" creator="VisuGPX - https://www.visugpx.com">
  <metadata>
    <name>RANDO La burthe</name>
    <desc><![CDATA[Rando pedestre a la Burthe le 16 12 2017]]></desc>
  </metadata>
  <trk>
    <name><![CDATA[Tracé 16 déc. 2017 1:07:03 PM]]></name>
    <trkseg>
      <trkpt lat="44.84098" lon="-0.52267">
        <ele>0.8</ele>
        <time>2017-12-16T12:07:03Z</time>
      </trkpt>
      <trkpt lat="44.84092" lon="-0.52272">
        <ele>0.8</ele>
        <time>2017-12-16T12:07:12Z</time>
      </trkpt>
      <trkpt lat="44.84084" lon="-0.52276">
        <ele>0.8</ele>
        <time>2017-12-16T12:07:39Z</time>
      </trkpt>
      <trkpt lat="44.84076" lon="-0.52271">
        <ele>0.7</ele>
        <time>2017-12-16T12:07:50Z</time>
      </trkpt>
      <trkpt lat="44.84069" lon="-0.52275">
        <ele>0.6</ele>
        <time>2017-12-16T12:07:57Z</time>
      </trkpt>
      <trkpt lat="44.84061" lon="-0.52278">
        <ele>0.7</ele>
        <time>2017-12-16T12:08:03Z</time>
      </trkpt>
      <trkpt lat="44.84053" lon="-0.52278">
        <ele>1</ele>
        <time>2017-12-16T12:08:10Z</time>
      </trkpt>
      <trkpt lat="44.84046" lon="-0.52275">
        <ele>1.2</ele>
        <time>2017-12-16T12:08:17Z</time>
      </trkpt>
      <trkpt lat="44.84039" lon="-0.52268">
        <ele>2</ele>
        <time>2017-12-16T12:08:24Z</time>
      </trkpt>
      <trkpt lat="44.84034" lon="-0.52258">
        <ele>2.4</ele>
        <time>2017-12-16T12:08:32Z</time>
      </trkpt>
      <trkpt lat="44.84034" lon="-0.52247">
        <ele>3.1</ele>
        <time>2017-12-16T12:08:39Z</time>
      </trkpt>
      <trkpt lat="44.84034" lon="-0.52236">
        <ele>3.3</ele>
        <time>2017-12-16T12:08:46Z</time>
      </trkpt>
      <trkpt lat="44.84035" lon="-0.52224">
        <ele>3.9</ele>
        <time>2017-12-16T12:08:53Z</time>
      </trkpt>
      <trkpt lat="44.84035" lon="-0.52212">
        <ele>5.1</ele>
        <time>2017-12-16T12:09:00Z</time>
      </trkpt>
      <trkpt lat="44.84035" lon="-0.52201">
        <ele>6.1</ele>
        <time>2017-12-16T12:09:07Z</time>
      </trkpt>
      <trkpt lat="44.84031" lon="-0.52191">
        <ele>6.8</ele>
        <time>2017-12-16T12:09:14Z</time>
      </trkpt>
      <trkpt lat="44.84024" lon="-0.52183">
        <ele>8</ele>
        <time>2017-12-16T12:09:21Z</time>
      </trkpt>
      <trkpt lat="44.84017" lon="-0.52178">
        <ele>9.3</ele>
        <time>2017-12-16T12:09:28Z</time>
      </trkpt>
      <trkpt lat="44.84009" lon="-0.52174">
        <ele>9.9</ele>
        <time>2017-12-16T12:09:37Z</time>
      </trkpt>
      <trkpt lat="44.84" lon="-0.52172">
        <ele>11.7</ele>
        <time>2017-12-16T12:09:45Z</time>
      </trkpt>
      <trkpt lat="44.84" lon="-0.52159">
        <ele>12</ele>
        <time>2017-12-16T12:09:53Z</time>
      </trkpt>
      <trkpt lat="44.84001" lon="-0.52147">
        <ele>11.9</ele>
        <time>2017-12-16T12:10:01Z</time>
      </trkpt>
      <trkpt lat="44.84004" lon="-0.52136">
        <ele>11.8</ele>
        <time>2017-12-16T12:10:11Z</time>
      </trkpt>
      <trkpt lat="44.84008" lon="-0.52124">
        <ele>11.3</ele>
        <time>2017-12-16T12:10:23Z</time>
      </trkpt>
      <trkpt lat="44.84009" lon="-0.52112">
        <ele>11.3</ele>
        <time>2017-12-16T12:10:41Z</time>
      </trkpt>
      <trkpt lat="44.84012" lon="-0.52101">
        <ele>10.7</ele>
        <time>2017-12-16T12:10:50Z</time>
      </trkpt>
      <trkpt lat="44.84014" lon="-0.52089">
        <ele>10.6</ele>
        <time>2017-12-16T12:10:57Z</time>
      </trkpt>
      <trkpt lat="44.84016" lon="-0.52078">
        <ele>10.8</ele>
        <time>2017-12-16T12:11:03Z</time>
      </trkpt>
      <trkpt lat="44.84017" lon="-0.52067">
        <ele>11.9</ele>
        <time>2017-12-16T12:11:09Z</time>
      </trkpt>
      <trkpt lat="44.84019" lon="-0.52056">
        <ele>12.5</ele>
        <time>2017-12-16T12:11:15Z</time>
      </trkpt>
      <trkpt lat="44.84021" lon="-0.52044">
        <ele>13.5</ele>
        <time>2017-12-16T12:11:22Z</time>
      </trkpt>
      <trkpt lat="44.84023" lon="-0.52034">
        <ele>14.6</ele>
        <time>2017-12-16T12:11:29Z</time>
      </trkpt>
      <trkpt lat="44.84026" lon="-0.52024">
        <ele>14.7</ele>
        <time>2017-12-16T12:11:36Z</time>
      </trkpt>
      <trkpt lat="44.84025" lon="-0.52012">
        <ele>14.6</ele>
        <time>2017-12-16T12:11:42Z</time>
      </trkpt>
      <trkpt lat="44.84024" lon="-0.52">
        <ele>14.6</ele>
        <time>2017-12-16T12:11:48Z</time>
      </trkpt>
      <trkpt lat="44.84025" lon="-0.51988">
        <ele>14.9</ele>
        <time>2017-12-16T12:11:56Z</time>
      </trkpt>
      <trkpt lat="44.84026" lon="-0.51977">
        <ele>15.8</ele>
        <time>2017-12-16T12:12:03Z</time>
      </trkpt>
      <trkpt lat="44.84027" lon="-0.51965">
        <ele>16.6</ele>
        <time>2017-12-16T12:12:10Z</time>
      </trkpt>
      <trkpt lat="44.84027" lon="-0.51954">
        <ele>15.9</ele>
        <time>2017-12-16T12:12:16Z</time>
      </trkpt>
      <trkpt lat="44.84027" lon="-0.51943">
        <ele>16.4</ele>
        <time>2017-12-16T12:12:22Z</time>
      </trkpt>
      <trkpt lat="44.84027" lon="-0.5193">
        <ele>15.8</ele>
        <time>2017-12-16T12:12:28Z</time>
      </trkpt>
      <trkpt lat="44.84026" lon="-0.51919">
        <ele>14.9</ele>
        <time>2017-12-16T12:12:34Z</time>
      </trkpt>
      <trkpt lat="44.84025" lon="-0.51907">
        <ele>14.8</ele>
        <time>2017-12-16T12:12:41Z</time>
      </trkpt>
      <trkpt lat="44.84024" lon="-0.51895">
        <ele>14.6</ele>
        <time>2017-12-16T12:12:48Z</time>
      </trkpt>
      <trkpt lat="44.84024" lon="-0.51884">
        <ele>14.5</ele>
        <time>2017-12-16T12:12:54Z</time>
      </trkpt>
      <trkpt lat="44.84023" lon="-0.51872">
        <ele>15.4</ele>
        <time>2017-12-16T12:13:01Z</time>
      </trkpt>
      <trkpt lat="44.84021" lon="-0.5186">
        <ele>12.6</ele>
        <time>2017-12-16T12:13:08Z</time>
      </trkpt>
      <trkpt lat="44.8402" lon="-0.51848">
        <ele>8.9</ele>
        <time>2017-12-16T12:13:16Z</time>
      </trkpt>
      <trkpt lat="44.8402" lon="-0.51836">
        <ele>7.7</ele>
        <time>2017-12-16T12:13:22Z</time>
      </trkpt>
      <trkpt lat="44.84019" lon="-0.51825">
        <ele>6.2</ele>
        <time>2017-12-16T12:13:29Z</time>
      </trkpt>
      <trkpt lat="44.84019" lon="-0.51814">
        <ele>3.9</ele>
        <time>2017-12-16T12:13:35Z</time>
      </trkpt>
      <trkpt lat="44.84019" lon="-0.51803">
        <ele>6.1</ele>
        <time>2017-12-16T12:13:40Z</time>
      </trkpt>
      <trkpt lat="44.84018" lon="-0.51791">
        <ele>5.4</ele>
        <time>2017-12-16T12:13:46Z</time>
      </trkpt>
      <trkpt lat="44.84017" lon="-0.51779">
        <ele>4.7</ele>
        <time>2017-12-16T12:13:53Z</time>
      </trkpt>
      <trkpt lat="44.84018" lon="-0.51768">
        <ele>3.6</ele>
        <time>2017-12-16T12:13:59Z</time>
      </trkpt>
      <trkpt lat="44.84016" lon="-0.51757">
        <ele>4.8</ele>
        <time>2017-12-16T12:14:04Z</time>
      </trkpt>
      <trkpt lat="44.84016" lon="-0.51747">
        <ele>2.5</ele>
        <time>2017-12-16T12:14:10Z</time>
      </trkpt>
      <trkpt lat="44.84018" lon="-0.51736">
        <ele>-0.2</ele>
        <time>2017-12-16T12:14:17Z</time>
      </trkpt>
      <trkpt lat="44.84019" lon="-0.51724">
        <ele>-1.8</ele>
        <time>2017-12-16T12:14:24Z</time>
      </trkpt>
      <trkpt lat="44.8402" lon="-0.51712">
        <ele>-2.2</ele>
        <time>2017-12-16T12:14:30Z</time>
      </trkpt>
      <trkpt lat="44.84021" lon="-0.517">
        <ele>0.9</ele>
        <time>2017-12-16T12:14:36Z</time>
      </trkpt>
      <trkpt lat="44.84022" lon="-0.5169">
        <ele>3.8</ele>
        <time>2017-12-16T12:14:41Z</time>
      </trkpt>
      <trkpt lat="44.84024" lon="-0.51677">
        <ele>5.6</ele>
        <time>2017-12-16T12:14:48Z</time>
      </trkpt>
      <trkpt lat="44.84026" lon="-0.51666">
        <ele>6.3</ele>
        <time>2017-12-16T12:14:55Z</time>
      </trkpt>
      <trkpt lat="44.84028" lon="-0.51655">
        <ele>6.7</ele>
        <time>2017-12-16T12:15:01Z</time>
      </trkpt>
      <trkpt lat="44.84029" lon="-0.51644">
        <ele>6.2</ele>
        <time>2017-12-16T12:15:07Z</time>
      </trkpt>
      <trkpt lat="44.8403" lon="-0.51633">
        <ele>5.7</ele>
        <time>2017-12-16T12:15:13Z</time>
      </trkpt>
      <trkpt lat="44.84032" lon="-0.51622">
        <ele>6</ele>
        <time>2017-12-16T12:15:19Z</time>
      </trkpt>
      <trkpt lat="44.84038" lon="-0.51615">
        <ele>7.3</ele>
        <time>2017-12-16T12:15:25Z</time>
      </trkpt>
      <trkpt lat="44.84046" lon="-0.51608">
        <ele>6.6</ele>
        <time>2017-12-16T12:15:32Z</time>
      </trkpt>
      <trkpt lat="44.84054" lon="-0.51604">
        <ele>5.8</ele>
        <time>2017-12-16T12:15:39Z</time>
      </trkpt>
      <trkpt lat="44.84062" lon="-0.51601">
        <ele>5.6</ele>
        <time>2017-12-16T12:15:46Z</time>
      </trkpt>
      <trkpt lat="44.8407" lon="-0.516">
        <ele>4.4</ele>
        <time>2017-12-16T12:15:52Z</time>
      </trkpt>
      <trkpt lat="44.84078" lon="-0.51599">
        <ele>3.8</ele>
        <time>2017-12-16T12:15:58Z</time>
      </trkpt>
      <trkpt lat="44.84086" lon="-0.51598">
        <ele>2</ele>
        <time>2017-12-16T12:16:05Z</time>
      </trkpt>
      <trkpt lat="44.84095" lon="-0.51599">
        <ele>-1.8</ele>
        <time>2017-12-16T12:16:11Z</time>
      </trkpt>
      <trkpt lat="44.84102" lon="-0.51595">
        <ele>-4</ele>
        <time>2017-12-16T12:16:18Z</time>
      </trkpt>
      <trkpt lat="44.84111" lon="-0.51593">
        <ele>-2</ele>
        <time>2017-12-16T12:16:25Z</time>
      </trkpt>
      <trkpt lat="44.84119" lon="-0.51589">
        <ele>0.4</ele>
        <time>2017-12-16T12:16:32Z</time>
      </trkpt>
      <trkpt lat="44.84126" lon="-0.51584">
        <ele>4.2</ele>
        <time>2017-12-16T12:16:39Z</time>
      </trkpt>
      <trkpt lat="44.84132" lon="-0.51576">
        <ele>5.7</ele>
        <time>2017-12-16T12:16:45Z</time>
      </trkpt>
      <trkpt lat="44.84139" lon="-0.51568">
        <ele>5.7</ele>
        <time>2017-12-16T12:16:51Z</time>
      </trkpt>
      <trkpt lat="44.84146" lon="-0.51561">
        <ele>7.1</ele>
        <time>2017-12-16T12:16:58Z</time>
      </trkpt>
      <trkpt lat="44.84153" lon="-0.51557">
        <ele>7.2</ele>
        <time>2017-12-16T12:17:04Z</time>
      </trkpt>
      <trkpt lat="44.8416" lon="-0.51552">
        <ele>8.7</ele>
        <time>2017-12-16T12:17:11Z</time>
      </trkpt>
      <trkpt lat="44.84168" lon="-0.51548">
        <ele>9</ele>
        <time>2017-12-16T12:17:17Z</time>
      </trkpt>
      <trkpt lat="44.84176" lon="-0.51543">
        <ele>10.7</ele>
        <time>2017-12-16T12:17:24Z</time>
      </trkpt>
      <trkpt lat="44.84185" lon="-0.51543">
        <ele>11.3</ele>
        <time>2017-12-16T12:17:31Z</time>
      </trkpt>
      <trkpt lat="44.84193" lon="-0.51545">
        <ele>9.2</ele>
        <time>2017-12-16T12:17:37Z</time>
      </trkpt>
      <trkpt lat="44.84201" lon="-0.51548">
        <ele>5.1</ele>
        <time>2017-12-16T12:17:43Z</time>
      </trkpt>
      <trkpt lat="44.84209" lon="-0.51551">
        <ele>4</ele>
        <time>2017-12-16T12:17:49Z</time>
      </trkpt>
      <trkpt lat="44.84217" lon="-0.51554">
        <ele>3.6</ele>
        <time>2017-12-16T12:17:56Z</time>
      </trkpt>
      <trkpt lat="44.84225" lon="-0.51557">
        <ele>1.1</ele>
        <time>2017-12-16T12:18:03Z</time>
      </trkpt>
      <trkpt lat="44.84233" lon="-0.51562">
        <ele>-1.7</ele>
        <time>2017-12-16T12:18:10Z</time>
      </trkpt>
      <trkpt lat="44.84239" lon="-0.51569">
        <ele>-4.8</ele>
        <time>2017-12-16T12:18:16Z</time>
      </trkpt>
      <trkpt lat="44.84245" lon="-0.51577">
        <ele>-3.8</ele>
        <time>2017-12-16T12:18:24Z</time>
      </trkpt>
      <trkpt lat="44.84253" lon="-0.51583">
        <ele>-1.7</ele>
        <time>2017-12-16T12:18:31Z</time>
      </trkpt>
      <trkpt lat="44.84262" lon="-0.51583">
        <ele>-2.4</ele>
        <time>2017-12-16T12:18:37Z</time>
      </trkpt>
      <trkpt lat="44.8427" lon="-0.5158">
        <ele>-1.1</ele>
        <time>2017-12-16T12:18:44Z</time>
      </trkpt>
      <trkpt lat="44.84274" lon="-0.51568">
        <ele>1.1</ele>
        <time>2017-12-16T12:18:51Z</time>
      </trkpt>
      <trkpt lat="44.84274" lon="-0.51557">
        <ele>4.7</ele>
        <time>2017-12-16T12:18:56Z</time>
      </trkpt>
      <trkpt lat="44.84277" lon="-0.51546">
        <ele>6.7</ele>
        <time>2017-12-16T12:19:03Z</time>
      </trkpt>
      <trkpt lat="44.84281" lon="-0.51536">
        <ele>8</ele>
        <time>2017-12-16T12:19:09Z</time>
      </trkpt>
      <trkpt lat="44.84285" lon="-0.51526">
        <ele>8.2</ele>
        <time>2017-12-16T12:19:15Z</time>
      </trkpt>
      <trkpt lat="44.8429" lon="-0.51516">
        <ele>9.1</ele>
        <time>2017-12-16T12:19:21Z</time>
      </trkpt>
      <trkpt lat="44.84294" lon="-0.51505">
        <ele>9.3</ele>
        <time>2017-12-16T12:19:27Z</time>
      </trkpt>
      <trkpt lat="44.84299" lon="-0.51495">
        <ele>8.7</ele>
        <time>2017-12-16T12:19:34Z</time>
      </trkpt>
      <trkpt lat="44.84304" lon="-0.51486">
        <ele>8.4</ele>
        <time>2017-12-16T12:19:41Z</time>
      </trkpt>
      <trkpt lat="44.84309" lon="-0.51477">
        <ele>9.1</ele>
        <time>2017-12-16T12:19:47Z</time>
      </trkpt>
      <trkpt lat="44.84313" lon="-0.51466">
        <ele>9.9</ele>
        <time>2017-12-16T12:19:54Z</time>
      </trkpt>
      <trkpt lat="44.84318" lon="-0.51457">
        <ele>9.5</ele>
        <time>2017-12-16T12:20:01Z</time>
      </trkpt>
      <trkpt lat="44.84323" lon="-0.51447">
        <ele>8.4</ele>
        <time>2017-12-16T12:20:08Z</time>
      </trkpt>
      <trkpt lat="44.84326" lon="-0.51436">
        <ele>7.4</ele>
        <time>2017-12-16T12:20:14Z</time>
      </trkpt>
      <trkpt lat="44.8433" lon="-0.51426">
        <ele>8</ele>
        <time>2017-12-16T12:20:20Z</time>
      </trkpt>
      <trkpt lat="44.84332" lon="-0.51414">
        <ele>8.4</ele>
        <time>2017-12-16T12:20:27Z</time>
      </trkpt>
      <trkpt lat="44.84332" lon="-0.51402">
        <ele>8.9</ele>
        <time>2017-12-16T12:20:33Z</time>
      </trkpt>
      <trkpt lat="44.84331" lon="-0.51391">
        <ele>10.3</ele>
        <time>2017-12-16T12:20:38Z</time>
      </trkpt>
      <trkpt lat="44.84331" lon="-0.51381">
        <ele>10.9</ele>
        <time>2017-12-16T12:20:44Z</time>
      </trkpt>
      <trkpt lat="44.84331" lon="-0.51368">
        <ele>11</ele>
        <time>2017-12-16T12:20:51Z</time>
      </trkpt>
      <trkpt lat="44.84328" lon="-0.51359">
        <ele>6.9</ele>
        <time>2017-12-16T12:20:59Z</time>
      </trkpt>
      <trkpt lat="44.84323" lon="-0.51348">
        <ele>9.1</ele>
        <time>2017-12-16T12:21:05Z</time>
      </trkpt>
      <trkpt lat="44.84324" lon="-0.51337">
        <ele>11.7</ele>
        <time>2017-12-16T12:21:15Z</time>
      </trkpt>
      <trkpt lat="44.84326" lon="-0.51325">
        <ele>11.1</ele>
        <time>2017-12-16T12:21:22Z</time>
      </trkpt>
      <trkpt lat="44.84325" lon="-0.51313">
        <ele>9.3</ele>
        <time>2017-12-16T12:21:29Z</time>
      </trkpt>
      <trkpt lat="44.84325" lon="-0.51301">
        <ele>8.7</ele>
        <time>2017-12-16T12:21:34Z</time>
      </trkpt>
      <trkpt lat="44.84324" lon="-0.51289">
        <ele>9</ele>
        <time>2017-12-16T12:21:40Z</time>
      </trkpt>
      <trkpt lat="44.84324" lon="-0.51277">
        <ele>7.6</ele>
        <time>2017-12-16T12:21:46Z</time>
      </trkpt>
      <trkpt lat="44.84323" lon="-0.51265">
        <ele>7.3</ele>
        <time>2017-12-16T12:21:52Z</time>
      </trkpt>
      <trkpt lat="44.84322" lon="-0.51253">
        <ele>4.9</ele>
        <time>2017-12-16T12:22:00Z</time>
      </trkpt>
      <trkpt lat="44.84319" lon="-0.51242">
        <ele>4.8</ele>
        <time>2017-12-16T12:22:06Z</time>
      </trkpt>
      <trkpt lat="44.84317" lon="-0.51231">
        <ele>6.3</ele>
        <time>2017-12-16T12:22:12Z</time>
      </trkpt>
      <trkpt lat="44.84315" lon="-0.51219">
        <ele>6.6</ele>
        <time>2017-12-16T12:22:18Z</time>
      </trkpt>
      <trkpt lat="44.84312" lon="-0.51208">
        <ele>4.7</ele>
        <time>2017-12-16T12:22:24Z</time>
      </trkpt>
      <trkpt lat="44.8431" lon="-0.51196">
        <ele>1.4</ele>
        <time>2017-12-16T12:22:32Z</time>
      </trkpt>
      <trkpt lat="44.84308" lon="-0.51185">
        <ele>65.8</ele>
        <time>2017-12-16T12:22:39Z</time>
      </trkpt>
      <trkpt lat="44.84305" lon="-0.51174">
        <ele>-5.1</ele>
        <time>2017-12-16T12:22:47Z</time>
      </trkpt>
      <trkpt lat="44.84299" lon="-0.51166">
        <ele>-4.4</ele>
        <time>2017-12-16T12:22:53Z</time>
      </trkpt>
      <trkpt lat="44.84292" lon="-0.51159">
        <ele>0.7</ele>
        <time>2017-12-16T12:22:59Z</time>
      </trkpt>
      <trkpt lat="44.84289" lon="-0.51147">
        <ele>3.1</ele>
        <time>2017-12-16T12:23:05Z</time>
      </trkpt>
      <trkpt lat="44.84287" lon="-0.51135">
        <ele>3.5</ele>
        <time>2017-12-16T12:23:11Z</time>
      </trkpt>
      <trkpt lat="44.84285" lon="-0.51124">
        <ele>1.6</ele>
        <time>2017-12-16T12:23:17Z</time>
      </trkpt>
      <trkpt lat="44.84286" lon="-0.51114">
        <ele>3.7</ele>
        <time>2017-12-16T12:23:22Z</time>
      </trkpt>
      <trkpt lat="44.84285" lon="-0.51101">
        <ele>6.6</ele>
        <time>2017-12-16T12:23:27Z</time>
      </trkpt>
      <trkpt lat="44.84284" lon="-0.5109">
        <ele>6.9</ele>
        <time>2017-12-16T12:23:33Z</time>
      </trkpt>
      <trkpt lat="44.84283" lon="-0.5108">
        <ele>6.8</ele>
        <time>2017-12-16T12:23:38Z</time>
      </trkpt>
      <trkpt lat="44.8428" lon="-0.5107">
        <ele>7.4</ele>
        <time>2017-12-16T12:23:43Z</time>
      </trkpt>
      <trkpt lat="44.84278" lon="-0.51059">
        <ele>7.7</ele>
        <time>2017-12-16T12:23:49Z</time>
      </trkpt>
      <trkpt lat="44.84276" lon="-0.51047">
        <ele>6.2</ele>
        <time>2017-12-16T12:23:56Z</time>
      </trkpt>
      <trkpt lat="44.84275" lon="-0.51035">
        <ele>6.9</ele>
        <time>2017-12-16T12:24:02Z</time>
      </trkpt>
      <trkpt lat="44.84271" lon="-0.51024">
        <ele>5.1</ele>
        <time>2017-12-16T12:24:10Z</time>
      </trkpt>
      <trkpt lat="44.84267" lon="-0.51015">
        <ele>3.8</ele>
        <time>2017-12-16T12:24:17Z</time>
      </trkpt>
      <trkpt lat="44.84262" lon="-0.51004">
        <ele>0.1</ele>
        <time>2017-12-16T12:24:25Z</time>
      </trkpt>
      <trkpt lat="44.84259" lon="-0.50993">
        <ele>0.6</ele>
        <time>2017-12-16T12:24:33Z</time>
      </trkpt>
      <trkpt lat="44.84267" lon="-0.50987">
        <ele>-0.5</ele>
        <time>2017-12-16T12:24:40Z</time>
      </trkpt>
      <trkpt lat="44.84276" lon="-0.50983">
        <ele>-1.8</ele>
        <time>2017-12-16T12:24:48Z</time>
      </trkpt>
      <trkpt lat="44.84283" lon="-0.50976">
        <ele>-1.2</ele>
        <time>2017-12-16T12:24:55Z</time>
      </trkpt>
      <trkpt lat="44.84291" lon="-0.5097">
        <ele>-0.2</ele>
        <time>2017-12-16T12:25:03Z</time>
      </trkpt>
      <trkpt lat="44.84298" lon="-0.50967">
        <ele>-1.1</ele>
        <time>2017-12-16T12:25:10Z</time>
      </trkpt>
      <trkpt lat="44.84307" lon="-0.50965">
        <ele>1</ele>
        <time>2017-12-16T12:25:17Z</time>
      </trkpt>
      <trkpt lat="44.84315" lon="-0.50962">
        <ele>1.9</ele>
        <time>2017-12-16T12:25:23Z</time>
      </trkpt>
      <trkpt lat="44.84322" lon="-0.50957">
        <ele>2</ele>
        <time>2017-12-16T12:25:29Z</time>
      </trkpt>
      <trkpt lat="44.84331" lon="-0.50954">
        <ele>1.9</ele>
        <time>2017-12-16T12:25:36Z</time>
      </trkpt>
      <trkpt lat="44.84339" lon="-0.50952">
        <ele>1.1</ele>
        <time>2017-12-16T12:25:42Z</time>
      </trkpt>
      <trkpt lat="44.84347" lon="-0.50948">
        <ele>1.7</ele>
        <time>2017-12-16T12:25:48Z</time>
      </trkpt>
      <trkpt lat="44.84354" lon="-0.50945">
        <ele>2.2</ele>
        <time>2017-12-16T12:25:54Z</time>
      </trkpt>
      <trkpt lat="44.84361" lon="-0.50939">
        <ele>-0.2</ele>
        <time>2017-12-16T12:26:02Z</time>
      </trkpt>
      <trkpt lat="44.84361" lon="-0.50926">
        <ele>-0.1</ele>
        <time>2017-12-16T12:26:11Z</time>
      </trkpt>
      <trkpt lat="44.84359" lon="-0.50916">
        <ele>4.7</ele>
        <time>2017-12-16T12:26:18Z</time>
      </trkpt>
      <trkpt lat="44.84356" lon="-0.50904">
        <ele>2.8</ele>
        <time>2017-12-16T12:26:27Z</time>
      </trkpt>
      <trkpt lat="44.84355" lon="-0.50894">
        <ele>4.5</ele>
        <time>2017-12-16T12:26:33Z</time>
      </trkpt>
      <trkpt lat="44.84354" lon="-0.50882">
        <ele>6</ele>
        <time>2017-12-16T12:26:39Z</time>
      </trkpt>
      <trkpt lat="44.84354" lon="-0.5087">
        <ele>7.2</ele>
        <time>2017-12-16T12:26:46Z</time>
      </trkpt>
      <trkpt lat="44.84353" lon="-0.50858">
        <ele>8.7</ele>
        <time>2017-12-16T12:26:53Z</time>
      </trkpt>
      <trkpt lat="44.84352" lon="-0.50846">
        <ele>9.4</ele>
        <time>2017-12-16T12:27:00Z</time>
      </trkpt>
      <trkpt lat="44.84351" lon="-0.50833">
        <ele>8.1</ele>
        <time>2017-12-16T12:27:07Z</time>
      </trkpt>
      <trkpt lat="44.84349" lon="-0.50822">
        <ele>7.4</ele>
        <time>2017-12-16T12:27:14Z</time>
      </trkpt>
      <trkpt lat="44.84348" lon="-0.5081">
        <ele>7.2</ele>
        <time>2017-12-16T12:27:20Z</time>
      </trkpt>
      <trkpt lat="44.84346" lon="-0.50799">
        <ele>5.8</ele>
        <time>2017-12-16T12:27:28Z</time>
      </trkpt>
      <trkpt lat="44.84344" lon="-0.50789">
        <ele>6.4</ele>
        <time>2017-12-16T12:27:34Z</time>
      </trkpt>
      <trkpt lat="44.84343" lon="-0.50778">
        <ele>8.6</ele>
        <time>2017-12-16T12:27:39Z</time>
      </trkpt>
      <trkpt lat="44.84341" lon="-0.50766">
        <ele>9.6</ele>
        <time>2017-12-16T12:27:45Z</time>
      </trkpt>
      <trkpt lat="44.8434" lon="-0.50754">
        <ele>9.4</ele>
        <time>2017-12-16T12:27:52Z</time>
      </trkpt>
      <trkpt lat="44.84338" lon="-0.50742">
        <ele>9.6</ele>
        <time>2017-12-16T12:27:58Z</time>
      </trkpt>
      <trkpt lat="44.84337" lon="-0.50731">
        <ele>8.5</ele>
        <time>2017-12-16T12:28:06Z</time>
      </trkpt>
      <trkpt lat="44.84336" lon="-0.50718">
        <ele>9</ele>
        <time>2017-12-16T12:28:13Z</time>
      </trkpt>
      <trkpt lat="44.84334" lon="-0.50707">
        <ele>9.9</ele>
        <time>2017-12-16T12:28:19Z</time>
      </trkpt>
      <trkpt lat="44.84333" lon="-0.50695">
        <ele>8.8</ele>
        <time>2017-12-16T12:28:26Z</time>
      </trkpt>
      <trkpt lat="44.8433" lon="-0.50684">
        <ele>9.3</ele>
        <time>2017-12-16T12:28:32Z</time>
      </trkpt>
      <trkpt lat="44.84326" lon="-0.50674">
        <ele>9.9</ele>
        <time>2017-12-16T12:28:38Z</time>
      </trkpt>
      <trkpt lat="44.84323" lon="-0.50663">
        <ele>11.1</ele>
        <time>2017-12-16T12:28:44Z</time>
      </trkpt>
      <trkpt lat="44.84318" lon="-0.50655">
        <ele>12.4</ele>
        <time>2017-12-16T12:28:48Z</time>
      </trkpt>
      <trkpt lat="44.84311" lon="-0.50648">
        <ele>15</ele>
        <time>2017-12-16T12:28:54Z</time>
      </trkpt>
      <trkpt lat="44.84305" lon="-0.50641">
        <ele>22.1</ele>
        <time>2017-12-16T12:29:00Z</time>
      </trkpt>
      <trkpt lat="44.84298" lon="-0.50635">
        <ele>27</ele>
        <time>2017-12-16T12:29:06Z</time>
      </trkpt>
      <trkpt lat="44.8429" lon="-0.5063">
        <ele>29.1</ele>
        <time>2017-12-16T12:29:12Z</time>
      </trkpt>
      <trkpt lat="44.84284" lon="-0.50623">
        <ele>29</ele>
        <time>2017-12-16T12:29:18Z</time>
      </trkpt>
      <trkpt lat="44.84277" lon="-0.50616">
        <ele>27.8</ele>
        <time>2017-12-16T12:29:24Z</time>
      </trkpt>
      <trkpt lat="44.84271" lon="-0.50606">
        <ele>29.3</ele>
        <time>2017-12-16T12:29:30Z</time>
      </trkpt>
      <trkpt lat="44.84266" lon="-0.50598">
        <ele>28.3</ele>
        <time>2017-12-16T12:29:36Z</time>
      </trkpt>
      <trkpt lat="44.84264" lon="-0.50586">
        <ele>27</ele>
        <time>2017-12-16T12:29:42Z</time>
      </trkpt>
      <trkpt lat="44.84261" lon="-0.50576">
        <ele>23.5</ele>
        <time>2017-12-16T12:29:49Z</time>
      </trkpt>
      <trkpt lat="44.84259" lon="-0.50564">
        <ele>21</ele>
        <time>2017-12-16T12:29:56Z</time>
      </trkpt>
      <trkpt lat="44.84256" lon="-0.50552">
        <ele>20.1</ele>
        <time>2017-12-16T12:30:02Z</time>
      </trkpt>
      <trkpt lat="44.84252" lon="-0.50542">
        <ele>19.8</ele>
        <time>2017-12-16T12:30:08Z</time>
      </trkpt>
      <trkpt lat="44.84249" lon="-0.50532">
        <ele>19.1</ele>
        <time>2017-12-16T12:30:14Z</time>
      </trkpt>
      <trkpt lat="44.84248" lon="-0.5052">
        <ele>18.2</ele>
        <time>2017-12-16T12:30:21Z</time>
      </trkpt>
      <trkpt lat="44.84246" lon="-0.50509">
        <ele>15.3</ele>
        <time>2017-12-16T12:30:29Z</time>
      </trkpt>
      <trkpt lat="44.84244" lon="-0.50497">
        <ele>15.6</ele>
        <time>2017-12-16T12:30:35Z</time>
      </trkpt>
      <trkpt lat="44.84242" lon="-0.50486">
        <ele>15.4</ele>
        <time>2017-12-16T12:30:41Z</time>
      </trkpt>
      <trkpt lat="44.84241" lon="-0.50474">
        <ele>14.5</ele>
        <time>2017-12-16T12:30:48Z</time>
      </trkpt>
      <trkpt lat="44.84238" lon="-0.50465">
        <ele>12.2</ele>
        <time>2017-12-16T12:30:55Z</time>
      </trkpt>
      <trkpt lat="44.84235" lon="-0.50453">
        <ele>13.4</ele>
        <time>2017-12-16T12:31:01Z</time>
      </trkpt>
      <trkpt lat="44.84232" lon="-0.50442">
        <ele>11.2</ele>
        <time>2017-12-16T12:31:09Z</time>
      </trkpt>
      <trkpt lat="44.84227" lon="-0.50432">
        <ele>10.1</ele>
        <time>2017-12-16T12:31:15Z</time>
      </trkpt>
      <trkpt lat="44.84222" lon="-0.50423">
        <ele>10.6</ele>
        <time>2017-12-16T12:31:21Z</time>
      </trkpt>
      <trkpt lat="44.84217" lon="-0.50414">
        <ele>12.9</ele>
        <time>2017-12-16T12:31:27Z</time>
      </trkpt>
      <trkpt lat="44.84211" lon="-0.50405">
        <ele>14.9</ele>
        <time>2017-12-16T12:31:34Z</time>
      </trkpt>
      <trkpt lat="44.84206" lon="-0.50396">
        <ele>17.2</ele>
        <time>2017-12-16T12:31:40Z</time>
      </trkpt>
      <trkpt lat="44.842" lon="-0.50388">
        <ele>19.5</ele>
        <time>2017-12-16T12:31:46Z</time>
      </trkpt>
      <trkpt lat="44.84195" lon="-0.50379">
        <ele>23.2</ele>
        <time>2017-12-16T12:31:51Z</time>
      </trkpt>
      <trkpt lat="44.8419" lon="-0.50371">
        <ele>24.1</ele>
        <time>2017-12-16T12:31:57Z</time>
      </trkpt>
      <trkpt lat="44.84184" lon="-0.50362">
        <ele>24.1</ele>
        <time>2017-12-16T12:32:04Z</time>
      </trkpt>
      <trkpt lat="44.84177" lon="-0.50354">
        <ele>25.7</ele>
        <time>2017-12-16T12:32:11Z</time>
      </trkpt>
      <trkpt lat="44.8417" lon="-0.50347">
        <ele>27</ele>
        <time>2017-12-16T12:32:18Z</time>
      </trkpt>
      <trkpt lat="44.84163" lon="-0.50341">
        <ele>27.9</ele>
        <time>2017-12-16T12:32:23Z</time>
      </trkpt>
      <trkpt lat="44.84155" lon="-0.50339">
        <ele>27.7</ele>
        <time>2017-12-16T12:32:30Z</time>
      </trkpt>
      <trkpt lat="44.84147" lon="-0.50339">
        <ele>26.6</ele>
        <time>2017-12-16T12:32:36Z</time>
      </trkpt>
      <trkpt lat="44.84139" lon="-0.50339">
        <ele>25.5</ele>
        <time>2017-12-16T12:32:43Z</time>
      </trkpt>
      <trkpt lat="44.84131" lon="-0.5034">
        <ele>23.7</ele>
        <time>2017-12-16T12:32:50Z</time>
      </trkpt>
      <trkpt lat="44.84123" lon="-0.50343">
        <ele>18.1</ele>
        <time>2017-12-16T12:32:57Z</time>
      </trkpt>
      <trkpt lat="44.84117" lon="-0.50351">
        <ele>15.6</ele>
        <time>2017-12-16T12:33:04Z</time>
      </trkpt>
      <trkpt lat="44.84115" lon="-0.50364">
        <ele>13.2</ele>
        <time>2017-12-16T12:33:11Z</time>
      </trkpt>
      <trkpt lat="44.84114" lon="-0.50375">
        <ele>10</ele>
        <time>2017-12-16T12:33:17Z</time>
      </trkpt>
      <trkpt lat="44.84114" lon="-0.50386">
        <ele>5.1</ele>
        <time>2017-12-16T12:33:23Z</time>
      </trkpt>
      <trkpt lat="44.84118" lon="-0.50396">
        <ele>8.5</ele>
        <time>2017-12-16T12:33:29Z</time>
      </trkpt>
      <trkpt lat="44.84122" lon="-0.50406">
        <ele>13.5</ele>
        <time>2017-12-16T12:33:35Z</time>
      </trkpt>
      <trkpt lat="44.84126" lon="-0.50417">
        <ele>15</ele>
        <time>2017-12-16T12:33:42Z</time>
      </trkpt>
      <trkpt lat="44.84128" lon="-0.50429">
        <ele>13.2</ele>
        <time>2017-12-16T12:33:49Z</time>
      </trkpt>
      <trkpt lat="44.84131" lon="-0.5044">
        <ele>13</ele>
        <time>2017-12-16T12:33:56Z</time>
      </trkpt>
      <trkpt lat="44.84132" lon="-0.50451">
        <ele>12.8</ele>
        <time>2017-12-16T12:34:01Z</time>
      </trkpt>
      <trkpt lat="44.84134" lon="-0.50462">
        <ele>12</ele>
        <time>2017-12-16T12:34:07Z</time>
      </trkpt>
      <trkpt lat="44.84135" lon="-0.50474">
        <ele>12.2</ele>
        <time>2017-12-16T12:34:13Z</time>
      </trkpt>
      <trkpt lat="44.84136" lon="-0.50487">
        <ele>12.2</ele>
        <time>2017-12-16T12:34:19Z</time>
      </trkpt>
      <trkpt lat="44.8414" lon="-0.50497">
        <ele>15.3</ele>
        <time>2017-12-16T12:34:25Z</time>
      </trkpt>
      <trkpt lat="44.84141" lon="-0.5051">
        <ele>15.8</ele>
        <time>2017-12-16T12:34:32Z</time>
      </trkpt>
      <trkpt lat="44.84143" lon="-0.50521">
        <ele>18</ele>
        <time>2017-12-16T12:34:38Z</time>
      </trkpt>
      <trkpt lat="44.84145" lon="-0.50533">
        <ele>18.1</ele>
        <time>2017-12-16T12:34:45Z</time>
      </trkpt>
      <trkpt lat="44.84144" lon="-0.50544">
        <ele>10.2</ele>
        <time>2017-12-16T12:34:54Z</time>
      </trkpt>
      <trkpt lat="44.84148" lon="-0.50555">
        <ele>7.2</ele>
        <time>2017-12-16T12:35:01Z</time>
      </trkpt>
      <trkpt lat="44.84151" lon="-0.50566">
        <ele>8.9</ele>
        <time>2017-12-16T12:35:07Z</time>
      </trkpt>
      <trkpt lat="44.84153" lon="-0.50578">
        <ele>12.5</ele>
        <time>2017-12-16T12:35:15Z</time>
      </trkpt>
      <trkpt lat="44.84156" lon="-0.50588">
        <ele>15.9</ele>
        <time>2017-12-16T12:35:20Z</time>
      </trkpt>
      <trkpt lat="44.84158" lon="-0.50599">
        <ele>17.6</ele>
        <time>2017-12-16T12:35:26Z</time>
      </trkpt>
      <trkpt lat="44.8416" lon="-0.50611">
        <ele>13.3</ele>
        <time>2017-12-16T12:35:36Z</time>
      </trkpt>
      <trkpt lat="44.8416" lon="-0.50622">
        <ele>13.7</ele>
        <time>2017-12-16T12:35:45Z</time>
      </trkpt>
      <trkpt lat="44.84156" lon="-0.50633">
        <ele>15.4</ele>
        <time>2017-12-16T12:35:52Z</time>
      </trkpt>
      <trkpt lat="44.84152" lon="-0.50644">
        <ele>15.3</ele>
        <time>2017-12-16T12:35:59Z</time>
      </trkpt>
      <trkpt lat="44.84149" lon="-0.50654">
        <ele>17.7</ele>
        <time>2017-12-16T12:36:06Z</time>
      </trkpt>
      <trkpt lat="44.84145" lon="-0.50665">
        <ele>19.2</ele>
        <time>2017-12-16T12:36:12Z</time>
      </trkpt>
      <trkpt lat="44.84141" lon="-0.50675">
        <ele>22.1</ele>
        <time>2017-12-16T12:36:19Z</time>
      </trkpt>
      <trkpt lat="44.84135" lon="-0.50683">
        <ele>22.5</ele>
        <time>2017-12-16T12:36:26Z</time>
      </trkpt>
      <trkpt lat="44.84127" lon="-0.50689">
        <ele>21.8</ele>
        <time>2017-12-16T12:36:32Z</time>
      </trkpt>
      <trkpt lat="44.8412" lon="-0.50695">
        <ele>19.9</ele>
        <time>2017-12-16T12:36:38Z</time>
      </trkpt>
      <trkpt lat="44.84113" lon="-0.50702">
        <ele>19.1</ele>
        <time>2017-12-16T12:36:44Z</time>
      </trkpt>
      <trkpt lat="44.84107" lon="-0.50709">
        <ele>17.5</ele>
        <time>2017-12-16T12:36:50Z</time>
      </trkpt>
      <trkpt lat="44.841" lon="-0.50713">
        <ele>17.7</ele>
        <time>2017-12-16T12:36:56Z</time>
      </trkpt>
      <trkpt lat="44.84092" lon="-0.50718">
        <ele>16.5</ele>
        <time>2017-12-16T12:37:04Z</time>
      </trkpt>
      <trkpt lat="44.84084" lon="-0.50723">
        <ele>16.5</ele>
        <time>2017-12-16T12:37:11Z</time>
      </trkpt>
      <trkpt lat="44.84075" lon="-0.50726">
        <ele>16.7</ele>
        <time>2017-12-16T12:37:18Z</time>
      </trkpt>
      <trkpt lat="44.84067" lon="-0.50731">
        <ele>16.6</ele>
        <time>2017-12-16T12:37:23Z</time>
      </trkpt>
      <trkpt lat="44.84059" lon="-0.50734">
        <ele>14.8</ele>
        <time>2017-12-16T12:37:31Z</time>
      </trkpt>
      <trkpt lat="44.8405" lon="-0.50731">
        <ele>16.2</ele>
        <time>2017-12-16T12:37:38Z</time>
      </trkpt>
      <trkpt lat="44.84044" lon="-0.50722">
        <ele>16.4</ele>
        <time>2017-12-16T12:37:46Z</time>
      </trkpt>
      <trkpt lat="44.84039" lon="-0.50713">
        <ele>15.3</ele>
        <time>2017-12-16T12:37:52Z</time>
      </trkpt>
      <trkpt lat="44.84032" lon="-0.50704">
        <ele>12.5</ele>
        <time>2017-12-16T12:38:01Z</time>
      </trkpt>
      <trkpt lat="44.84028" lon="-0.50696">
        <ele>14.7</ele>
        <time>2017-12-16T12:38:06Z</time>
      </trkpt>
      <trkpt lat="44.84023" lon="-0.50686">
        <ele>14.7</ele>
        <time>2017-12-16T12:38:12Z</time>
      </trkpt>
      <trkpt lat="44.84017" lon="-0.50677">
        <ele>15.5</ele>
        <time>2017-12-16T12:38:17Z</time>
      </trkpt>
      <trkpt lat="44.84013" lon="-0.50668">
        <ele>16</ele>
        <time>2017-12-16T12:38:23Z</time>
      </trkpt>
      <trkpt lat="44.84009" lon="-0.50659">
        <ele>16.1</ele>
        <time>2017-12-16T12:38:28Z</time>
      </trkpt>
      <trkpt lat="44.84004" lon="-0.50649">
        <ele>17.6</ele>
        <time>2017-12-16T12:38:34Z</time>
      </trkpt>
      <trkpt lat="44.83999" lon="-0.50642">
        <ele>18.3</ele>
        <time>2017-12-16T12:38:39Z</time>
      </trkpt>
      <trkpt lat="44.83992" lon="-0.50634">
        <ele>17.8</ele>
        <time>2017-12-16T12:38:46Z</time>
      </trkpt>
      <trkpt lat="44.83986" lon="-0.50626">
        <ele>19.2</ele>
        <time>2017-12-16T12:38:52Z</time>
      </trkpt>
      <trkpt lat="44.83979" lon="-0.5062">
        <ele>17.3</ele>
        <time>2017-12-16T12:38:59Z</time>
      </trkpt>
      <trkpt lat="44.83972" lon="-0.50613">
        <ele>16.6</ele>
        <time>2017-12-16T12:39:06Z</time>
      </trkpt>
      <trkpt lat="44.83964" lon="-0.5061">
        <ele>16.6</ele>
        <time>2017-12-16T12:39:12Z</time>
      </trkpt>
      <trkpt lat="44.83956" lon="-0.50605">
        <ele>16.2</ele>
        <time>2017-12-16T12:39:18Z</time>
      </trkpt>
      <trkpt lat="44.83949" lon="-0.50602">
        <ele>16</ele>
        <time>2017-12-16T12:39:24Z</time>
      </trkpt>
      <trkpt lat="44.83941" lon="-0.506">
        <ele>16.5</ele>
        <time>2017-12-16T12:39:30Z</time>
      </trkpt>
      <trkpt lat="44.83933" lon="-0.50601">
        <ele>17.5</ele>
        <time>2017-12-16T12:39:36Z</time>
      </trkpt>
      <trkpt lat="44.83924" lon="-0.506">
        <ele>19.8</ele>
        <time>2017-12-16T12:39:42Z</time>
      </trkpt>
      <trkpt lat="44.83916" lon="-0.506">
        <ele>20.1</ele>
        <time>2017-12-16T12:39:49Z</time>
      </trkpt>
      <trkpt lat="44.83908" lon="-0.50601">
        <ele>18.7</ele>
        <time>2017-12-16T12:39:55Z</time>
      </trkpt>
      <trkpt lat="44.839" lon="-0.50602">
        <ele>18.9</ele>
        <time>2017-12-16T12:40:02Z</time>
      </trkpt>
      <trkpt lat="44.83892" lon="-0.50603">
        <ele>17.4</ele>
        <time>2017-12-16T12:40:08Z</time>
      </trkpt>
      <trkpt lat="44.83884" lon="-0.50604">
        <ele>14.9</ele>
        <time>2017-12-16T12:40:13Z</time>
      </trkpt>
      <trkpt lat="44.83877" lon="-0.50602">
        <ele>13.9</ele>
        <time>2017-12-16T12:40:19Z</time>
      </trkpt>
      <trkpt lat="44.83868" lon="-0.50601">
        <ele>13.8</ele>
        <time>2017-12-16T12:40:25Z</time>
      </trkpt>
      <trkpt lat="44.83861" lon="-0.50598">
        <ele>12.3</ele>
        <time>2017-12-16T12:40:31Z</time>
      </trkpt>
      <trkpt lat="44.83853" lon="-0.50592">
        <ele>11.6</ele>
        <time>2017-12-16T12:40:37Z</time>
      </trkpt>
      <trkpt lat="44.83846" lon="-0.50587">
        <ele>9.4</ele>
        <time>2017-12-16T12:40:43Z</time>
      </trkpt>
      <trkpt lat="44.8384" lon="-0.50578">
        <ele>11.5</ele>
        <time>2017-12-16T12:40:50Z</time>
      </trkpt>
      <trkpt lat="44.83831" lon="-0.50577">
        <ele>12.6</ele>
        <time>2017-12-16T12:41:09Z</time>
      </trkpt>
      <trkpt lat="44.83822" lon="-0.50579">
        <ele>15</ele>
        <time>2017-12-16T12:41:18Z</time>
      </trkpt>
      <trkpt lat="44.83814" lon="-0.50578">
        <ele>14</ele>
        <time>2017-12-16T12:41:24Z</time>
      </trkpt>
      <trkpt lat="44.83805" lon="-0.50578">
        <ele>15.3</ele>
        <time>2017-12-16T12:41:30Z</time>
      </trkpt>
      <trkpt lat="44.83797" lon="-0.50576">
        <ele>16.4</ele>
        <time>2017-12-16T12:41:36Z</time>
      </trkpt>
      <trkpt lat="44.8379" lon="-0.50572">
        <ele>14.9</ele>
        <time>2017-12-16T12:41:42Z</time>
      </trkpt>
      <trkpt lat="44.83781" lon="-0.5057">
        <ele>11.8</ele>
        <time>2017-12-16T12:41:48Z</time>
      </trkpt>
      <trkpt lat="44.83774" lon="-0.5057">
        <ele>11.4</ele>
        <time>2017-12-16T12:41:54Z</time>
      </trkpt>
      <trkpt lat="44.83765" lon="-0.50568">
        <ele>9.5</ele>
        <time>2017-12-16T12:42:00Z</time>
      </trkpt>
      <trkpt lat="44.83756" lon="-0.50569">
        <ele>7.6</ele>
        <time>2017-12-16T12:42:06Z</time>
      </trkpt>
      <trkpt lat="44.83748" lon="-0.50569">
        <ele>3.8</ele>
        <time>2017-12-16T12:42:13Z</time>
      </trkpt>
      <trkpt lat="44.8374" lon="-0.50571">
        <ele>5.6</ele>
        <time>2017-12-16T12:42:19Z</time>
      </trkpt>
      <trkpt lat="44.83731" lon="-0.50571">
        <ele>4.9</ele>
        <time>2017-12-16T12:42:26Z</time>
      </trkpt>
      <trkpt lat="44.83723" lon="-0.50572">
        <ele>4</ele>
        <time>2017-12-16T12:42:32Z</time>
      </trkpt>
      <trkpt lat="44.83715" lon="-0.50573">
        <ele>3.1</ele>
        <time>2017-12-16T12:42:39Z</time>
      </trkpt>
      <trkpt lat="44.83707" lon="-0.50575">
        <ele>0.1</ele>
        <time>2017-12-16T12:42:45Z</time>
      </trkpt>
      <trkpt lat="44.83698" lon="-0.50577">
        <ele>2.7</ele>
        <time>2017-12-16T12:42:52Z</time>
      </trkpt>
      <trkpt lat="44.8369" lon="-0.50577">
        <ele>6.2</ele>
        <time>2017-12-16T12:42:58Z</time>
      </trkpt>
      <trkpt lat="44.83682" lon="-0.50579">
        <ele>5.9</ele>
        <time>2017-12-16T12:43:04Z</time>
      </trkpt>
      <trkpt lat="44.83674" lon="-0.50583">
        <ele>7.7</ele>
        <time>2017-12-16T12:43:10Z</time>
      </trkpt>
      <trkpt lat="44.83666" lon="-0.50582">
        <ele>7.2</ele>
        <time>2017-12-16T12:43:18Z</time>
      </trkpt>
      <trkpt lat="44.83658" lon="-0.5058">
        <ele>5.1</ele>
        <time>2017-12-16T12:43:25Z</time>
      </trkpt>
      <trkpt lat="44.8365" lon="-0.50582">
        <ele>6</ele>
        <time>2017-12-16T12:43:31Z</time>
      </trkpt>
      <trkpt lat="44.83642" lon="-0.50584">
        <ele>8.4</ele>
        <time>2017-12-16T12:43:38Z</time>
      </trkpt>
      <trkpt lat="44.83637" lon="-0.50574">
        <ele>10.6</ele>
        <time>2017-12-16T12:43:48Z</time>
      </trkpt>
      <trkpt lat="44.83637" lon="-0.50561">
        <ele>12.3</ele>
        <time>2017-12-16T12:43:56Z</time>
      </trkpt>
      <trkpt lat="44.83635" lon="-0.50549">
        <ele>14.5</ele>
        <time>2017-12-16T12:44:03Z</time>
      </trkpt>
      <trkpt lat="44.83634" lon="-0.50538">
        <ele>13.9</ele>
        <time>2017-12-16T12:44:09Z</time>
      </trkpt>
      <trkpt lat="44.83634" lon="-0.50526">
        <ele>14.5</ele>
        <time>2017-12-16T12:44:16Z</time>
      </trkpt>
      <trkpt lat="44.83632" lon="-0.50514">
        <ele>14.6</ele>
        <time>2017-12-16T12:44:24Z</time>
      </trkpt>
      <trkpt lat="44.83634" lon="-0.50502">
        <ele>12.2</ele>
        <time>2017-12-16T12:44:31Z</time>
      </trkpt>
      <trkpt lat="44.83635" lon="-0.50491">
        <ele>12.2</ele>
        <time>2017-12-16T12:44:37Z</time>
      </trkpt>
      <trkpt lat="44.83634" lon="-0.50479">
        <ele>10.2</ele>
        <time>2017-12-16T12:44:44Z</time>
      </trkpt>
      <trkpt lat="44.83634" lon="-0.50467">
        <ele>10</ele>
        <time>2017-12-16T12:44:50Z</time>
      </trkpt>
      <trkpt lat="44.83635" lon="-0.50454">
        <ele>9.8</ele>
        <time>2017-12-16T12:44:57Z</time>
      </trkpt>
      <trkpt lat="44.83635" lon="-0.50443">
        <ele>10.7</ele>
        <time>2017-12-16T12:45:03Z</time>
      </trkpt>
      <trkpt lat="44.83635" lon="-0.50432">
        <ele>10.7</ele>
        <time>2017-12-16T12:45:09Z</time>
      </trkpt>
      <trkpt lat="44.83636" lon="-0.5042">
        <ele>11.4</ele>
        <time>2017-12-16T12:45:16Z</time>
      </trkpt>
      <trkpt lat="44.83637" lon="-0.50408">
        <ele>12.5</ele>
        <time>2017-12-16T12:45:23Z</time>
      </trkpt>
      <trkpt lat="44.83638" lon="-0.50395">
        <ele>12.9</ele>
        <time>2017-12-16T12:45:30Z</time>
      </trkpt>
      <trkpt lat="44.83639" lon="-0.50384">
        <ele>16.6</ele>
        <time>2017-12-16T12:45:37Z</time>
      </trkpt>
      <trkpt lat="44.8364" lon="-0.50373">
        <ele>15.3</ele>
        <time>2017-12-16T12:45:43Z</time>
      </trkpt>
      <trkpt lat="44.83641" lon="-0.50361">
        <ele>16.2</ele>
        <time>2017-12-16T12:45:49Z</time>
      </trkpt>
      <trkpt lat="44.83641" lon="-0.5035">
        <ele>15</ele>
        <time>2017-12-16T12:45:55Z</time>
      </trkpt>
      <trkpt lat="44.83641" lon="-0.50337">
        <ele>14.8</ele>
        <time>2017-12-16T12:46:02Z</time>
      </trkpt>
      <trkpt lat="44.83643" lon="-0.50326">
        <ele>12.9</ele>
        <time>2017-12-16T12:46:09Z</time>
      </trkpt>
      <trkpt lat="44.83644" lon="-0.50315">
        <ele>12.2</ele>
        <time>2017-12-16T12:46:15Z</time>
      </trkpt>
      <trkpt lat="44.83646" lon="-0.50302">
        <ele>9.7</ele>
        <time>2017-12-16T12:46:22Z</time>
      </trkpt>
      <trkpt lat="44.83647" lon="-0.50291">
        <ele>8.9</ele>
        <time>2017-12-16T12:46:29Z</time>
      </trkpt>
      <trkpt lat="44.83647" lon="-0.5028">
        <ele>5.5</ele>
        <time>2017-12-16T12:46:36Z</time>
      </trkpt>
      <trkpt lat="44.83647" lon="-0.50268">
        <ele>8</ele>
        <time>2017-12-16T12:46:42Z</time>
      </trkpt>
      <trkpt lat="44.83648" lon="-0.50256">
        <ele>7.6</ele>
        <time>2017-12-16T12:46:49Z</time>
      </trkpt>
      <trkpt lat="44.83651" lon="-0.50245">
        <ele>8.8</ele>
        <time>2017-12-16T12:46:56Z</time>
      </trkpt>
      <trkpt lat="44.83653" lon="-0.50234">
        <ele>9.4</ele>
        <time>2017-12-16T12:47:03Z</time>
      </trkpt>
      <trkpt lat="44.83655" lon="-0.50223">
        <ele>8.5</ele>
        <time>2017-12-16T12:47:09Z</time>
      </trkpt>
      <trkpt lat="44.83658" lon="-0.50212">
        <ele>7.4</ele>
        <time>2017-12-16T12:47:15Z</time>
      </trkpt>
      <trkpt lat="44.8366" lon="-0.50201">
        <ele>7.7</ele>
        <time>2017-12-16T12:47:21Z</time>
      </trkpt>
      <trkpt lat="44.83662" lon="-0.50188">
        <ele>7.2</ele>
        <time>2017-12-16T12:47:28Z</time>
      </trkpt>
      <trkpt lat="44.83665" lon="-0.50177">
        <ele>10.6</ele>
        <time>2017-12-16T12:47:35Z</time>
      </trkpt>
      <trkpt lat="44.83666" lon="-0.50167">
        <ele>13.8</ele>
        <time>2017-12-16T12:47:41Z</time>
      </trkpt>
      <trkpt lat="44.83666" lon="-0.50154">
        <ele>14.8</ele>
        <time>2017-12-16T12:47:48Z</time>
      </trkpt>
      <trkpt lat="44.83665" lon="-0.50142">
        <ele>13.7</ele>
        <time>2017-12-16T12:47:54Z</time>
      </trkpt>
      <trkpt lat="44.83663" lon="-0.50131">
        <ele>15.4</ele>
        <time>2017-12-16T12:48:00Z</time>
      </trkpt>
      <trkpt lat="44.83658" lon="-0.50121">
        <ele>16.3</ele>
        <time>2017-12-16T12:48:06Z</time>
      </trkpt>
      <trkpt lat="44.83653" lon="-0.50111">
        <ele>17.5</ele>
        <time>2017-12-16T12:48:12Z</time>
      </trkpt>
      <trkpt lat="44.83646" lon="-0.50104">
        <ele>19.2</ele>
        <time>2017-12-16T12:48:19Z</time>
      </trkpt>
      <trkpt lat="44.83639" lon="-0.50099">
        <ele>17.7</ele>
        <time>2017-12-16T12:48:25Z</time>
      </trkpt>
      <trkpt lat="44.83631" lon="-0.50096">
        <ele>14.5</ele>
        <time>2017-12-16T12:48:31Z</time>
      </trkpt>
      <trkpt lat="44.83623" lon="-0.50096">
        <ele>15.2</ele>
        <time>2017-12-16T12:48:37Z</time>
      </trkpt>
      <trkpt lat="44.83615" lon="-0.50096">
        <ele>16.9</ele>
        <time>2017-12-16T12:48:42Z</time>
      </trkpt>
      <trkpt lat="44.83607" lon="-0.50092">
        <ele>17.7</ele>
        <time>2017-12-16T12:48:48Z</time>
      </trkpt>
      <trkpt lat="44.83598" lon="-0.50089">
        <ele>16.3</ele>
        <time>2017-12-16T12:48:58Z</time>
      </trkpt>
      <trkpt lat="44.83591" lon="-0.50094">
        <ele>16.6</ele>
        <time>2017-12-16T12:49:05Z</time>
      </trkpt>
      <trkpt lat="44.83583" lon="-0.50098">
        <ele>17.2</ele>
        <time>2017-12-16T12:49:12Z</time>
      </trkpt>
      <trkpt lat="44.83575" lon="-0.50101">
        <ele>18.4</ele>
        <time>2017-12-16T12:49:19Z</time>
      </trkpt>
      <trkpt lat="44.83568" lon="-0.50105">
        <ele>19.6</ele>
        <time>2017-12-16T12:49:26Z</time>
      </trkpt>
      <trkpt lat="44.83559" lon="-0.5011">
        <ele>21.2</ele>
        <time>2017-12-16T12:49:34Z</time>
      </trkpt>
      <trkpt lat="44.83553" lon="-0.50116">
        <ele>21.5</ele>
        <time>2017-12-16T12:49:40Z</time>
      </trkpt>
      <trkpt lat="44.83551" lon="-0.50127">
        <ele>17.9</ele>
        <time>2017-12-16T12:49:46Z</time>
      </trkpt>
      <trkpt lat="44.8355" lon="-0.50139">
        <ele>17.5</ele>
        <time>2017-12-16T12:50:00Z</time>
      </trkpt>
      <trkpt lat="44.8355" lon="-0.50152">
        <ele>15.1</ele>
        <time>2017-12-16T12:50:06Z</time>
      </trkpt>
      <trkpt lat="44.83545" lon="-0.50161">
        <ele>16</ele>
        <time>2017-12-16T12:50:13Z</time>
      </trkpt>
      <trkpt lat="44.83539" lon="-0.50169">
        <ele>16.3</ele>
        <time>2017-12-16T12:50:19Z</time>
      </trkpt>
      <trkpt lat="44.83534" lon="-0.50178">
        <ele>16</ele>
        <time>2017-12-16T12:50:26Z</time>
      </trkpt>
      <trkpt lat="44.83531" lon="-0.50188">
        <ele>20</ele>
        <time>2017-12-16T12:50:34Z</time>
      </trkpt>
      <trkpt lat="44.83531" lon="-0.502">
        <ele>18.4</ele>
        <time>2017-12-16T12:50:40Z</time>
      </trkpt>
      <trkpt lat="44.83531" lon="-0.50212">
        <ele>18.7</ele>
        <time>2017-12-16T12:50:49Z</time>
      </trkpt>
      <trkpt lat="44.83525" lon="-0.5022">
        <ele>20.7</ele>
        <time>2017-12-16T12:50:57Z</time>
      </trkpt>
      <trkpt lat="44.83519" lon="-0.50228">
        <ele>22.8</ele>
        <time>2017-12-16T12:51:04Z</time>
      </trkpt>
      <trkpt lat="44.83513" lon="-0.50236">
        <ele>23</ele>
        <time>2017-12-16T12:51:11Z</time>
      </trkpt>
      <trkpt lat="44.83509" lon="-0.50246">
        <ele>17.9</ele>
        <time>2017-12-16T12:51:19Z</time>
      </trkpt>
      <trkpt lat="44.83506" lon="-0.50256">
        <ele>16.6</ele>
        <time>2017-12-16T12:51:24Z</time>
      </trkpt>
      <trkpt lat="44.83506" lon="-0.50268">
        <ele>16.9</ele>
        <time>2017-12-16T12:51:30Z</time>
      </trkpt>
      <trkpt lat="44.83507" lon="-0.50281">
        <ele>17</ele>
        <time>2017-12-16T12:51:36Z</time>
      </trkpt>
      <trkpt lat="44.83507" lon="-0.50292">
        <ele>18.3</ele>
        <time>2017-12-16T12:51:41Z</time>
      </trkpt>
      <trkpt lat="44.83509" lon="-0.50302">
        <ele>18.2</ele>
        <time>2017-12-16T12:51:47Z</time>
      </trkpt>
      <trkpt lat="44.83509" lon="-0.50314">
        <ele>17.6</ele>
        <time>2017-12-16T12:51:53Z</time>
      </trkpt>
      <trkpt lat="44.83509" lon="-0.50325">
        <ele>17.3</ele>
        <time>2017-12-16T12:51:59Z</time>
      </trkpt>
      <trkpt lat="44.8351" lon="-0.50337">
        <ele>20.1</ele>
        <time>2017-12-16T12:52:06Z</time>
      </trkpt>
      <trkpt lat="44.83508" lon="-0.50348">
        <ele>22.7</ele>
        <time>2017-12-16T12:52:13Z</time>
      </trkpt>
      <trkpt lat="44.83502" lon="-0.50357">
        <ele>23.7</ele>
        <time>2017-12-16T12:52:21Z</time>
      </trkpt>
      <trkpt lat="44.83495" lon="-0.50364">
        <ele>22.1</ele>
        <time>2017-12-16T12:52:27Z</time>
      </trkpt>
      <trkpt lat="44.83489" lon="-0.50371">
        <ele>22.1</ele>
        <time>2017-12-16T12:52:32Z</time>
      </trkpt>
      <trkpt lat="44.83482" lon="-0.50377">
        <ele>22.5</ele>
        <time>2017-12-16T12:52:39Z</time>
      </trkpt>
      <trkpt lat="44.83475" lon="-0.50383">
        <ele>21</ele>
        <time>2017-12-16T12:52:45Z</time>
      </trkpt>
      <trkpt lat="44.83469" lon="-0.5039">
        <ele>19.5</ele>
        <time>2017-12-16T12:52:51Z</time>
      </trkpt>
      <trkpt lat="44.83462" lon="-0.50399">
        <ele>19.2</ele>
        <time>2017-12-16T12:52:57Z</time>
      </trkpt>
      <trkpt lat="44.83456" lon="-0.50406">
        <ele>20</ele>
        <time>2017-12-16T12:53:04Z</time>
      </trkpt>
      <trkpt lat="44.83449" lon="-0.50411">
        <ele>18.2</ele>
        <time>2017-12-16T12:53:10Z</time>
      </trkpt>
      <trkpt lat="44.83442" lon="-0.50419">
        <ele>18.4</ele>
        <time>2017-12-16T12:53:17Z</time>
      </trkpt>
      <trkpt lat="44.83435" lon="-0.50425">
        <ele>15.5</ele>
        <time>2017-12-16T12:53:24Z</time>
      </trkpt>
      <trkpt lat="44.83428" lon="-0.50432">
        <ele>14.8</ele>
        <time>2017-12-16T12:53:31Z</time>
      </trkpt>
      <trkpt lat="44.83421" lon="-0.50438">
        <ele>14.8</ele>
        <time>2017-12-16T12:53:36Z</time>
      </trkpt>
      <trkpt lat="44.83414" lon="-0.50443">
        <ele>15.7</ele>
        <time>2017-12-16T12:53:43Z</time>
      </trkpt>
      <trkpt lat="44.83405" lon="-0.50448">
        <ele>16.5</ele>
        <time>2017-12-16T12:53:54Z</time>
      </trkpt>
      <trkpt lat="44.83399" lon="-0.50442">
        <ele>13.6</ele>
        <time>2017-12-16T12:54:13Z</time>
      </trkpt>
      <trkpt lat="44.83392" lon="-0.50434">
        <ele>15.4</ele>
        <time>2017-12-16T12:54:26Z</time>
      </trkpt>
      <trkpt lat="44.83384" lon="-0.50439">
        <ele>17.7</ele>
        <time>2017-12-16T12:54:38Z</time>
      </trkpt>
      <trkpt lat="44.8338" lon="-0.50443">
        <ele>15.2</ele>
        <time>2017-12-16T12:54:59Z</time>
      </trkpt>
      <trkpt lat="44.83374" lon="-0.50454">
        <ele>5.8</ele>
        <time>2017-12-16T12:55:04Z</time>
      </trkpt>
      <trkpt lat="44.83374" lon="-0.50454">
        <ele>5.8</ele>
        <time>2017-12-16T12:59:16Z</time>
      </trkpt>
      <trkpt lat="44.83373" lon="-0.50441">
        <ele>19.4</ele>
        <time>2017-12-16T12:59:21Z</time>
      </trkpt>
      <trkpt lat="44.83368" lon="-0.50449">
        <ele>20.9</ele>
        <time>2017-12-16T13:04:51Z</time>
      </trkpt>
      <trkpt lat="44.83376" lon="-0.50451">
        <ele>5.3</ele>
        <time>2017-12-16T13:10:41Z</time>
      </trkpt>
      <trkpt lat="44.83384" lon="-0.50447">
        <ele>6.4</ele>
        <time>2017-12-16T13:10:48Z</time>
      </trkpt>
      <trkpt lat="44.83392" lon="-0.50446">
        <ele>8.9</ele>
        <time>2017-12-16T13:10:57Z</time>
      </trkpt>
      <trkpt lat="44.83401" lon="-0.50445">
        <ele>14.6</ele>
        <time>2017-12-16T13:11:06Z</time>
      </trkpt>
      <trkpt lat="44.83405" lon="-0.50456">
        <ele>17.6</ele>
        <time>2017-12-16T13:11:16Z</time>
      </trkpt>
      <trkpt lat="44.83407" lon="-0.50468">
        <ele>17.3</ele>
        <time>2017-12-16T13:11:23Z</time>
      </trkpt>
      <trkpt lat="44.83412" lon="-0.50478">
        <ele>17.4</ele>
        <time>2017-12-16T13:11:31Z</time>
      </trkpt>
      <trkpt lat="44.83416" lon="-0.50488">
        <ele>17.4</ele>
        <time>2017-12-16T13:11:39Z</time>
      </trkpt>
      <trkpt lat="44.8342" lon="-0.50498">
        <ele>16.1</ele>
        <time>2017-12-16T13:11:46Z</time>
      </trkpt>
      <trkpt lat="44.83424" lon="-0.50508">
        <ele>17.6</ele>
        <time>2017-12-16T13:11:54Z</time>
      </trkpt>
      <trkpt lat="44.83427" lon="-0.50519">
        <ele>18.6</ele>
        <time>2017-12-16T13:12:02Z</time>
      </trkpt>
      <trkpt lat="44.83431" lon="-0.50529">
        <ele>16.9</ele>
        <time>2017-12-16T13:12:10Z</time>
      </trkpt>
      <trkpt lat="44.83435" lon="-0.50539">
        <ele>15.7</ele>
        <time>2017-12-16T13:12:19Z</time>
      </trkpt>
      <trkpt lat="44.8344" lon="-0.50549">
        <ele>16</ele>
        <time>2017-12-16T13:12:27Z</time>
      </trkpt>
      <trkpt lat="44.83443" lon="-0.5056">
        <ele>15.1</ele>
        <time>2017-12-16T13:12:35Z</time>
      </trkpt>
      <trkpt lat="44.83446" lon="-0.50571">
        <ele>11.6</ele>
        <time>2017-12-16T13:12:44Z</time>
      </trkpt>
      <trkpt lat="44.83453" lon="-0.50579">
        <ele>14.4</ele>
        <time>2017-12-16T13:12:52Z</time>
      </trkpt>
      <trkpt lat="44.8346" lon="-0.50587">
        <ele>17.5</ele>
        <time>2017-12-16T13:12:59Z</time>
      </trkpt>
      <trkpt lat="44.83466" lon="-0.50596">
        <ele>17.3</ele>
        <time>2017-12-16T13:13:08Z</time>
      </trkpt>
      <trkpt lat="44.83473" lon="-0.50603">
        <ele>18.5</ele>
        <time>2017-12-16T13:13:16Z</time>
      </trkpt>
      <trkpt lat="44.8348" lon="-0.5061">
        <ele>18</ele>
        <time>2017-12-16T13:13:25Z</time>
      </trkpt>
      <trkpt lat="44.83488" lon="-0.50616">
        <ele>17</ele>
        <time>2017-12-16T13:13:36Z</time>
      </trkpt>
      <trkpt lat="44.83496" lon="-0.50622">
        <ele>10.2</ele>
        <time>2017-12-16T13:13:54Z</time>
      </trkpt>
      <trkpt lat="44.83504" lon="-0.50622">
        <ele>8.4</ele>
        <time>2017-12-16T13:14:02Z</time>
      </trkpt>
      <trkpt lat="44.83513" lon="-0.50618">
        <ele>7.1</ele>
        <time>2017-12-16T13:14:10Z</time>
      </trkpt>
      <trkpt lat="44.83521" lon="-0.50618">
        <ele>4.3</ele>
        <time>2017-12-16T13:14:19Z</time>
      </trkpt>
      <trkpt lat="44.83526" lon="-0.50622">
        <ele>2.5</ele>
        <time>2017-12-16T13:14:25Z</time>
      </trkpt>
      <trkpt lat="44.83533" lon="-0.50627">
        <ele>2.3</ele>
        <time>2017-12-16T13:14:30Z</time>
      </trkpt>
      <trkpt lat="44.83541" lon="-0.50631">
        <ele>3.6</ele>
        <time>2017-12-16T13:14:36Z</time>
      </trkpt>
      <trkpt lat="44.83547" lon="-0.5064">
        <ele>0.1</ele>
        <time>2017-12-16T13:14:47Z</time>
      </trkpt>
      <trkpt lat="44.83556" lon="-0.50642">
        <ele>0.2</ele>
        <time>2017-12-16T13:14:58Z</time>
      </trkpt>
      <trkpt lat="44.83564" lon="-0.50642">
        <ele>-0.3</ele>
        <time>2017-12-16T13:15:05Z</time>
      </trkpt>
      <trkpt lat="44.83571" lon="-0.50644">
        <ele>-2.1</ele>
        <time>2017-12-16T13:15:13Z</time>
      </trkpt>
      <trkpt lat="44.83579" lon="-0.50645">
        <ele>-0.9</ele>
        <time>2017-12-16T13:15:18Z</time>
      </trkpt>
      <trkpt lat="44.83588" lon="-0.50645">
        <ele>-0.7</ele>
        <time>2017-12-16T13:15:28Z</time>
      </trkpt>
      <trkpt lat="44.83595" lon="-0.50646">
        <ele>-0.2</ele>
        <time>2017-12-16T13:15:36Z</time>
      </trkpt>
      <trkpt lat="44.83603" lon="-0.50645">
        <ele>0.2</ele>
        <time>2017-12-16T13:15:42Z</time>
      </trkpt>
      <trkpt lat="44.83611" lon="-0.5064">
        <ele>-0.6</ele>
        <time>2017-12-16T13:15:49Z</time>
      </trkpt>
      <trkpt lat="44.83617" lon="-0.50635">
        <ele>-0.2</ele>
        <time>2017-12-16T13:15:55Z</time>
      </trkpt>
      <trkpt lat="44.83623" lon="-0.50628">
        <ele>-0.8</ele>
        <time>2017-12-16T13:16:01Z</time>
      </trkpt>
      <trkpt lat="44.83629" lon="-0.50619">
        <ele>-0.7</ele>
        <time>2017-12-16T13:16:08Z</time>
      </trkpt>
      <trkpt lat="44.83635" lon="-0.50611">
        <ele>1.5</ele>
        <time>2017-12-16T13:16:14Z</time>
      </trkpt>
      <trkpt lat="44.83642" lon="-0.50619">
        <ele>3.8</ele>
        <time>2017-12-16T13:16:23Z</time>
      </trkpt>
      <trkpt lat="44.83642" lon="-0.50631">
        <ele>5.1</ele>
        <time>2017-12-16T13:16:31Z</time>
      </trkpt>
      <trkpt lat="44.83645" lon="-0.50643">
        <ele>7.5</ele>
        <time>2017-12-16T13:16:39Z</time>
      </trkpt>
      <trkpt lat="44.83648" lon="-0.50654">
        <ele>8</ele>
        <time>2017-12-16T13:16:48Z</time>
      </trkpt>
      <trkpt lat="44.83649" lon="-0.50665">
        <ele>5.7</ele>
        <time>2017-12-16T13:16:56Z</time>
      </trkpt>
      <trkpt lat="44.83653" lon="-0.50676">
        <ele>6.8</ele>
        <time>2017-12-16T13:17:03Z</time>
      </trkpt>
      <trkpt lat="44.83654" lon="-0.50688">
        <ele>9.9</ele>
        <time>2017-12-16T13:17:11Z</time>
      </trkpt>
      <trkpt lat="44.83654" lon="-0.507">
        <ele>11.5</ele>
        <time>2017-12-16T13:17:17Z</time>
      </trkpt>
      <trkpt lat="44.83655" lon="-0.50712">
        <ele>13.6</ele>
        <time>2017-12-16T13:17:24Z</time>
      </trkpt>
      <trkpt lat="44.83654" lon="-0.50724">
        <ele>10.2</ele>
        <time>2017-12-16T13:17:31Z</time>
      </trkpt>
      <trkpt lat="44.83658" lon="-0.50734">
        <ele>12.6</ele>
        <time>2017-12-16T13:17:39Z</time>
      </trkpt>
      <trkpt lat="44.83661" lon="-0.50745">
        <ele>15</ele>
        <time>2017-12-16T13:17:47Z</time>
      </trkpt>
      <trkpt lat="44.83664" lon="-0.50755">
        <ele>15</ele>
        <time>2017-12-16T13:17:54Z</time>
      </trkpt>
      <trkpt lat="44.83667" lon="-0.50767">
        <ele>13</ele>
        <time>2017-12-16T13:18:01Z</time>
      </trkpt>
      <trkpt lat="44.83672" lon="-0.50776">
        <ele>11.4</ele>
        <time>2017-12-16T13:18:08Z</time>
      </trkpt>
      <trkpt lat="44.83677" lon="-0.50786">
        <ele>10.3</ele>
        <time>2017-12-16T13:18:15Z</time>
      </trkpt>
      <trkpt lat="44.83681" lon="-0.50797">
        <ele>9.1</ele>
        <time>2017-12-16T13:18:23Z</time>
      </trkpt>
      <trkpt lat="44.83683" lon="-0.50809">
        <ele>7.3</ele>
        <time>2017-12-16T13:18:31Z</time>
      </trkpt>
      <trkpt lat="44.83687" lon="-0.5082">
        <ele>5.9</ele>
        <time>2017-12-16T13:18:39Z</time>
      </trkpt>
      <trkpt lat="44.8369" lon="-0.50832">
        <ele>3.1</ele>
        <time>2017-12-16T13:18:48Z</time>
      </trkpt>
      <trkpt lat="44.83692" lon="-0.50844">
        <ele>2.2</ele>
        <time>2017-12-16T13:18:57Z</time>
      </trkpt>
      <trkpt lat="44.83694" lon="-0.50855">
        <ele>0.9</ele>
        <time>2017-12-16T13:19:04Z</time>
      </trkpt>
      <trkpt lat="44.83695" lon="-0.50867">
        <ele>0.8</ele>
        <time>2017-12-16T13:19:11Z</time>
      </trkpt>
      <trkpt lat="44.83694" lon="-0.50879">
        <ele>1.9</ele>
        <time>2017-12-16T13:19:18Z</time>
      </trkpt>
      <trkpt lat="44.83694" lon="-0.50891">
        <ele>2.8</ele>
        <time>2017-12-16T13:19:27Z</time>
      </trkpt>
      <trkpt lat="44.83692" lon="-0.50903">
        <ele>1.5</ele>
        <time>2017-12-16T13:19:35Z</time>
      </trkpt>
      <trkpt lat="44.83691" lon="-0.50915">
        <ele>57</ele>
        <time>2017-12-16T13:19:43Z</time>
      </trkpt>
      <trkpt lat="44.83687" lon="-0.50926">
        <ele>-0.3</ele>
        <time>2017-12-16T13:19:50Z</time>
      </trkpt>
      <trkpt lat="44.8368" lon="-0.50933">
        <ele>-4.3</ele>
        <time>2017-12-16T13:19:57Z</time>
      </trkpt>
      <trkpt lat="44.83673" lon="-0.50939">
        <ele>-10.2</ele>
        <time>2017-12-16T13:20:06Z</time>
      </trkpt>
      <trkpt lat="44.83668" lon="-0.50948">
        <ele>-10.8</ele>
        <time>2017-12-16T13:20:14Z</time>
      </trkpt>
      <trkpt lat="44.83664" lon="-0.50958">
        <ele>-9.3</ele>
        <time>2017-12-16T13:20:19Z</time>
      </trkpt>
      <trkpt lat="44.8366" lon="-0.50968">
        <ele>-9.5</ele>
        <time>2017-12-16T13:20:27Z</time>
      </trkpt>
      <trkpt lat="44.83655" lon="-0.50977">
        <ele>-8</ele>
        <time>2017-12-16T13:20:36Z</time>
      </trkpt>
      <trkpt lat="44.83648" lon="-0.50984">
        <ele>-8.7</ele>
        <time>2017-12-16T13:20:46Z</time>
      </trkpt>
      <trkpt lat="44.8364" lon="-0.50989">
        <ele>-14.3</ele>
        <time>2017-12-16T13:20:54Z</time>
      </trkpt>
      <trkpt lat="44.83632" lon="-0.50994">
        <ele>-17.3</ele>
        <time>2017-12-16T13:21:01Z</time>
      </trkpt>
      <trkpt lat="44.83624" lon="-0.50999">
        <ele>-20.4</ele>
        <time>2017-12-16T13:21:08Z</time>
      </trkpt>
      <trkpt lat="44.83617" lon="-0.51003">
        <ele>-20</ele>
        <time>2017-12-16T13:21:17Z</time>
      </trkpt>
      <trkpt lat="44.83609" lon="-0.51006">
        <ele>-19.8</ele>
        <time>2017-12-16T13:21:24Z</time>
      </trkpt>
      <trkpt lat="44.83601" lon="-0.51008">
        <ele>-18.8</ele>
        <time>2017-12-16T13:21:32Z</time>
      </trkpt>
      <trkpt lat="44.83592" lon="-0.5101">
        <ele>-17.6</ele>
        <time>2017-12-16T13:21:42Z</time>
      </trkpt>
      <trkpt lat="44.83584" lon="-0.51008">
        <ele>-26.4</ele>
        <time>2017-12-16T13:21:51Z</time>
      </trkpt>
      <trkpt lat="44.83577" lon="-0.51">
        <ele>-43.2</ele>
        <time>2017-12-16T13:22:02Z</time>
      </trkpt>
      <trkpt lat="44.83571" lon="-0.50992">
        <ele>-58.4</ele>
        <time>2017-12-16T13:22:11Z</time>
      </trkpt>
      <trkpt lat="44.83565" lon="-0.50984">
        <ele>-73</ele>
        <time>2017-12-16T13:22:19Z</time>
      </trkpt>
      <trkpt lat="44.83559" lon="-0.50977">
        <ele>-86</ele>
        <time>2017-12-16T13:22:26Z</time>
      </trkpt>
      <trkpt lat="44.83551" lon="-0.50978">
        <ele>-86</ele>
        <time>2017-12-16T13:22:31Z</time>
      </trkpt>
      <trkpt lat="44.83543" lon="-0.50979">
        <ele>-84</ele>
        <time>2017-12-16T13:22:37Z</time>
      </trkpt>
      <trkpt lat="44.83535" lon="-0.50981">
        <ele>-76.9</ele>
        <time>2017-12-16T13:22:45Z</time>
      </trkpt>
      <trkpt lat="44.83526" lon="-0.50985">
        <ele>-69.4</ele>
        <time>2017-12-16T13:22:53Z</time>
      </trkpt>
      <trkpt lat="44.83519" lon="-0.50985">
        <ele>-66</ele>
        <time>2017-12-16T13:22:58Z</time>
      </trkpt>
      <trkpt lat="44.83511" lon="-0.50987">
        <ele>-59.2</ele>
        <time>2017-12-16T13:23:03Z</time>
      </trkpt>
      <trkpt lat="44.83503" lon="-0.5099">
        <ele>-49.5</ele>
        <time>2017-12-16T13:23:09Z</time>
      </trkpt>
      <trkpt lat="44.83496" lon="-0.50994">
        <ele>-36.9</ele>
        <time>2017-12-16T13:23:14Z</time>
      </trkpt>
      <trkpt lat="44.83488" lon="-0.50995">
        <ele>-30</ele>
        <time>2017-12-16T13:23:19Z</time>
      </trkpt>
      <trkpt lat="44.83479" lon="-0.50998">
        <ele>-20</ele>
        <time>2017-12-16T13:23:25Z</time>
      </trkpt>
      <trkpt lat="44.83471" lon="-0.51002">
        <ele>-14.5</ele>
        <time>2017-12-16T13:23:32Z</time>
      </trkpt>
      <trkpt lat="44.83463" lon="-0.51005">
        <ele>-9.5</ele>
        <time>2017-12-16T13:23:38Z</time>
      </trkpt>
      <trkpt lat="44.83455" lon="-0.51007">
        <ele>-2.5</ele>
        <time>2017-12-16T13:23:44Z</time>
      </trkpt>
      <trkpt lat="44.83447" lon="-0.5101">
        <ele>3.6</ele>
        <time>2017-12-16T13:23:51Z</time>
      </trkpt>
      <trkpt lat="44.83439" lon="-0.51012">
        <ele>8</ele>
        <time>2017-12-16T13:23:57Z</time>
      </trkpt>
      <trkpt lat="44.83431" lon="-0.51016">
        <ele>9.8</ele>
        <time>2017-12-16T13:24:03Z</time>
      </trkpt>
      <trkpt lat="44.83423" lon="-0.51018">
        <ele>12.2</ele>
        <time>2017-12-16T13:24:09Z</time>
      </trkpt>
      <trkpt lat="44.83415" lon="-0.5102">
        <ele>11.3</ele>
        <time>2017-12-16T13:24:15Z</time>
      </trkpt>
      <trkpt lat="44.83408" lon="-0.51025">
        <ele>11.4</ele>
        <time>2017-12-16T13:24:21Z</time>
      </trkpt>
      <trkpt lat="44.834" lon="-0.51029">
        <ele>9.9</ele>
        <time>2017-12-16T13:24:28Z</time>
      </trkpt>
      <trkpt lat="44.83392" lon="-0.51032">
        <ele>8.9</ele>
        <time>2017-12-16T13:24:34Z</time>
      </trkpt>
      <trkpt lat="44.83384" lon="-0.51035">
        <ele>6.2</ele>
        <time>2017-12-16T13:24:41Z</time>
      </trkpt>
      <trkpt lat="44.83376" lon="-0.51034">
        <ele>5.3</ele>
        <time>2017-12-16T13:24:48Z</time>
      </trkpt>
      <trkpt lat="44.83367" lon="-0.51032">
        <ele>7.2</ele>
        <time>2017-12-16T13:24:56Z</time>
      </trkpt>
      <trkpt lat="44.8336" lon="-0.51028">
        <ele>8.1</ele>
        <time>2017-12-16T13:25:06Z</time>
      </trkpt>
      <trkpt lat="44.83353" lon="-0.51023">
        <ele>8.1</ele>
        <time>2017-12-16T13:25:12Z</time>
      </trkpt>
      <trkpt lat="44.83345" lon="-0.51018">
        <ele>4</ele>
        <time>2017-12-16T13:25:18Z</time>
      </trkpt>
      <trkpt lat="44.83337" lon="-0.51013">
        <ele>1.2</ele>
        <time>2017-12-16T13:25:24Z</time>
      </trkpt>
      <trkpt lat="44.8333" lon="-0.5101">
        <ele>38.8</ele>
        <time>2017-12-16T13:25:29Z</time>
      </trkpt>
      <trkpt lat="44.83322" lon="-0.51011">
        <ele>1.9</ele>
        <time>2017-12-16T13:25:36Z</time>
      </trkpt>
      <trkpt lat="44.83313" lon="-0.5101">
        <ele>-0.8</ele>
        <time>2017-12-16T13:25:42Z</time>
      </trkpt>
      <trkpt lat="44.83305" lon="-0.51006">
        <ele>-14.1</ele>
        <time>2017-12-16T13:25:51Z</time>
      </trkpt>
      <trkpt lat="44.83298" lon="-0.51003">
        <ele>-27.4</ele>
        <time>2017-12-16T13:26:00Z</time>
      </trkpt>
      <trkpt lat="44.8329" lon="-0.51">
        <ele>-43.4</ele>
        <time>2017-12-16T13:26:06Z</time>
      </trkpt>
      <trkpt lat="44.83282" lon="-0.51">
        <ele>-47.6</ele>
        <time>2017-12-16T13:26:12Z</time>
      </trkpt>
      <trkpt lat="44.83274" lon="-0.51003">
        <ele>-47.1</ele>
        <time>2017-12-16T13:26:18Z</time>
      </trkpt>
      <trkpt lat="44.83266" lon="-0.51005">
        <ele>-44.5</ele>
        <time>2017-12-16T13:26:24Z</time>
      </trkpt>
      <trkpt lat="44.83257" lon="-0.51008">
        <ele>-39</ele>
        <time>2017-12-16T13:26:30Z</time>
      </trkpt>
      <trkpt lat="44.83249" lon="-0.51011">
        <ele>-29.5</ele>
        <time>2017-12-16T13:26:38Z</time>
      </trkpt>
      <trkpt lat="44.83241" lon="-0.51013">
        <ele>-26.1</ele>
        <time>2017-12-16T13:26:44Z</time>
      </trkpt>
      <trkpt lat="44.83232" lon="-0.51016">
        <ele>-18.6</ele>
        <time>2017-12-16T13:26:51Z</time>
      </trkpt>
      <trkpt lat="44.83224" lon="-0.51017">
        <ele>-16</ele>
        <time>2017-12-16T13:26:57Z</time>
      </trkpt>
      <trkpt lat="44.83216" lon="-0.51018">
        <ele>-25.8</ele>
        <time>2017-12-16T13:27:05Z</time>
      </trkpt>
      <trkpt lat="44.83208" lon="-0.51018">
        <ele>-39.2</ele>
        <time>2017-12-16T13:27:12Z</time>
      </trkpt>
      <trkpt lat="44.83199" lon="-0.51017">
        <ele>-54.2</ele>
        <time>2017-12-16T13:27:21Z</time>
      </trkpt>
      <trkpt lat="44.83191" lon="-0.51016">
        <ele>-65.2</ele>
        <time>2017-12-16T13:27:29Z</time>
      </trkpt>
      <trkpt lat="44.83184" lon="-0.51014">
        <ele>-72.9</ele>
        <time>2017-12-16T13:27:34Z</time>
      </trkpt>
      <trkpt lat="44.83176" lon="-0.5101">
        <ele>-84.7</ele>
        <time>2017-12-16T13:27:40Z</time>
      </trkpt>
      <trkpt lat="44.83168" lon="-0.51005">
        <ele>-95.2</ele>
        <time>2017-12-16T13:27:48Z</time>
      </trkpt>
      <trkpt lat="44.8316" lon="-0.51002">
        <ele>-113</ele>
        <time>2017-12-16T13:27:57Z</time>
      </trkpt>
      <trkpt lat="44.83153" lon="-0.50999">
        <ele>-116.6</ele>
        <time>2017-12-16T13:28:04Z</time>
      </trkpt>
      <trkpt lat="44.83145" lon="-0.51">
        <ele>-118.3</ele>
        <time>2017-12-16T13:28:11Z</time>
      </trkpt>
      <trkpt lat="44.83136" lon="-0.51003">
        <ele>-112.6</ele>
        <time>2017-12-16T13:28:19Z</time>
      </trkpt>
      <trkpt lat="44.83129" lon="-0.51005">
        <ele>-108.1</ele>
        <time>2017-12-16T13:28:25Z</time>
      </trkpt>
      <trkpt lat="44.83121" lon="-0.51007">
        <ele>-103.9</ele>
        <time>2017-12-16T13:28:31Z</time>
      </trkpt>
      <trkpt lat="44.83114" lon="-0.51013">
        <ele>-98.6</ele>
        <time>2017-12-16T13:28:37Z</time>
      </trkpt>
      <trkpt lat="44.83109" lon="-0.51021">
        <ele>-87.8</ele>
        <time>2017-12-16T13:28:44Z</time>
      </trkpt>
      <trkpt lat="44.831" lon="-0.51026">
        <ele>-78.1</ele>
        <time>2017-12-16T13:28:52Z</time>
      </trkpt>
      <trkpt lat="44.83092" lon="-0.51027">
        <ele>-76.9</ele>
        <time>2017-12-16T13:29:04Z</time>
      </trkpt>
      <trkpt lat="44.83085" lon="-0.51032">
        <ele>-73.3</ele>
        <time>2017-12-16T13:29:09Z</time>
      </trkpt>
      <trkpt lat="44.83078" lon="-0.51039">
        <ele>-62.8</ele>
        <time>2017-12-16T13:29:15Z</time>
      </trkpt>
      <trkpt lat="44.83071" lon="-0.51045">
        <ele>-56.2</ele>
        <time>2017-12-16T13:29:20Z</time>
      </trkpt>
      <trkpt lat="44.83063" lon="-0.5104">
        <ele>-82.5</ele>
        <time>2017-12-16T13:29:31Z</time>
      </trkpt>
      <trkpt lat="44.83055" lon="-0.5104">
        <ele>-84.9</ele>
        <time>2017-12-16T13:29:38Z</time>
      </trkpt>
      <trkpt lat="44.83047" lon="-0.51044">
        <ele>-77.2</ele>
        <time>2017-12-16T13:29:44Z</time>
      </trkpt>
      <trkpt lat="44.83039" lon="-0.51044">
        <ele>-71.2</ele>
        <time>2017-12-16T13:29:52Z</time>
      </trkpt>
      <trkpt lat="44.83031" lon="-0.51044">
        <ele>-64.3</ele>
        <time>2017-12-16T13:29:58Z</time>
      </trkpt>
      <trkpt lat="44.83023" lon="-0.51047">
        <ele>-51.9</ele>
        <time>2017-12-16T13:30:05Z</time>
      </trkpt>
      <trkpt lat="44.83014" lon="-0.51049">
        <ele>-43.2</ele>
        <time>2017-12-16T13:30:12Z</time>
      </trkpt>
      <trkpt lat="44.83006" lon="-0.51053">
        <ele>-34.7</ele>
        <time>2017-12-16T13:30:19Z</time>
      </trkpt>
      <trkpt lat="44.82998" lon="-0.51053">
        <ele>-30.5</ele>
        <time>2017-12-16T13:30:26Z</time>
      </trkpt>
      <trkpt lat="44.8299" lon="-0.51056">
        <ele>-23.6</ele>
        <time>2017-12-16T13:30:34Z</time>
      </trkpt>
      <trkpt lat="44.82982" lon="-0.51059">
        <ele>-25.4</ele>
        <time>2017-12-16T13:30:40Z</time>
      </trkpt>
      <trkpt lat="44.82974" lon="-0.51061">
        <ele>-25.8</ele>
        <time>2017-12-16T13:30:45Z</time>
      </trkpt>
      <trkpt lat="44.82966" lon="-0.51064">
        <ele>-23.3</ele>
        <time>2017-12-16T13:30:51Z</time>
      </trkpt>
      <trkpt lat="44.82958" lon="-0.51068">
        <ele>-22.6</ele>
        <time>2017-12-16T13:30:58Z</time>
      </trkpt>
      <trkpt lat="44.82949" lon="-0.5107">
        <ele>-24.4</ele>
        <time>2017-12-16T13:31:06Z</time>
      </trkpt>
      <trkpt lat="44.82941" lon="-0.51072">
        <ele>-23.4</ele>
        <time>2017-12-16T13:31:13Z</time>
      </trkpt>
      <trkpt lat="44.82933" lon="-0.51073">
        <ele>-25</ele>
        <time>2017-12-16T13:31:20Z</time>
      </trkpt>
      <trkpt lat="44.82924" lon="-0.51078">
        <ele>-24.5</ele>
        <time>2017-12-16T13:31:28Z</time>
      </trkpt>
      <trkpt lat="44.82916" lon="-0.5108">
        <ele>-22.9</ele>
        <time>2017-12-16T13:31:38Z</time>
      </trkpt>
      <trkpt lat="44.82907" lon="-0.51082">
        <ele>-21.8</ele>
        <time>2017-12-16T13:31:47Z</time>
      </trkpt>
      <trkpt lat="44.82899" lon="-0.51083">
        <ele>-20.6</ele>
        <time>2017-12-16T13:31:58Z</time>
      </trkpt>
      <trkpt lat="44.8289" lon="-0.51081">
        <ele>-14.5</ele>
        <time>2017-12-16T13:32:17Z</time>
      </trkpt>
      <trkpt lat="44.82883" lon="-0.51076">
        <ele>-19.2</ele>
        <time>2017-12-16T13:32:26Z</time>
      </trkpt>
      <trkpt lat="44.82876" lon="-0.51068">
        <ele>-22.5</ele>
        <time>2017-12-16T13:32:33Z</time>
      </trkpt>
      <trkpt lat="44.82868" lon="-0.51062">
        <ele>-48.1</ele>
        <time>2017-12-16T13:32:46Z</time>
      </trkpt>
      <trkpt lat="44.8286" lon="-0.51056">
        <ele>-60.2</ele>
        <time>2017-12-16T13:32:55Z</time>
      </trkpt>
      <trkpt lat="44.82852" lon="-0.51053">
        <ele>-68.9</ele>
        <time>2017-12-16T13:33:10Z</time>
      </trkpt>
      <trkpt lat="44.82843" lon="-0.51056">
        <ele>-59</ele>
        <time>2017-12-16T13:33:23Z</time>
      </trkpt>
      <trkpt lat="44.82835" lon="-0.51056">
        <ele>-48</ele>
        <time>2017-12-16T13:33:33Z</time>
      </trkpt>
      <trkpt lat="44.82827" lon="-0.51055">
        <ele>-39.2</ele>
        <time>2017-12-16T13:33:43Z</time>
      </trkpt>
      <trkpt lat="44.8282" lon="-0.5105">
        <ele>-30.4</ele>
        <time>2017-12-16T13:33:51Z</time>
      </trkpt>
      <trkpt lat="44.82812" lon="-0.51046">
        <ele>-25.9</ele>
        <time>2017-12-16T13:33:58Z</time>
      </trkpt>
      <trkpt lat="44.82804" lon="-0.51041">
        <ele>-21.8</ele>
        <time>2017-12-16T13:34:06Z</time>
      </trkpt>
      <trkpt lat="44.82797" lon="-0.51036">
        <ele>-21.6</ele>
        <time>2017-12-16T13:34:13Z</time>
      </trkpt>
      <trkpt lat="44.8279" lon="-0.5103">
        <ele>-21.9</ele>
        <time>2017-12-16T13:34:21Z</time>
      </trkpt>
      <trkpt lat="44.82782" lon="-0.51025">
        <ele>-21.6</ele>
        <time>2017-12-16T13:34:29Z</time>
      </trkpt>
      <trkpt lat="44.82778" lon="-0.51014">
        <ele>-23</ele>
        <time>2017-12-16T13:34:38Z</time>
      </trkpt>
      <trkpt lat="44.82775" lon="-0.51003">
        <ele>-25.8</ele>
        <time>2017-12-16T13:34:45Z</time>
      </trkpt>
      <trkpt lat="44.82771" lon="-0.50993">
        <ele>-24.6</ele>
        <time>2017-12-16T13:34:54Z</time>
      </trkpt>
      <trkpt lat="44.82766" lon="-0.50984">
        <ele>-24.9</ele>
        <time>2017-12-16T13:34:59Z</time>
      </trkpt>
      <trkpt lat="44.82761" lon="-0.50975">
        <ele>-26.2</ele>
        <time>2017-12-16T13:35:05Z</time>
      </trkpt>
      <trkpt lat="44.82756" lon="-0.50966">
        <ele>-27.4</ele>
        <time>2017-12-16T13:35:11Z</time>
      </trkpt>
      <trkpt lat="44.82751" lon="-0.50955">
        <ele>-27.7</ele>
        <time>2017-12-16T13:35:19Z</time>
      </trkpt>
      <trkpt lat="44.82746" lon="-0.50945">
        <ele>-29.1</ele>
        <time>2017-12-16T13:35:28Z</time>
      </trkpt>
      <trkpt lat="44.8274" lon="-0.50935">
        <ele>-27.3</ele>
        <time>2017-12-16T13:35:33Z</time>
      </trkpt>
      <trkpt lat="44.82734" lon="-0.50926">
        <ele>-24.8</ele>
        <time>2017-12-16T13:35:40Z</time>
      </trkpt>
      <trkpt lat="44.82729" lon="-0.50916">
        <ele>-24.2</ele>
        <time>2017-12-16T13:35:48Z</time>
      </trkpt>
      <trkpt lat="44.82723" lon="-0.50907">
        <ele>-23.5</ele>
        <time>2017-12-16T13:35:55Z</time>
      </trkpt>
      <trkpt lat="44.82719" lon="-0.509">
        <ele>-23.5</ele>
        <time>2017-12-16T13:36:01Z</time>
      </trkpt>
      <trkpt lat="44.82713" lon="-0.50891">
        <ele>-23.2</ele>
        <time>2017-12-16T13:36:07Z</time>
      </trkpt>
      <trkpt lat="44.82708" lon="-0.50883">
        <ele>-23</ele>
        <time>2017-12-16T13:36:13Z</time>
      </trkpt>
      <trkpt lat="44.82702" lon="-0.50875">
        <ele>-26.1</ele>
        <time>2017-12-16T13:36:21Z</time>
      </trkpt>
      <trkpt lat="44.82696" lon="-0.50866">
        <ele>-30.2</ele>
        <time>2017-12-16T13:36:30Z</time>
      </trkpt>
      <trkpt lat="44.82688" lon="-0.50863">
        <ele>-35.8</ele>
        <time>2017-12-16T13:36:38Z</time>
      </trkpt>
      <trkpt lat="44.82681" lon="-0.50868">
        <ele>-40</ele>
        <time>2017-12-16T13:36:46Z</time>
      </trkpt>
      <trkpt lat="44.82674" lon="-0.50875">
        <ele>-42.8</ele>
        <time>2017-12-16T13:36:53Z</time>
      </trkpt>
      <trkpt lat="44.82669" lon="-0.50884">
        <ele>-44.5</ele>
        <time>2017-12-16T13:37:00Z</time>
      </trkpt>
      <trkpt lat="44.82663" lon="-0.50894">
        <ele>-44.9</ele>
        <time>2017-12-16T13:37:07Z</time>
      </trkpt>
      <trkpt lat="44.82657" lon="-0.50901">
        <ele>-48.7</ele>
        <time>2017-12-16T13:37:13Z</time>
      </trkpt>
      <trkpt lat="44.8265" lon="-0.5091">
        <ele>-48.7</ele>
        <time>2017-12-16T13:37:21Z</time>
      </trkpt>
      <trkpt lat="44.82646" lon="-0.5092">
        <ele>-51.3</ele>
        <time>2017-12-16T13:37:28Z</time>
      </trkpt>
      <trkpt lat="44.82644" lon="-0.50932">
        <ele>-53.9</ele>
        <time>2017-12-16T13:37:37Z</time>
      </trkpt>
      <trkpt lat="44.82638" lon="-0.50941">
        <ele>-50.4</ele>
        <time>2017-12-16T13:37:53Z</time>
      </trkpt>
      <trkpt lat="44.82631" lon="-0.50935">
        <ele>-47.4</ele>
        <time>2017-12-16T13:38:04Z</time>
      </trkpt>
      <trkpt lat="44.82623" lon="-0.50931">
        <ele>-45.8</ele>
        <time>2017-12-16T13:38:12Z</time>
      </trkpt>
      <trkpt lat="44.82615" lon="-0.50928">
        <ele>-44.5</ele>
        <time>2017-12-16T13:38:18Z</time>
      </trkpt>
      <trkpt lat="44.82612" lon="-0.50925">
        <ele>-45.7</ele>
        <time>2017-12-16T13:38:22Z</time>
      </trkpt>
      <trkpt lat="44.82597" lon="-0.50909">
        <ele>-42.1</ele>
        <time>2017-12-16T13:38:26Z</time>
      </trkpt>
      <trkpt lat="44.82591" lon="-0.50901">
        <ele>-38.1</ele>
        <time>2017-12-16T13:38:34Z</time>
      </trkpt>
      <trkpt lat="44.82587" lon="-0.5089">
        <ele>-39.2</ele>
        <time>2017-12-16T13:38:44Z</time>
      </trkpt>
      <trkpt lat="44.82579" lon="-0.50884">
        <ele>-39.6</ele>
        <time>2017-12-16T13:45:27Z</time>
      </trkpt>
      <trkpt lat="44.82571" lon="-0.50884">
        <ele>-39</ele>
        <time>2017-12-16T13:45:41Z</time>
      </trkpt>
      <trkpt lat="44.82565" lon="-0.50877">
        <ele>-36.9</ele>
        <time>2017-12-16T13:45:48Z</time>
      </trkpt>
      <trkpt lat="44.82559" lon="-0.5087">
        <ele>-33.7</ele>
        <time>2017-12-16T13:45:58Z</time>
      </trkpt>
      <trkpt lat="44.82552" lon="-0.50862">
        <ele>-30.2</ele>
        <time>2017-12-16T13:46:09Z</time>
      </trkpt>
      <trkpt lat="44.82551" lon="-0.50851">
        <ele>-29.7</ele>
        <time>2017-12-16T13:46:19Z</time>
      </trkpt>
      <trkpt lat="44.8255" lon="-0.50839">
        <ele>-33.9</ele>
        <time>2017-12-16T13:46:30Z</time>
      </trkpt>
      <trkpt lat="44.82542" lon="-0.50832">
        <ele>-31.8</ele>
        <time>2017-12-16T13:46:42Z</time>
      </trkpt>
      <trkpt lat="44.82535" lon="-0.50829">
        <ele>-30.4</ele>
        <time>2017-12-16T13:46:52Z</time>
      </trkpt>
      <trkpt lat="44.82526" lon="-0.50829">
        <ele>-27.9</ele>
        <time>2017-12-16T13:46:59Z</time>
      </trkpt>
      <trkpt lat="44.82518" lon="-0.50827">
        <ele>-29.1</ele>
        <time>2017-12-16T13:47:05Z</time>
      </trkpt>
      <trkpt lat="44.8251" lon="-0.50822">
        <ele>-26.9</ele>
        <time>2017-12-16T13:47:14Z</time>
      </trkpt>
      <trkpt lat="44.82505" lon="-0.50812">
        <ele>-25.4</ele>
        <time>2017-12-16T13:47:23Z</time>
      </trkpt>
      <trkpt lat="44.825" lon="-0.50803">
        <ele>-25.3</ele>
        <time>2017-12-16T13:47:30Z</time>
      </trkpt>
      <trkpt lat="44.82495" lon="-0.50794">
        <ele>-24.7</ele>
        <time>2017-12-16T13:47:37Z</time>
      </trkpt>
      <trkpt lat="44.82489" lon="-0.50785">
        <ele>-24</ele>
        <time>2017-12-16T13:47:44Z</time>
      </trkpt>
      <trkpt lat="44.82484" lon="-0.50775">
        <ele>-23.2</ele>
        <time>2017-12-16T13:47:51Z</time>
      </trkpt>
      <trkpt lat="44.8248" lon="-0.50766">
        <ele>-22.3</ele>
        <time>2017-12-16T13:47:59Z</time>
      </trkpt>
      <trkpt lat="44.82477" lon="-0.50753">
        <ele>-23.1</ele>
        <time>2017-12-16T13:48:07Z</time>
      </trkpt>
      <trkpt lat="44.82477" lon="-0.50741">
        <ele>-24.3</ele>
        <time>2017-12-16T13:48:14Z</time>
      </trkpt>
      <trkpt lat="44.82477" lon="-0.50729">
        <ele>-25.3</ele>
        <time>2017-12-16T13:48:20Z</time>
      </trkpt>
      <trkpt lat="44.82476" lon="-0.50719">
        <ele>-25</ele>
        <time>2017-12-16T13:48:26Z</time>
      </trkpt>
      <trkpt lat="44.82476" lon="-0.50706">
        <ele>-23.9</ele>
        <time>2017-12-16T13:48:32Z</time>
      </trkpt>
      <trkpt lat="44.82477" lon="-0.50695">
        <ele>-25.8</ele>
        <time>2017-12-16T13:48:39Z</time>
      </trkpt>
      <trkpt lat="44.82477" lon="-0.50683">
        <ele>-23.3</ele>
        <time>2017-12-16T13:48:46Z</time>
      </trkpt>
      <trkpt lat="44.8248" lon="-0.50672">
        <ele>-22</ele>
        <time>2017-12-16T13:48:54Z</time>
      </trkpt>
      <trkpt lat="44.82481" lon="-0.50661">
        <ele>-20.4</ele>
        <time>2017-12-16T13:49:01Z</time>
      </trkpt>
      <trkpt lat="44.82481" lon="-0.50649">
        <ele>-20.6</ele>
        <time>2017-12-16T13:49:08Z</time>
      </trkpt>
      <trkpt lat="44.82477" lon="-0.50639">
        <ele>-21.1</ele>
        <time>2017-12-16T13:49:14Z</time>
      </trkpt>
      <trkpt lat="44.82473" lon="-0.50629">
        <ele>-23.9</ele>
        <time>2017-12-16T13:49:21Z</time>
      </trkpt>
      <trkpt lat="44.82466" lon="-0.50624">
        <ele>-23.1</ele>
        <time>2017-12-16T13:49:29Z</time>
      </trkpt>
      <trkpt lat="44.82458" lon="-0.5062">
        <ele>-21.8</ele>
        <time>2017-12-16T13:49:37Z</time>
      </trkpt>
      <trkpt lat="44.82449" lon="-0.50617">
        <ele>-19.2</ele>
        <time>2017-12-16T13:49:45Z</time>
      </trkpt>
      <trkpt lat="44.82441" lon="-0.50615">
        <ele>-16.3</ele>
        <time>2017-12-16T13:49:52Z</time>
      </trkpt>
      <trkpt lat="44.82433" lon="-0.50611">
        <ele>-15.6</ele>
        <time>2017-12-16T13:49:59Z</time>
      </trkpt>
      <trkpt lat="44.82425" lon="-0.50606">
        <ele>-15.4</ele>
        <time>2017-12-16T13:50:05Z</time>
      </trkpt>
      <trkpt lat="44.82418" lon="-0.506">
        <ele>-15.2</ele>
        <time>2017-12-16T13:50:11Z</time>
      </trkpt>
      <trkpt lat="44.82411" lon="-0.50593">
        <ele>-13.4</ele>
        <time>2017-12-16T13:50:18Z</time>
      </trkpt>
      <trkpt lat="44.82408" lon="-0.50582">
        <ele>-13.6</ele>
        <time>2017-12-16T13:50:25Z</time>
      </trkpt>
      <trkpt lat="44.82404" lon="-0.50572">
        <ele>-13.1</ele>
        <time>2017-12-16T13:50:33Z</time>
      </trkpt>
      <trkpt lat="44.82399" lon="-0.50564">
        <ele>-10</ele>
        <time>2017-12-16T13:50:39Z</time>
      </trkpt>
      <trkpt lat="44.82394" lon="-0.50555">
        <ele>-10.1</ele>
        <time>2017-12-16T13:50:46Z</time>
      </trkpt>
      <trkpt lat="44.8239" lon="-0.50545">
        <ele>-11.1</ele>
        <time>2017-12-16T13:50:52Z</time>
      </trkpt>
      <trkpt lat="44.82385" lon="-0.50536">
        <ele>-9.1</ele>
        <time>2017-12-16T13:50:59Z</time>
      </trkpt>
      <trkpt lat="44.82377" lon="-0.50529">
        <ele>-5.4</ele>
        <time>2017-12-16T13:51:07Z</time>
      </trkpt>
      <trkpt lat="44.82372" lon="-0.5052">
        <ele>-6.2</ele>
        <time>2017-12-16T13:51:16Z</time>
      </trkpt>
      <trkpt lat="44.82366" lon="-0.50512">
        <ele>-6.5</ele>
        <time>2017-12-16T13:51:25Z</time>
      </trkpt>
      <trkpt lat="44.8236" lon="-0.50503">
        <ele>-5.5</ele>
        <time>2017-12-16T13:51:33Z</time>
      </trkpt>
      <trkpt lat="44.82353" lon="-0.50496">
        <ele>-5.7</ele>
        <time>2017-12-16T13:51:42Z</time>
      </trkpt>
      <trkpt lat="44.82345" lon="-0.5049">
        <ele>-0.8</ele>
        <time>2017-12-16T13:51:50Z</time>
      </trkpt>
      <trkpt lat="44.82338" lon="-0.50482">
        <ele>0.8</ele>
        <time>2017-12-16T13:51:57Z</time>
      </trkpt>
      <trkpt lat="44.82333" lon="-0.50474">
        <ele>1</ele>
        <time>2017-12-16T13:52:03Z</time>
      </trkpt>
      <trkpt lat="44.82328" lon="-0.50465">
        <ele>0.7</ele>
        <time>2017-12-16T13:52:10Z</time>
      </trkpt>
      <trkpt lat="44.82323" lon="-0.50455">
        <ele>0.9</ele>
        <time>2017-12-16T13:52:18Z</time>
      </trkpt>
      <trkpt lat="44.82319" lon="-0.50445">
        <ele>-5.5</ele>
        <time>2017-12-16T13:52:27Z</time>
      </trkpt>
      <trkpt lat="44.82315" lon="-0.50434">
        <ele>-2.3</ele>
        <time>2017-12-16T13:52:36Z</time>
      </trkpt>
      <trkpt lat="44.82312" lon="-0.50422">
        <ele>-0.5</ele>
        <time>2017-12-16T13:52:46Z</time>
      </trkpt>
      <trkpt lat="44.82314" lon="-0.5041">
        <ele>-2.6</ele>
        <time>2017-12-16T13:53:06Z</time>
      </trkpt>
      <trkpt lat="44.82322" lon="-0.50405">
        <ele>-1.1</ele>
        <time>2017-12-16T13:53:16Z</time>
      </trkpt>
      <trkpt lat="44.8233" lon="-0.50403">
        <ele>0.4</ele>
        <time>2017-12-16T13:53:25Z</time>
      </trkpt>
      <trkpt lat="44.82339" lon="-0.50405">
        <ele>1.7</ele>
        <time>2017-12-16T13:53:35Z</time>
      </trkpt>
      <trkpt lat="44.82345" lon="-0.50413">
        <ele>2.4</ele>
        <time>2017-12-16T13:53:43Z</time>
      </trkpt>
      <trkpt lat="44.82352" lon="-0.50416">
        <ele>3.1</ele>
        <time>2017-12-16T13:53:50Z</time>
      </trkpt>
      <trkpt lat="44.8236" lon="-0.50415">
        <ele>3.1</ele>
        <time>2017-12-16T13:53:56Z</time>
      </trkpt>
      <trkpt lat="44.82369" lon="-0.50412">
        <ele>3.2</ele>
        <time>2017-12-16T13:54:02Z</time>
      </trkpt>
      <trkpt lat="44.82376" lon="-0.50409">
        <ele>0.1</ele>
        <time>2017-12-16T13:54:10Z</time>
      </trkpt>
      <trkpt lat="44.82384" lon="-0.50405">
        <ele>-2</ele>
        <time>2017-12-16T13:54:20Z</time>
      </trkpt>
      <trkpt lat="44.82391" lon="-0.50398">
        <ele>-0.3</ele>
        <time>2017-12-16T13:54:34Z</time>
      </trkpt>
      <trkpt lat="44.824" lon="-0.50395">
        <ele>-0.2</ele>
        <time>2017-12-16T13:54:44Z</time>
      </trkpt>
      <trkpt lat="44.82407" lon="-0.50397">
        <ele>-1.4</ele>
        <time>2017-12-16T13:54:51Z</time>
      </trkpt>
      <trkpt lat="44.82415" lon="-0.504">
        <ele>-2.2</ele>
        <time>2017-12-16T13:54:57Z</time>
      </trkpt>
      <trkpt lat="44.82423" lon="-0.50405">
        <ele>-1.2</ele>
        <time>2017-12-16T13:55:05Z</time>
      </trkpt>
      <trkpt lat="44.8243" lon="-0.50409">
        <ele>-1.9</ele>
        <time>2017-12-16T13:55:11Z</time>
      </trkpt>
      <trkpt lat="44.82439" lon="-0.50408">
        <ele>-1.5</ele>
        <time>2017-12-16T13:55:20Z</time>
      </trkpt>
      <trkpt lat="44.82446" lon="-0.50403">
        <ele>-3.1</ele>
        <time>2017-12-16T13:55:31Z</time>
      </trkpt>
      <trkpt lat="44.82454" lon="-0.50403">
        <ele>-1.2</ele>
        <time>2017-12-16T13:55:41Z</time>
      </trkpt>
      <trkpt lat="44.82462" lon="-0.50402">
        <ele>1.3</ele>
        <time>2017-12-16T13:55:47Z</time>
      </trkpt>
      <trkpt lat="44.8247" lon="-0.504">
        <ele>2.5</ele>
        <time>2017-12-16T13:55:56Z</time>
      </trkpt>
      <trkpt lat="44.82478" lon="-0.50402">
        <ele>5.5</ele>
        <time>2017-12-16T13:56:03Z</time>
      </trkpt>
      <trkpt lat="44.82486" lon="-0.50403">
        <ele>5.2</ele>
        <time>2017-12-16T13:56:11Z</time>
      </trkpt>
      <trkpt lat="44.82494" lon="-0.50407">
        <ele>5.3</ele>
        <time>2017-12-16T13:56:21Z</time>
      </trkpt>
      <trkpt lat="44.82502" lon="-0.5041">
        <ele>2.9</ele>
        <time>2017-12-16T13:56:28Z</time>
      </trkpt>
      <trkpt lat="44.8251" lon="-0.50414">
        <ele>0.8</ele>
        <time>2017-12-16T13:56:35Z</time>
      </trkpt>
      <trkpt lat="44.82518" lon="-0.50418">
        <ele>-0.7</ele>
        <time>2017-12-16T13:56:43Z</time>
      </trkpt>
      <trkpt lat="44.82527" lon="-0.50421">
        <ele>3.9</ele>
        <time>2017-12-16T13:56:54Z</time>
      </trkpt>
      <trkpt lat="44.82535" lon="-0.5042">
        <ele>4.2</ele>
        <time>2017-12-16T13:57:01Z</time>
      </trkpt>
      <trkpt lat="44.82543" lon="-0.50421">
        <ele>4.9</ele>
        <time>2017-12-16T13:57:09Z</time>
      </trkpt>
      <trkpt lat="44.82551" lon="-0.50424">
        <ele>3.8</ele>
        <time>2017-12-16T13:57:17Z</time>
      </trkpt>
      <trkpt lat="44.82559" lon="-0.50422">
        <ele>1.2</ele>
        <time>2017-12-16T13:57:24Z</time>
      </trkpt>
      <trkpt lat="44.82567" lon="-0.50417">
        <ele>1.7</ele>
        <time>2017-12-16T13:57:32Z</time>
      </trkpt>
      <trkpt lat="44.82576" lon="-0.50419">
        <ele>13.1</ele>
        <time>2017-12-16T13:59:26Z</time>
      </trkpt>
      <trkpt lat="44.82583" lon="-0.50424">
        <ele>3.3</ele>
        <time>2017-12-16T14:00:37Z</time>
      </trkpt>
      <trkpt lat="44.82582" lon="-0.50437">
        <ele>21.8</ele>
        <time>2017-12-16T14:00:41Z</time>
      </trkpt>
      <trkpt lat="44.82575" lon="-0.50443">
        <ele>23.5</ele>
        <time>2017-12-16T14:00:55Z</time>
      </trkpt>
      <trkpt lat="44.82573" lon="-0.50455">
        <ele>40.9</ele>
        <time>2017-12-16T14:01:14Z</time>
      </trkpt>
      <trkpt lat="44.82574" lon="-0.50454">
        <ele>37.4</ele>
        <time>2017-12-16T14:01:37Z</time>
      </trkpt>
      <trkpt lat="44.82579" lon="-0.50443">
        <ele>30.7</ele>
        <time>2017-12-16T14:01:42Z</time>
      </trkpt>
      <trkpt lat="44.82579" lon="-0.50433">
        <ele>25.7</ele>
        <time>2017-12-16T14:05:00Z</time>
      </trkpt>
      <trkpt lat="44.82575" lon="-0.50422">
        <ele>11.5</ele>
        <time>2017-12-16T14:06:46Z</time>
      </trkpt>
      <trkpt lat="44.82568" lon="-0.50414">
        <ele>9.7</ele>
        <time>2017-12-16T14:06:59Z</time>
      </trkpt>
      <trkpt lat="44.82564" lon="-0.50403">
        <ele>8</ele>
        <time>2017-12-16T14:07:11Z</time>
      </trkpt>
      <trkpt lat="44.82561" lon="-0.50392">
        <ele>8.8</ele>
        <time>2017-12-16T14:07:23Z</time>
      </trkpt>
      <trkpt lat="44.82557" lon="-0.50382">
        <ele>8.5</ele>
        <time>2017-12-16T14:07:31Z</time>
      </trkpt>
      <trkpt lat="44.82552" lon="-0.50372">
        <ele>9.1</ele>
        <time>2017-12-16T14:07:40Z</time>
      </trkpt>
      <trkpt lat="44.8255" lon="-0.5036">
        <ele>7.3</ele>
        <time>2017-12-16T14:07:49Z</time>
      </trkpt>
      <trkpt lat="44.82546" lon="-0.50351">
        <ele>6.5</ele>
        <time>2017-12-16T14:07:58Z</time>
      </trkpt>
      <trkpt lat="44.82539" lon="-0.50344">
        <ele>5.8</ele>
        <time>2017-12-16T14:08:09Z</time>
      </trkpt>
      <trkpt lat="44.82531" lon="-0.50344">
        <ele>5.8</ele>
        <time>2017-12-16T14:09:04Z</time>
      </trkpt>
      <trkpt lat="44.82524" lon="-0.50334">
        <ele>10.6</ele>
        <time>2017-12-16T14:09:09Z</time>
      </trkpt>
      <trkpt lat="44.82516" lon="-0.50338">
        <ele>14</ele>
        <time>2017-12-16T14:10:20Z</time>
      </trkpt>
      <trkpt lat="44.82511" lon="-0.50328">
        <ele>14.9</ele>
        <time>2017-12-16T14:10:47Z</time>
      </trkpt>
      <trkpt lat="44.82512" lon="-0.50316">
        <ele>13.3</ele>
        <time>2017-12-16T14:11:04Z</time>
      </trkpt>
      <trkpt lat="44.8252" lon="-0.50311">
        <ele>11.5</ele>
        <time>2017-12-16T14:11:14Z</time>
      </trkpt>
      <trkpt lat="44.82527" lon="-0.50305">
        <ele>11.1</ele>
        <time>2017-12-16T14:11:26Z</time>
      </trkpt>
      <trkpt lat="44.82526" lon="-0.50301">
        <ele>8.3</ele>
        <time>2017-12-16T14:11:38Z</time>
      </trkpt>
      <trkpt lat="44.82518" lon="-0.50298">
        <ele>4.8</ele>
        <time>2017-12-16T14:12:06Z</time>
      </trkpt>
      <trkpt lat="44.82509" lon="-0.50301">
        <ele>-8</ele>
        <time>2017-12-16T14:12:29Z</time>
      </trkpt>
      <trkpt lat="44.82504" lon="-0.50308">
        <ele>-29.1</ele>
        <time>2017-12-16T14:12:35Z</time>
      </trkpt>
      <trkpt lat="44.82495" lon="-0.50317">
        <ele>-30.1</ele>
        <time>2017-12-16T14:12:39Z</time>
      </trkpt>
      <trkpt lat="44.82487" lon="-0.50323">
        <ele>-32.2</ele>
        <time>2017-12-16T14:12:48Z</time>
      </trkpt>
      <trkpt lat="44.82491" lon="-0.50313">
        <ele>-34.9</ele>
        <time>2017-12-16T14:13:10Z</time>
      </trkpt>
      <trkpt lat="44.82504" lon="-0.50307">
        <ele>-26</ele>
        <time>2017-12-16T14:13:15Z</time>
      </trkpt>
      <trkpt lat="44.82512" lon="-0.50308">
        <ele>-19.3</ele>
        <time>2017-12-16T14:13:19Z</time>
      </trkpt>
      <trkpt lat="44.82515" lon="-0.50319">
        <ele>1.8</ele>
        <time>2017-12-16T14:13:37Z</time>
      </trkpt>
      <trkpt lat="44.82518" lon="-0.5033">
        <ele>4</ele>
        <time>2017-12-16T14:13:50Z</time>
      </trkpt>
      <trkpt lat="44.82515" lon="-0.50342">
        <ele>9.2</ele>
        <time>2017-12-16T14:14:10Z</time>
      </trkpt>
      <trkpt lat="44.82507" lon="-0.50344">
        <ele>6.7</ele>
        <time>2017-12-16T14:14:23Z</time>
      </trkpt>
      <trkpt lat="44.82499" lon="-0.50344">
        <ele>4.7</ele>
        <time>2017-12-16T14:14:33Z</time>
      </trkpt>
      <trkpt lat="44.8249" lon="-0.50344">
        <ele>6.5</ele>
        <time>2017-12-16T14:14:40Z</time>
      </trkpt>
      <trkpt lat="44.82482" lon="-0.50345">
        <ele>5.3</ele>
        <time>2017-12-16T14:14:50Z</time>
      </trkpt>
      <trkpt lat="44.82473" lon="-0.50345">
        <ele>4</ele>
        <time>2017-12-16T14:14:59Z</time>
      </trkpt>
      <trkpt lat="44.82465" lon="-0.50343">
        <ele>5.4</ele>
        <time>2017-12-16T14:15:04Z</time>
      </trkpt>
      <trkpt lat="44.82457" lon="-0.5034">
        <ele>5.7</ele>
        <time>2017-12-16T14:15:11Z</time>
      </trkpt>
      <trkpt lat="44.82449" lon="-0.50337">
        <ele>5.2</ele>
        <time>2017-12-16T14:15:18Z</time>
      </trkpt>
      <trkpt lat="44.82441" lon="-0.50334">
        <ele>4.8</ele>
        <time>2017-12-16T14:15:29Z</time>
      </trkpt>
      <trkpt lat="44.82434" lon="-0.50327">
        <ele>3.3</ele>
        <time>2017-12-16T14:15:38Z</time>
      </trkpt>
      <trkpt lat="44.82427" lon="-0.5032">
        <ele>3.6</ele>
        <time>2017-12-16T14:15:47Z</time>
      </trkpt>
      <trkpt lat="44.82423" lon="-0.5031">
        <ele>5.5</ele>
        <time>2017-12-16T14:15:57Z</time>
      </trkpt>
      <trkpt lat="44.82418" lon="-0.503">
        <ele>7.1</ele>
        <time>2017-12-16T14:16:10Z</time>
      </trkpt>
      <trkpt lat="44.82412" lon="-0.50292">
        <ele>4.6</ele>
        <time>2017-12-16T14:16:34Z</time>
      </trkpt>
      <trkpt lat="44.82409" lon="-0.5028">
        <ele>4.5</ele>
        <time>2017-12-16T14:16:42Z</time>
      </trkpt>
      <trkpt lat="44.82405" lon="-0.5027">
        <ele>6</ele>
        <time>2017-12-16T14:16:55Z</time>
      </trkpt>
      <trkpt lat="44.824" lon="-0.50261">
        <ele>5.4</ele>
        <time>2017-12-16T14:17:05Z</time>
      </trkpt>
      <trkpt lat="44.82395" lon="-0.50252">
        <ele>5.9</ele>
        <time>2017-12-16T14:17:14Z</time>
      </trkpt>
      <trkpt lat="44.8239" lon="-0.50244">
        <ele>5.7</ele>
        <time>2017-12-16T14:17:23Z</time>
      </trkpt>
      <trkpt lat="44.82385" lon="-0.50234">
        <ele>9.3</ele>
        <time>2017-12-16T14:17:39Z</time>
      </trkpt>
      <trkpt lat="44.82381" lon="-0.50223">
        <ele>11.3</ele>
        <time>2017-12-16T14:17:48Z</time>
      </trkpt>
      <trkpt lat="44.82379" lon="-0.50211">
        <ele>12.9</ele>
        <time>2017-12-16T14:17:56Z</time>
      </trkpt>
      <trkpt lat="44.82377" lon="-0.50199">
        <ele>13.2</ele>
        <time>2017-12-16T14:18:05Z</time>
      </trkpt>
      <trkpt lat="44.82376" lon="-0.50187">
        <ele>10</ele>
        <time>2017-12-16T14:18:13Z</time>
      </trkpt>
      <trkpt lat="44.82374" lon="-0.50176">
        <ele>10.8</ele>
        <time>2017-12-16T14:18:21Z</time>
      </trkpt>
      <trkpt lat="44.82372" lon="-0.50164">
        <ele>10.5</ele>
        <time>2017-12-16T14:18:32Z</time>
      </trkpt>
      <trkpt lat="44.82371" lon="-0.50152">
        <ele>8.7</ele>
        <time>2017-12-16T14:18:40Z</time>
      </trkpt>
      <trkpt lat="44.82368" lon="-0.50141">
        <ele>9.9</ele>
        <time>2017-12-16T14:18:47Z</time>
      </trkpt>
      <trkpt lat="44.82369" lon="-0.50128">
        <ele>11.7</ele>
        <time>2017-12-16T14:18:56Z</time>
      </trkpt>
      <trkpt lat="44.82367" lon="-0.50117">
        <ele>12.1</ele>
        <time>2017-12-16T14:19:05Z</time>
      </trkpt>
      <trkpt lat="44.82365" lon="-0.50105">
        <ele>15.5</ele>
        <time>2017-12-16T14:19:12Z</time>
      </trkpt>
      <trkpt lat="44.82361" lon="-0.50094">
        <ele>16.2</ele>
        <time>2017-12-16T14:19:19Z</time>
      </trkpt>
      <trkpt lat="44.82358" lon="-0.50083">
        <ele>14.9</ele>
        <time>2017-12-16T14:19:30Z</time>
      </trkpt>
      <trkpt lat="44.82355" lon="-0.50072">
        <ele>15.2</ele>
        <time>2017-12-16T14:19:39Z</time>
      </trkpt>
      <trkpt lat="44.82351" lon="-0.50061">
        <ele>16.8</ele>
        <time>2017-12-16T14:19:47Z</time>
      </trkpt>
      <trkpt lat="44.82347" lon="-0.50051">
        <ele>17.8</ele>
        <time>2017-12-16T14:19:56Z</time>
      </trkpt>
      <trkpt lat="44.82345" lon="-0.5004">
        <ele>17.5</ele>
        <time>2017-12-16T14:20:03Z</time>
      </trkpt>
      <trkpt lat="44.82344" lon="-0.50027">
        <ele>18.4</ele>
        <time>2017-12-16T14:20:10Z</time>
      </trkpt>
      <trkpt lat="44.82346" lon="-0.50017">
        <ele>17.7</ele>
        <time>2017-12-16T14:20:16Z</time>
      </trkpt>
      <trkpt lat="44.8235" lon="-0.50006">
        <ele>17.7</ele>
        <time>2017-12-16T14:20:22Z</time>
      </trkpt>
      <trkpt lat="44.82355" lon="-0.49997">
        <ele>18.2</ele>
        <time>2017-12-16T14:20:29Z</time>
      </trkpt>
      <trkpt lat="44.82361" lon="-0.49989">
        <ele>17.6</ele>
        <time>2017-12-16T14:20:37Z</time>
      </trkpt>
      <trkpt lat="44.82367" lon="-0.49982">
        <ele>15.3</ele>
        <time>2017-12-16T14:20:44Z</time>
      </trkpt>
      <trkpt lat="44.82374" lon="-0.49975">
        <ele>13</ele>
        <time>2017-12-16T14:20:53Z</time>
      </trkpt>
      <trkpt lat="44.82381" lon="-0.49968">
        <ele>15.2</ele>
        <time>2017-12-16T14:21:00Z</time>
      </trkpt>
      <trkpt lat="44.82387" lon="-0.49961">
        <ele>14.9</ele>
        <time>2017-12-16T14:21:07Z</time>
      </trkpt>
      <trkpt lat="44.82393" lon="-0.49954">
        <ele>14.1</ele>
        <time>2017-12-16T14:21:14Z</time>
      </trkpt>
      <trkpt lat="44.82398" lon="-0.49945">
        <ele>13</ele>
        <time>2017-12-16T14:21:20Z</time>
      </trkpt>
      <trkpt lat="44.82402" lon="-0.49936">
        <ele>12.3</ele>
        <time>2017-12-16T14:21:26Z</time>
      </trkpt>
      <trkpt lat="44.82407" lon="-0.49926">
        <ele>12.3</ele>
        <time>2017-12-16T14:21:33Z</time>
      </trkpt>
      <trkpt lat="44.82412" lon="-0.49917">
        <ele>12.3</ele>
        <time>2017-12-16T14:21:39Z</time>
      </trkpt>
      <trkpt lat="44.8242" lon="-0.4991">
        <ele>10.8</ele>
        <time>2017-12-16T14:21:44Z</time>
      </trkpt>
      <trkpt lat="44.82426" lon="-0.49902">
        <ele>11.8</ele>
        <time>2017-12-16T14:21:52Z</time>
      </trkpt>
      <trkpt lat="44.82429" lon="-0.49891">
        <ele>14</ele>
        <time>2017-12-16T14:21:59Z</time>
      </trkpt>
      <trkpt lat="44.82435" lon="-0.49883">
        <ele>12.5</ele>
        <time>2017-12-16T14:22:05Z</time>
      </trkpt>
      <trkpt lat="44.82442" lon="-0.49876">
        <ele>10.8</ele>
        <time>2017-12-16T14:22:11Z</time>
      </trkpt>
      <trkpt lat="44.82449" lon="-0.4987">
        <ele>8.4</ele>
        <time>2017-12-16T14:22:17Z</time>
      </trkpt>
      <trkpt lat="44.82455" lon="-0.4986">
        <ele>9.6</ele>
        <time>2017-12-16T14:22:25Z</time>
      </trkpt>
      <trkpt lat="44.82461" lon="-0.49851">
        <ele>9.5</ele>
        <time>2017-12-16T14:22:32Z</time>
      </trkpt>
      <trkpt lat="44.82467" lon="-0.49844">
        <ele>9.1</ele>
        <time>2017-12-16T14:22:39Z</time>
      </trkpt>
      <trkpt lat="44.82472" lon="-0.49836">
        <ele>9.3</ele>
        <time>2017-12-16T14:22:45Z</time>
      </trkpt>
      <trkpt lat="44.82477" lon="-0.49827">
        <ele>9.4</ele>
        <time>2017-12-16T14:22:52Z</time>
      </trkpt>
      <trkpt lat="44.82483" lon="-0.49818">
        <ele>12.1</ele>
        <time>2017-12-16T14:22:59Z</time>
      </trkpt>
      <trkpt lat="44.82489" lon="-0.49809">
        <ele>13</ele>
        <time>2017-12-16T14:23:06Z</time>
      </trkpt>
      <trkpt lat="44.82494" lon="-0.498">
        <ele>15.9</ele>
        <time>2017-12-16T14:23:14Z</time>
      </trkpt>
      <trkpt lat="44.82501" lon="-0.49794">
        <ele>17.4</ele>
        <time>2017-12-16T14:23:22Z</time>
      </trkpt>
      <trkpt lat="44.82508" lon="-0.4979">
        <ele>19.9</ele>
        <time>2017-12-16T14:23:31Z</time>
      </trkpt>
      <trkpt lat="44.82517" lon="-0.49786">
        <ele>20.1</ele>
        <time>2017-12-16T14:23:39Z</time>
      </trkpt>
      <trkpt lat="44.82525" lon="-0.49783">
        <ele>21.1</ele>
        <time>2017-12-16T14:23:47Z</time>
      </trkpt>
      <trkpt lat="44.82532" lon="-0.49777">
        <ele>22.3</ele>
        <time>2017-12-16T14:23:56Z</time>
      </trkpt>
      <trkpt lat="44.82541" lon="-0.49773">
        <ele>21.6</ele>
        <time>2017-12-16T14:24:03Z</time>
      </trkpt>
      <trkpt lat="44.82549" lon="-0.4977">
        <ele>21.2</ele>
        <time>2017-12-16T14:24:11Z</time>
      </trkpt>
      <trkpt lat="44.82557" lon="-0.49765">
        <ele>22.5</ele>
        <time>2017-12-16T14:24:21Z</time>
      </trkpt>
      <trkpt lat="44.82564" lon="-0.49763">
        <ele>20.2</ele>
        <time>2017-12-16T14:26:20Z</time>
      </trkpt>
      <trkpt lat="44.82572" lon="-0.49755">
        <ele>28.9</ele>
        <time>2017-12-16T14:26:25Z</time>
      </trkpt>
      <trkpt lat="44.82575" lon="-0.49743">
        <ele>25.5</ele>
        <time>2017-12-16T14:26:40Z</time>
      </trkpt>
      <trkpt lat="44.82582" lon="-0.49736">
        <ele>21.9</ele>
        <time>2017-12-16T14:26:57Z</time>
      </trkpt>
      <trkpt lat="44.82588" lon="-0.49727">
        <ele>20.4</ele>
        <time>2017-12-16T14:27:06Z</time>
      </trkpt>
      <trkpt lat="44.82595" lon="-0.49721">
        <ele>16.4</ele>
        <time>2017-12-16T14:27:14Z</time>
      </trkpt>
      <trkpt lat="44.82602" lon="-0.49716">
        <ele>14.8</ele>
        <time>2017-12-16T14:27:21Z</time>
      </trkpt>
      <trkpt lat="44.82609" lon="-0.49709">
        <ele>16.2</ele>
        <time>2017-12-16T14:27:29Z</time>
      </trkpt>
      <trkpt lat="44.82616" lon="-0.49703">
        <ele>15.8</ele>
        <time>2017-12-16T14:27:39Z</time>
      </trkpt>
      <trkpt lat="44.82623" lon="-0.49698">
        <ele>16.4</ele>
        <time>2017-12-16T14:27:47Z</time>
      </trkpt>
      <trkpt lat="44.8263" lon="-0.49692">
        <ele>15.4</ele>
        <time>2017-12-16T14:27:54Z</time>
      </trkpt>
      <trkpt lat="44.82637" lon="-0.49685">
        <ele>15.8</ele>
        <time>2017-12-16T14:28:02Z</time>
      </trkpt>
      <trkpt lat="44.82644" lon="-0.49679">
        <ele>19.6</ele>
        <time>2017-12-16T14:28:10Z</time>
      </trkpt>
      <trkpt lat="44.82651" lon="-0.49674">
        <ele>20.9</ele>
        <time>2017-12-16T14:28:17Z</time>
      </trkpt>
      <trkpt lat="44.82657" lon="-0.49664">
        <ele>18.1</ele>
        <time>2017-12-16T14:28:26Z</time>
      </trkpt>
      <trkpt lat="44.82663" lon="-0.49657">
        <ele>17.6</ele>
        <time>2017-12-16T14:28:33Z</time>
      </trkpt>
      <trkpt lat="44.82669" lon="-0.49647">
        <ele>18.4</ele>
        <time>2017-12-16T14:28:41Z</time>
      </trkpt>
      <trkpt lat="44.82675" lon="-0.49639">
        <ele>18</ele>
        <time>2017-12-16T14:28:49Z</time>
      </trkpt>
      <trkpt lat="44.82681" lon="-0.49631">
        <ele>17.9</ele>
        <time>2017-12-16T14:28:56Z</time>
      </trkpt>
      <trkpt lat="44.82687" lon="-0.49624">
        <ele>16.4</ele>
        <time>2017-12-16T14:29:03Z</time>
      </trkpt>
      <trkpt lat="44.82693" lon="-0.49614">
        <ele>16.5</ele>
        <time>2017-12-16T14:29:10Z</time>
      </trkpt>
      <trkpt lat="44.82698" lon="-0.49606">
        <ele>16.7</ele>
        <time>2017-12-16T14:29:18Z</time>
      </trkpt>
      <trkpt lat="44.82705" lon="-0.49598">
        <ele>17.6</ele>
        <time>2017-12-16T14:29:27Z</time>
      </trkpt>
      <trkpt lat="44.82711" lon="-0.49591">
        <ele>16.8</ele>
        <time>2017-12-16T14:29:34Z</time>
      </trkpt>
      <trkpt lat="44.82718" lon="-0.49584">
        <ele>17.4</ele>
        <time>2017-12-16T14:29:41Z</time>
      </trkpt>
      <trkpt lat="44.82724" lon="-0.49575">
        <ele>16.3</ele>
        <time>2017-12-16T14:29:49Z</time>
      </trkpt>
      <trkpt lat="44.8273" lon="-0.49567">
        <ele>15.6</ele>
        <time>2017-12-16T14:29:56Z</time>
      </trkpt>
      <trkpt lat="44.82736" lon="-0.49559">
        <ele>15.9</ele>
        <time>2017-12-16T14:30:02Z</time>
      </trkpt>
      <trkpt lat="44.82742" lon="-0.49552">
        <ele>15.4</ele>
        <time>2017-12-16T14:30:08Z</time>
      </trkpt>
      <trkpt lat="44.82749" lon="-0.49545">
        <ele>13.9</ele>
        <time>2017-12-16T14:30:15Z</time>
      </trkpt>
      <trkpt lat="44.82756" lon="-0.49539">
        <ele>13.7</ele>
        <time>2017-12-16T14:30:22Z</time>
      </trkpt>
      <trkpt lat="44.82764" lon="-0.49533">
        <ele>15.3</ele>
        <time>2017-12-16T14:30:29Z</time>
      </trkpt>
      <trkpt lat="44.82769" lon="-0.49525">
        <ele>16.6</ele>
        <time>2017-12-16T14:30:36Z</time>
      </trkpt>
      <trkpt lat="44.82776" lon="-0.49518">
        <ele>16.3</ele>
        <time>2017-12-16T14:30:44Z</time>
      </trkpt>
      <trkpt lat="44.82781" lon="-0.4951">
        <ele>17.1</ele>
        <time>2017-12-16T14:30:50Z</time>
      </trkpt>
      <trkpt lat="44.82785" lon="-0.495">
        <ele>18</ele>
        <time>2017-12-16T14:30:56Z</time>
      </trkpt>
      <trkpt lat="44.82788" lon="-0.49489">
        <ele>16.2</ele>
        <time>2017-12-16T14:31:04Z</time>
      </trkpt>
      <trkpt lat="44.82792" lon="-0.49478">
        <ele>11.3</ele>
        <time>2017-12-16T14:31:13Z</time>
      </trkpt>
      <trkpt lat="44.82799" lon="-0.4947">
        <ele>9.1</ele>
        <time>2017-12-16T14:31:21Z</time>
      </trkpt>
      <trkpt lat="44.82805" lon="-0.49463">
        <ele>7.7</ele>
        <time>2017-12-16T14:31:27Z</time>
      </trkpt>
      <trkpt lat="44.82811" lon="-0.49455">
        <ele>9.4</ele>
        <time>2017-12-16T14:31:33Z</time>
      </trkpt>
      <trkpt lat="44.82817" lon="-0.49447">
        <ele>9.2</ele>
        <time>2017-12-16T14:31:40Z</time>
      </trkpt>
      <trkpt lat="44.82821" lon="-0.49438">
        <ele>10.2</ele>
        <time>2017-12-16T14:31:46Z</time>
      </trkpt>
      <trkpt lat="44.82827" lon="-0.49428">
        <ele>8.3</ele>
        <time>2017-12-16T14:31:52Z</time>
      </trkpt>
      <trkpt lat="44.8283" lon="-0.49418">
        <ele>11.2</ele>
        <time>2017-12-16T14:31:59Z</time>
      </trkpt>
      <trkpt lat="44.82834" lon="-0.49407">
        <ele>13.5</ele>
        <time>2017-12-16T14:32:06Z</time>
      </trkpt>
      <trkpt lat="44.82838" lon="-0.49396">
        <ele>15.8</ele>
        <time>2017-12-16T14:32:13Z</time>
      </trkpt>
      <trkpt lat="44.82842" lon="-0.49385">
        <ele>15.3</ele>
        <time>2017-12-16T14:32:21Z</time>
      </trkpt>
      <trkpt lat="44.82846" lon="-0.49375">
        <ele>15</ele>
        <time>2017-12-16T14:32:28Z</time>
      </trkpt>
      <trkpt lat="44.82851" lon="-0.49366">
        <ele>14.1</ele>
        <time>2017-12-16T14:32:35Z</time>
      </trkpt>
      <trkpt lat="44.82858" lon="-0.49357">
        <ele>11.5</ele>
        <time>2017-12-16T14:32:52Z</time>
      </trkpt>
      <trkpt lat="44.82867" lon="-0.4936">
        <ele>16.9</ele>
        <time>2017-12-16T14:33:18Z</time>
      </trkpt>
      <trkpt lat="44.82875" lon="-0.49364">
        <ele>14.7</ele>
        <time>2017-12-16T14:33:22Z</time>
      </trkpt>
      <trkpt lat="44.82882" lon="-0.49369">
        <ele>12.5</ele>
        <time>2017-12-16T14:33:29Z</time>
      </trkpt>
      <trkpt lat="44.8289" lon="-0.49373">
        <ele>11.9</ele>
        <time>2017-12-16T14:33:36Z</time>
      </trkpt>
      <trkpt lat="44.82897" lon="-0.49377">
        <ele>11.3</ele>
        <time>2017-12-16T14:33:41Z</time>
      </trkpt>
      <trkpt lat="44.82904" lon="-0.4938">
        <ele>11.2</ele>
        <time>2017-12-16T14:33:47Z</time>
      </trkpt>
      <trkpt lat="44.82912" lon="-0.49385">
        <ele>10.6</ele>
        <time>2017-12-16T14:33:53Z</time>
      </trkpt>
      <trkpt lat="44.8292" lon="-0.4939">
        <ele>10.1</ele>
        <time>2017-12-16T14:34:00Z</time>
      </trkpt>
      <trkpt lat="44.82928" lon="-0.49393">
        <ele>10.1</ele>
        <time>2017-12-16T14:34:07Z</time>
      </trkpt>
      <trkpt lat="44.82936" lon="-0.49398">
        <ele>9.7</ele>
        <time>2017-12-16T14:34:15Z</time>
      </trkpt>
      <trkpt lat="44.82943" lon="-0.49401">
        <ele>8.2</ele>
        <time>2017-12-16T14:34:23Z</time>
      </trkpt>
      <trkpt lat="44.82949" lon="-0.49394">
        <ele>7.6</ele>
        <time>2017-12-16T14:34:34Z</time>
      </trkpt>
      <trkpt lat="44.82952" lon="-0.49382">
        <ele>1</ele>
        <time>2017-12-16T14:34:43Z</time>
      </trkpt>
      <trkpt lat="44.82956" lon="-0.49372">
        <ele>-5.9</ele>
        <time>2017-12-16T14:34:54Z</time>
      </trkpt>
      <trkpt lat="44.82959" lon="-0.49361">
        <ele>-8</ele>
        <time>2017-12-16T14:35:01Z</time>
      </trkpt>
      <trkpt lat="44.82953" lon="-0.49352">
        <ele>-20</ele>
        <time>2017-12-16T14:35:15Z</time>
      </trkpt>
      <trkpt lat="44.82961" lon="-0.49345">
        <ele>-50.6</ele>
        <time>2017-12-16T14:35:36Z</time>
      </trkpt>
      <trkpt lat="44.82965" lon="-0.49335">
        <ele>-50.6</ele>
        <time>2017-12-16T14:35:41Z</time>
      </trkpt>
      <trkpt lat="44.82969" lon="-0.49324">
        <ele>-48.5</ele>
        <time>2017-12-16T14:35:48Z</time>
      </trkpt>
      <trkpt lat="44.82973" lon="-0.49309">
        <ele>-44.2</ele>
        <time>2017-12-16T14:35:53Z</time>
      </trkpt>
      <trkpt lat="44.82978" lon="-0.49299">
        <ele>-39.6</ele>
        <time>2017-12-16T14:36:00Z</time>
      </trkpt>
      <trkpt lat="44.82981" lon="-0.49288">
        <ele>-36.6</ele>
        <time>2017-12-16T14:36:07Z</time>
      </trkpt>
      <trkpt lat="44.82981" lon="-0.49276">
        <ele>-34.2</ele>
        <time>2017-12-16T14:36:13Z</time>
      </trkpt>
      <trkpt lat="44.82982" lon="-0.49264">
        <ele>-31.5</ele>
        <time>2017-12-16T14:36:20Z</time>
      </trkpt>
      <trkpt lat="44.82982" lon="-0.49252">
        <ele>-29.4</ele>
        <time>2017-12-16T14:36:27Z</time>
      </trkpt>
      <trkpt lat="44.82982" lon="-0.49241">
        <ele>-25.4</ele>
        <time>2017-12-16T14:36:35Z</time>
      </trkpt>
      <trkpt lat="44.82985" lon="-0.4923">
        <ele>-22</ele>
        <time>2017-12-16T14:36:42Z</time>
      </trkpt>
      <trkpt lat="44.8299" lon="-0.49221">
        <ele>-20.4</ele>
        <time>2017-12-16T14:36:48Z</time>
      </trkpt>
      <trkpt lat="44.82996" lon="-0.49213">
        <ele>-18.7</ele>
        <time>2017-12-16T14:36:57Z</time>
      </trkpt>
      <trkpt lat="44.83001" lon="-0.49206">
        <ele>-17.6</ele>
        <time>2017-12-16T14:37:30Z</time>
      </trkpt>
      <trkpt lat="44.83009" lon="-0.49195">
        <ele>-7.2</ele>
        <time>2017-12-16T14:37:35Z</time>
      </trkpt>
      <trkpt lat="44.8301" lon="-0.49183">
        <ele>-5.8</ele>
        <time>2017-12-16T14:38:03Z</time>
      </trkpt>
      <trkpt lat="44.83011" lon="-0.49182">
        <ele>-5.7</ele>
        <time>2017-12-16T14:38:22Z</time>
      </trkpt>
      <trkpt lat="44.83021" lon="-0.49175">
        <ele>-10.3</ele>
        <time>2017-12-16T14:38:26Z</time>
      </trkpt>
      <trkpt lat="44.83029" lon="-0.49171">
        <ele>-7.9</ele>
        <time>2017-12-16T14:38:39Z</time>
      </trkpt>
      <trkpt lat="44.83038" lon="-0.49171">
        <ele>-9.1</ele>
        <time>2017-12-16T14:38:50Z</time>
      </trkpt>
      <trkpt lat="44.83043" lon="-0.49175">
        <ele>-12.3</ele>
        <time>2017-12-16T14:39:08Z</time>
      </trkpt>
      <trkpt lat="44.8305" lon="-0.4918">
        <ele>-19</ele>
        <time>2017-12-16T14:39:17Z</time>
      </trkpt>
      <trkpt lat="44.83059" lon="-0.49176">
        <ele>-19.5</ele>
        <time>2017-12-16T14:39:28Z</time>
      </trkpt>
      <trkpt lat="44.83066" lon="-0.4917">
        <ele>-21.5</ele>
        <time>2017-12-16T14:39:39Z</time>
      </trkpt>
      <trkpt lat="44.83074" lon="-0.49167">
        <ele>-20.7</ele>
        <time>2017-12-16T14:39:46Z</time>
      </trkpt>
      <trkpt lat="44.83081" lon="-0.49165">
        <ele>-16.2</ele>
        <time>2017-12-16T14:39:56Z</time>
      </trkpt>
      <trkpt lat="44.83089" lon="-0.49158">
        <ele>-11</ele>
        <time>2017-12-16T14:40:07Z</time>
      </trkpt>
      <trkpt lat="44.83097" lon="-0.49159">
        <ele>-14.9</ele>
        <time>2017-12-16T14:40:18Z</time>
      </trkpt>
      <trkpt lat="44.83105" lon="-0.49154">
        <ele>-10.2</ele>
        <time>2017-12-16T14:40:28Z</time>
      </trkpt>
      <trkpt lat="44.83113" lon="-0.49152">
        <ele>-9.7</ele>
        <time>2017-12-16T14:40:38Z</time>
      </trkpt>
      <trkpt lat="44.83122" lon="-0.49151">
        <ele>-7.1</ele>
        <time>2017-12-16T14:40:48Z</time>
      </trkpt>
      <trkpt lat="44.8313" lon="-0.49146">
        <ele>-1</ele>
        <time>2017-12-16T14:40:57Z</time>
      </trkpt>
      <trkpt lat="44.83138" lon="-0.49143">
        <ele>1</ele>
        <time>2017-12-16T14:41:09Z</time>
      </trkpt>
      <trkpt lat="44.83146" lon="-0.49142">
        <ele>-0.6</ele>
        <time>2017-12-16T14:41:20Z</time>
      </trkpt>
      <trkpt lat="44.83155" lon="-0.49139">
        <ele>1.9</ele>
        <time>2017-12-16T14:41:32Z</time>
      </trkpt>
      <trkpt lat="44.83163" lon="-0.4914">
        <ele>2.8</ele>
        <time>2017-12-16T14:41:44Z</time>
      </trkpt>
      <trkpt lat="44.83172" lon="-0.49142">
        <ele>4.4</ele>
        <time>2017-12-16T14:41:55Z</time>
      </trkpt>
      <trkpt lat="44.83181" lon="-0.49138">
        <ele>6</ele>
        <time>2017-12-16T14:42:05Z</time>
      </trkpt>
      <trkpt lat="44.83189" lon="-0.49134">
        <ele>5.4</ele>
        <time>2017-12-16T14:42:14Z</time>
      </trkpt>
      <trkpt lat="44.83196" lon="-0.49128">
        <ele>7.1</ele>
        <time>2017-12-16T14:42:24Z</time>
      </trkpt>
      <trkpt lat="44.83199" lon="-0.49125">
        <ele>7.8</ele>
        <time>2017-12-16T14:42:54Z</time>
      </trkpt>
      <trkpt lat="44.83208" lon="-0.49127">
        <ele>6</ele>
        <time>2017-12-16T14:42:59Z</time>
      </trkpt>
      <trkpt lat="44.83215" lon="-0.4912">
        <ele>3.2</ele>
        <time>2017-12-16T14:44:38Z</time>
      </trkpt>
      <trkpt lat="44.83223" lon="-0.49117">
        <ele>7.2</ele>
        <time>2017-12-16T14:44:46Z</time>
      </trkpt>
      <trkpt lat="44.83231" lon="-0.49114">
        <ele>8</ele>
        <time>2017-12-16T14:44:58Z</time>
      </trkpt>
      <trkpt lat="44.83239" lon="-0.49111">
        <ele>8</ele>
        <time>2017-12-16T14:45:09Z</time>
      </trkpt>
      <trkpt lat="44.83248" lon="-0.49108">
        <ele>7.4</ele>
        <time>2017-12-16T14:45:18Z</time>
      </trkpt>
      <trkpt lat="44.83256" lon="-0.49107">
        <ele>8.9</ele>
        <time>2017-12-16T14:45:27Z</time>
      </trkpt>
      <trkpt lat="44.83265" lon="-0.49109">
        <ele>9.2</ele>
        <time>2017-12-16T14:45:34Z</time>
      </trkpt>
      <trkpt lat="44.83273" lon="-0.49109">
        <ele>8.1</ele>
        <time>2017-12-16T14:45:42Z</time>
      </trkpt>
      <trkpt lat="44.83282" lon="-0.49109">
        <ele>12.3</ele>
        <time>2017-12-16T14:45:52Z</time>
      </trkpt>
      <trkpt lat="44.8329" lon="-0.49109">
        <ele>14.3</ele>
        <time>2017-12-16T14:46:00Z</time>
      </trkpt>
      <trkpt lat="44.83298" lon="-0.49107">
        <ele>12.9</ele>
        <time>2017-12-16T14:46:08Z</time>
      </trkpt>
      <trkpt lat="44.83307" lon="-0.49106">
        <ele>14.8</ele>
        <time>2017-12-16T14:46:18Z</time>
      </trkpt>
      <trkpt lat="44.83314" lon="-0.49105">
        <ele>15.6</ele>
        <time>2017-12-16T14:46:25Z</time>
      </trkpt>
      <trkpt lat="44.83323" lon="-0.49107">
        <ele>12.3</ele>
        <time>2017-12-16T14:46:30Z</time>
      </trkpt>
      <trkpt lat="44.83332" lon="-0.49109">
        <ele>10.6</ele>
        <time>2017-12-16T14:46:36Z</time>
      </trkpt>
      <trkpt lat="44.8334" lon="-0.49112">
        <ele>11.2</ele>
        <time>2017-12-16T14:46:42Z</time>
      </trkpt>
      <trkpt lat="44.83347" lon="-0.49112">
        <ele>14</ele>
        <time>2017-12-16T14:46:47Z</time>
      </trkpt>
      <trkpt lat="44.83355" lon="-0.49111">
        <ele>15.4</ele>
        <time>2017-12-16T14:46:53Z</time>
      </trkpt>
      <trkpt lat="44.83364" lon="-0.49113">
        <ele>14.4</ele>
        <time>2017-12-16T14:46:58Z</time>
      </trkpt>
      <trkpt lat="44.83373" lon="-0.49115">
        <ele>13.2</ele>
        <time>2017-12-16T14:47:06Z</time>
      </trkpt>
      <trkpt lat="44.83381" lon="-0.49116">
        <ele>11.1</ele>
        <time>2017-12-16T14:47:13Z</time>
      </trkpt>
      <trkpt lat="44.8339" lon="-0.49118">
        <ele>10.6</ele>
        <time>2017-12-16T14:47:19Z</time>
      </trkpt>
      <trkpt lat="44.83397" lon="-0.49118">
        <ele>13.6</ele>
        <time>2017-12-16T14:47:25Z</time>
      </trkpt>
      <trkpt lat="44.83405" lon="-0.49118">
        <ele>13.6</ele>
        <time>2017-12-16T14:47:31Z</time>
      </trkpt>
      <trkpt lat="44.83413" lon="-0.49116">
        <ele>13.7</ele>
        <time>2017-12-16T14:47:37Z</time>
      </trkpt>
      <trkpt lat="44.83421" lon="-0.49113">
        <ele>15.3</ele>
        <time>2017-12-16T14:47:48Z</time>
      </trkpt>
      <trkpt lat="44.8343" lon="-0.49112">
        <ele>16.5</ele>
        <time>2017-12-16T14:47:57Z</time>
      </trkpt>
      <trkpt lat="44.83437" lon="-0.49114">
        <ele>12.4</ele>
        <time>2017-12-16T14:48:04Z</time>
      </trkpt>
      <trkpt lat="44.83446" lon="-0.49117">
        <ele>12.5</ele>
        <time>2017-12-16T14:48:09Z</time>
      </trkpt>
      <trkpt lat="44.83453" lon="-0.49117">
        <ele>13</ele>
        <time>2017-12-16T14:48:15Z</time>
      </trkpt>
      <trkpt lat="44.83462" lon="-0.49119">
        <ele>12.1</ele>
        <time>2017-12-16T14:48:24Z</time>
      </trkpt>
      <trkpt lat="44.8347" lon="-0.49121">
        <ele>11.8</ele>
        <time>2017-12-16T14:48:33Z</time>
      </trkpt>
      <trkpt lat="44.83478" lon="-0.49122">
        <ele>13.4</ele>
        <time>2017-12-16T14:48:39Z</time>
      </trkpt>
      <trkpt lat="44.83486" lon="-0.49123">
        <ele>14.8</ele>
        <time>2017-12-16T14:48:45Z</time>
      </trkpt>
      <trkpt lat="44.83494" lon="-0.49124">
        <ele>14.8</ele>
        <time>2017-12-16T14:48:51Z</time>
      </trkpt>
      <trkpt lat="44.83501" lon="-0.49127">
        <ele>18.8</ele>
        <time>2017-12-16T14:49:02Z</time>
      </trkpt>
      <trkpt lat="44.83508" lon="-0.49123">
        <ele>22</ele>
        <time>2017-12-16T14:49:07Z</time>
      </trkpt>
      <trkpt lat="44.83517" lon="-0.49122">
        <ele>23.9</ele>
        <time>2017-12-16T14:49:12Z</time>
      </trkpt>
      <trkpt lat="44.83529" lon="-0.49122">
        <ele>25.7</ele>
        <time>2017-12-16T14:49:16Z</time>
      </trkpt>
      <trkpt lat="44.83533" lon="-0.49121">
        <ele>24.6</ele>
        <time>2017-12-16T14:49:34Z</time>
      </trkpt>
      <trkpt lat="44.83552" lon="-0.49129">
        <ele>25.1</ele>
        <time>2017-12-16T14:49:39Z</time>
      </trkpt>
      <trkpt lat="44.83559" lon="-0.49122">
        <ele>23.6</ele>
        <time>2017-12-16T14:49:50Z</time>
      </trkpt>
      <trkpt lat="44.83568" lon="-0.4912">
        <ele>21.9</ele>
        <time>2017-12-16T14:50:00Z</time>
      </trkpt>
      <trkpt lat="44.83575" lon="-0.49123">
        <ele>16.3</ele>
        <time>2017-12-16T14:50:06Z</time>
      </trkpt>
      <trkpt lat="44.83582" lon="-0.4913">
        <ele>11.7</ele>
        <time>2017-12-16T14:50:18Z</time>
      </trkpt>
      <trkpt lat="44.83585" lon="-0.4914">
        <ele>9</ele>
        <time>2017-12-16T14:50:23Z</time>
      </trkpt>
      <trkpt lat="44.83587" lon="-0.49149">
        <ele>10.8</ele>
        <time>2017-12-16T14:50:28Z</time>
      </trkpt>
      <trkpt lat="44.83587" lon="-0.4916">
        <ele>13.6</ele>
        <time>2017-12-16T14:50:32Z</time>
      </trkpt>
      <trkpt lat="44.83586" lon="-0.4917">
        <ele>16.9</ele>
        <time>2017-12-16T14:50:37Z</time>
      </trkpt>
      <trkpt lat="44.83587" lon="-0.49182">
        <ele>18.3</ele>
        <time>2017-12-16T14:50:43Z</time>
      </trkpt>
      <trkpt lat="44.83587" lon="-0.49195">
        <ele>19.1</ele>
        <time>2017-12-16T14:50:50Z</time>
      </trkpt>
      <trkpt lat="44.83589" lon="-0.49207">
        <ele>17.7</ele>
        <time>2017-12-16T14:50:57Z</time>
      </trkpt>
      <trkpt lat="44.83592" lon="-0.49218">
        <ele>19.4</ele>
        <time>2017-12-16T14:51:04Z</time>
      </trkpt>
      <trkpt lat="44.83592" lon="-0.49231">
        <ele>21.2</ele>
        <time>2017-12-16T14:51:10Z</time>
      </trkpt>
      <trkpt lat="44.83593" lon="-0.49242">
        <ele>21.6</ele>
        <time>2017-12-16T14:51:16Z</time>
      </trkpt>
      <trkpt lat="44.83594" lon="-0.49254">
        <ele>20.3</ele>
        <time>2017-12-16T14:51:22Z</time>
      </trkpt>
      <trkpt lat="44.83593" lon="-0.49266">
        <ele>17.6</ele>
        <time>2017-12-16T14:51:29Z</time>
      </trkpt>
      <trkpt lat="44.83595" lon="-0.49278">
        <ele>16.3</ele>
        <time>2017-12-16T14:51:35Z</time>
      </trkpt>
      <trkpt lat="44.83596" lon="-0.49291">
        <ele>16.6</ele>
        <time>2017-12-16T14:51:42Z</time>
      </trkpt>
      <trkpt lat="44.83598" lon="-0.49302">
        <ele>17.5</ele>
        <time>2017-12-16T14:51:48Z</time>
      </trkpt>
      <trkpt lat="44.83598" lon="-0.49314">
        <ele>17.3</ele>
        <time>2017-12-16T14:51:55Z</time>
      </trkpt>
      <trkpt lat="44.83599" lon="-0.49326">
        <ele>16.3</ele>
        <time>2017-12-16T14:52:02Z</time>
      </trkpt>
      <trkpt lat="44.83599" lon="-0.49337">
        <ele>18</ele>
        <time>2017-12-16T14:52:08Z</time>
      </trkpt>
      <trkpt lat="44.83601" lon="-0.49349">
        <ele>18.3</ele>
        <time>2017-12-16T14:52:16Z</time>
      </trkpt>
      <trkpt lat="44.83601" lon="-0.49361">
        <ele>17.5</ele>
        <time>2017-12-16T14:52:23Z</time>
      </trkpt>
      <trkpt lat="44.83602" lon="-0.49373">
        <ele>15.6</ele>
        <time>2017-12-16T14:52:30Z</time>
      </trkpt>
      <trkpt lat="44.83602" lon="-0.49384">
        <ele>13.9</ele>
        <time>2017-12-16T14:52:36Z</time>
      </trkpt>
      <trkpt lat="44.83601" lon="-0.49395">
        <ele>13.6</ele>
        <time>2017-12-16T14:52:42Z</time>
      </trkpt>
      <trkpt lat="44.83601" lon="-0.49407">
        <ele>14.8</ele>
        <time>2017-12-16T14:52:48Z</time>
      </trkpt>
      <trkpt lat="44.83602" lon="-0.49419">
        <ele>16.8</ele>
        <time>2017-12-16T14:52:55Z</time>
      </trkpt>
      <trkpt lat="44.83602" lon="-0.49431">
        <ele>17.2</ele>
        <time>2017-12-16T14:53:02Z</time>
      </trkpt>
      <trkpt lat="44.83603" lon="-0.49442">
        <ele>16.8</ele>
        <time>2017-12-16T14:53:09Z</time>
      </trkpt>
      <trkpt lat="44.83603" lon="-0.49454">
        <ele>16.9</ele>
        <time>2017-12-16T14:53:16Z</time>
      </trkpt>
      <trkpt lat="44.83603" lon="-0.49466">
        <ele>17.1</ele>
        <time>2017-12-16T14:53:22Z</time>
      </trkpt>
      <trkpt lat="44.83602" lon="-0.49478">
        <ele>16.6</ele>
        <time>2017-12-16T14:53:29Z</time>
      </trkpt>
      <trkpt lat="44.83602" lon="-0.49488">
        <ele>16.9</ele>
        <time>2017-12-16T14:53:35Z</time>
      </trkpt>
      <trkpt lat="44.83602" lon="-0.495">
        <ele>15.5</ele>
        <time>2017-12-16T14:53:42Z</time>
      </trkpt>
      <trkpt lat="44.83602" lon="-0.49511">
        <ele>15.6</ele>
        <time>2017-12-16T14:53:49Z</time>
      </trkpt>
      <trkpt lat="44.83603" lon="-0.49524">
        <ele>16.3</ele>
        <time>2017-12-16T14:53:57Z</time>
      </trkpt>
      <trkpt lat="44.83606" lon="-0.49534">
        <ele>16</ele>
        <time>2017-12-16T14:54:04Z</time>
      </trkpt>
      <trkpt lat="44.83608" lon="-0.49546">
        <ele>15.5</ele>
        <time>2017-12-16T14:54:12Z</time>
      </trkpt>
      <trkpt lat="44.8361" lon="-0.49556">
        <ele>16.9</ele>
        <time>2017-12-16T14:54:18Z</time>
      </trkpt>
      <trkpt lat="44.83613" lon="-0.49568">
        <ele>16.4</ele>
        <time>2017-12-16T14:54:25Z</time>
      </trkpt>
      <trkpt lat="44.83613" lon="-0.4958">
        <ele>17.6</ele>
        <time>2017-12-16T14:54:32Z</time>
      </trkpt>
      <trkpt lat="44.83617" lon="-0.49591">
        <ele>18.7</ele>
        <time>2017-12-16T14:54:39Z</time>
      </trkpt>
      <trkpt lat="44.83619" lon="-0.49603">
        <ele>19.2</ele>
        <time>2017-12-16T14:54:46Z</time>
      </trkpt>
      <trkpt lat="44.83621" lon="-0.49615">
        <ele>18.6</ele>
        <time>2017-12-16T14:54:54Z</time>
      </trkpt>
      <trkpt lat="44.8362" lon="-0.49626">
        <ele>17.3</ele>
        <time>2017-12-16T14:55:00Z</time>
      </trkpt>
      <trkpt lat="44.83622" lon="-0.49638">
        <ele>17.2</ele>
        <time>2017-12-16T14:55:08Z</time>
      </trkpt>
      <trkpt lat="44.83623" lon="-0.49649">
        <ele>16.7</ele>
        <time>2017-12-16T14:55:15Z</time>
      </trkpt>
      <trkpt lat="44.83624" lon="-0.49661">
        <ele>16.3</ele>
        <time>2017-12-16T14:55:22Z</time>
      </trkpt>
      <trkpt lat="44.83628" lon="-0.49672">
        <ele>16.3</ele>
        <time>2017-12-16T14:55:29Z</time>
      </trkpt>
      <trkpt lat="44.83629" lon="-0.49683">
        <ele>17</ele>
        <time>2017-12-16T14:55:35Z</time>
      </trkpt>
      <trkpt lat="44.83632" lon="-0.49695">
        <ele>17.6</ele>
        <time>2017-12-16T14:55:42Z</time>
      </trkpt>
      <trkpt lat="44.83634" lon="-0.49707">
        <ele>18.5</ele>
        <time>2017-12-16T14:55:49Z</time>
      </trkpt>
      <trkpt lat="44.83637" lon="-0.49717">
        <ele>19.8</ele>
        <time>2017-12-16T14:55:55Z</time>
      </trkpt>
      <trkpt lat="44.83638" lon="-0.49729">
        <ele>19.3</ele>
        <time>2017-12-16T14:56:02Z</time>
      </trkpt>
      <trkpt lat="44.83641" lon="-0.4974">
        <ele>18.7</ele>
        <time>2017-12-16T14:56:09Z</time>
      </trkpt>
      <trkpt lat="44.83648" lon="-0.49748">
        <ele>18.9</ele>
        <time>2017-12-16T14:56:18Z</time>
      </trkpt>
      <trkpt lat="44.83656" lon="-0.49747">
        <ele>19.7</ele>
        <time>2017-12-16T14:56:24Z</time>
      </trkpt>
      <trkpt lat="44.83665" lon="-0.49744">
        <ele>21</ele>
        <time>2017-12-16T14:56:30Z</time>
      </trkpt>
      <trkpt lat="44.83674" lon="-0.49742">
        <ele>20.6</ele>
        <time>2017-12-16T14:56:38Z</time>
      </trkpt>
      <trkpt lat="44.83682" lon="-0.49737">
        <ele>16.6</ele>
        <time>2017-12-16T14:56:51Z</time>
      </trkpt>
      <trkpt lat="44.83691" lon="-0.49736">
        <ele>18.6</ele>
        <time>2017-12-16T14:57:02Z</time>
      </trkpt>
      <trkpt lat="44.83698" lon="-0.49738">
        <ele>20.1</ele>
        <time>2017-12-16T14:57:09Z</time>
      </trkpt>
      <trkpt lat="44.83705" lon="-0.49743">
        <ele>18.8</ele>
        <time>2017-12-16T14:57:14Z</time>
      </trkpt>
      <trkpt lat="44.8371" lon="-0.49753">
        <ele>18</ele>
        <time>2017-12-16T14:57:21Z</time>
      </trkpt>
      <trkpt lat="44.83712" lon="-0.49765">
        <ele>16.6</ele>
        <time>2017-12-16T14:57:29Z</time>
      </trkpt>
      <trkpt lat="44.83712" lon="-0.49776">
        <ele>16.1</ele>
        <time>2017-12-16T14:57:36Z</time>
      </trkpt>
      <trkpt lat="44.83713" lon="-0.49789">
        <ele>16.2</ele>
        <time>2017-12-16T14:57:43Z</time>
      </trkpt>
      <trkpt lat="44.83711" lon="-0.498">
        <ele>13.4</ele>
        <time>2017-12-16T14:57:53Z</time>
      </trkpt>
      <trkpt lat="44.8371" lon="-0.49812">
        <ele>11.6</ele>
        <time>2017-12-16T14:58:01Z</time>
      </trkpt>
      <trkpt lat="44.83707" lon="-0.49823">
        <ele>8.4</ele>
        <time>2017-12-16T14:58:09Z</time>
      </trkpt>
      <trkpt lat="44.83703" lon="-0.49834">
        <ele>6.8</ele>
        <time>2017-12-16T14:58:17Z</time>
      </trkpt>
      <trkpt lat="44.83702" lon="-0.49845">
        <ele>9.6</ele>
        <time>2017-12-16T14:58:25Z</time>
      </trkpt>
      <trkpt lat="44.837" lon="-0.49858">
        <ele>10.4</ele>
        <time>2017-12-16T14:58:32Z</time>
      </trkpt>
      <trkpt lat="44.83701" lon="-0.49869">
        <ele>11.8</ele>
        <time>2017-12-16T14:58:39Z</time>
      </trkpt>
      <trkpt lat="44.83701" lon="-0.49881">
        <ele>12.5</ele>
        <time>2017-12-16T14:58:44Z</time>
      </trkpt>
      <trkpt lat="44.83701" lon="-0.49892">
        <ele>12.2</ele>
        <time>2017-12-16T14:58:49Z</time>
      </trkpt>
      <trkpt lat="44.83702" lon="-0.49903">
        <ele>12.4</ele>
        <time>2017-12-16T14:58:56Z</time>
      </trkpt>
      <trkpt lat="44.837" lon="-0.49914">
        <ele>12.8</ele>
        <time>2017-12-16T14:59:03Z</time>
      </trkpt>
      <trkpt lat="44.83698" lon="-0.49926">
        <ele>12.5</ele>
        <time>2017-12-16T14:59:10Z</time>
      </trkpt>
      <trkpt lat="44.83694" lon="-0.49937">
        <ele>14.5</ele>
        <time>2017-12-16T14:59:20Z</time>
      </trkpt>
      <trkpt lat="44.8369" lon="-0.49947">
        <ele>14.6</ele>
        <time>2017-12-16T14:59:29Z</time>
      </trkpt>
      <trkpt lat="44.83686" lon="-0.49957">
        <ele>13.4</ele>
        <time>2017-12-16T14:59:37Z</time>
      </trkpt>
      <trkpt lat="44.8368" lon="-0.49966">
        <ele>12.3</ele>
        <time>2017-12-16T14:59:45Z</time>
      </trkpt>
      <trkpt lat="44.83678" lon="-0.49978">
        <ele>11.8</ele>
        <time>2017-12-16T15:00:02Z</time>
      </trkpt>
      <trkpt lat="44.83674" lon="-0.49988">
        <ele>9.8</ele>
        <time>2017-12-16T15:00:13Z</time>
      </trkpt>
      <trkpt lat="44.8367" lon="-0.49999">
        <ele>9.5</ele>
        <time>2017-12-16T15:00:22Z</time>
      </trkpt>
      <trkpt lat="44.83665" lon="-0.50009">
        <ele>9.3</ele>
        <time>2017-12-16T15:00:32Z</time>
      </trkpt>
      <trkpt lat="44.83662" lon="-0.5002">
        <ele>10.1</ele>
        <time>2017-12-16T15:00:39Z</time>
      </trkpt>
      <trkpt lat="44.83658" lon="-0.50031">
        <ele>12</ele>
        <time>2017-12-16T15:00:47Z</time>
      </trkpt>
      <trkpt lat="44.83654" lon="-0.50041">
        <ele>12.3</ele>
        <time>2017-12-16T15:00:54Z</time>
      </trkpt>
      <trkpt lat="44.83651" lon="-0.50052">
        <ele>12.7</ele>
        <time>2017-12-16T15:01:01Z</time>
      </trkpt>
      <trkpt lat="44.83647" lon="-0.50063">
        <ele>12.2</ele>
        <time>2017-12-16T15:01:08Z</time>
      </trkpt>
      <trkpt lat="44.83643" lon="-0.50074">
        <ele>12.7</ele>
        <time>2017-12-16T15:01:15Z</time>
      </trkpt>
      <trkpt lat="44.8364" lon="-0.50085">
        <ele>12.4</ele>
        <time>2017-12-16T15:01:26Z</time>
      </trkpt>
      <trkpt lat="44.83641" lon="-0.50098">
        <ele>11.4</ele>
        <time>2017-12-16T15:01:37Z</time>
      </trkpt>
      <trkpt lat="44.83643" lon="-0.50109">
        <ele>12.5</ele>
        <time>2017-12-16T15:01:42Z</time>
      </trkpt>
      <trkpt lat="44.83649" lon="-0.50118">
        <ele>13.1</ele>
        <time>2017-12-16T15:01:47Z</time>
      </trkpt>
      <trkpt lat="44.83652" lon="-0.50128">
        <ele>14.1</ele>
        <time>2017-12-16T15:01:54Z</time>
      </trkpt>
      <trkpt lat="44.83656" lon="-0.50137">
        <ele>14.7</ele>
        <time>2017-12-16T15:01:59Z</time>
      </trkpt>
      <trkpt lat="44.83661" lon="-0.50146">
        <ele>13.9</ele>
        <time>2017-12-16T15:02:05Z</time>
      </trkpt>
      <trkpt lat="44.83661" lon="-0.50158">
        <ele>13.5</ele>
        <time>2017-12-16T15:02:13Z</time>
      </trkpt>
      <trkpt lat="44.83659" lon="-0.50169">
        <ele>12.8</ele>
        <time>2017-12-16T15:02:19Z</time>
      </trkpt>
      <trkpt lat="44.83659" lon="-0.50181">
        <ele>16.2</ele>
        <time>2017-12-16T15:02:26Z</time>
      </trkpt>
      <trkpt lat="44.8366" lon="-0.50193">
        <ele>16.2</ele>
        <time>2017-12-16T15:02:33Z</time>
      </trkpt>
      <trkpt lat="44.83659" lon="-0.50204">
        <ele>14.7</ele>
        <time>2017-12-16T15:02:40Z</time>
      </trkpt>
      <trkpt lat="44.83658" lon="-0.50215">
        <ele>12.1</ele>
        <time>2017-12-16T15:02:46Z</time>
      </trkpt>
      <trkpt lat="44.83656" lon="-0.50227">
        <ele>8.5</ele>
        <time>2017-12-16T15:02:52Z</time>
      </trkpt>
      <trkpt lat="44.83653" lon="-0.50239">
        <ele>8</ele>
        <time>2017-12-16T15:02:58Z</time>
      </trkpt>
      <trkpt lat="44.83647" lon="-0.50247">
        <ele>8.3</ele>
        <time>2017-12-16T15:03:02Z</time>
      </trkpt>
      <trkpt lat="44.83644" lon="-0.50259">
        <ele>14</ele>
        <time>2017-12-16T15:03:10Z</time>
      </trkpt>
      <trkpt lat="44.83642" lon="-0.50271">
        <ele>16.4</ele>
        <time>2017-12-16T15:03:17Z</time>
      </trkpt>
      <trkpt lat="44.83651" lon="-0.50274">
        <ele>12.8</ele>
        <time>2017-12-16T15:03:23Z</time>
      </trkpt>
      <trkpt lat="44.8366" lon="-0.50277">
        <ele>12.2</ele>
        <time>2017-12-16T15:03:28Z</time>
      </trkpt>
      <trkpt lat="44.83668" lon="-0.50282">
        <ele>12</ele>
        <time>2017-12-16T15:03:34Z</time>
      </trkpt>
      <trkpt lat="44.83674" lon="-0.50288">
        <ele>11.3</ele>
        <time>2017-12-16T15:03:39Z</time>
      </trkpt>
      <trkpt lat="44.83679" lon="-0.50298">
        <ele>14.1</ele>
        <time>2017-12-16T15:03:44Z</time>
      </trkpt>
      <trkpt lat="44.83686" lon="-0.50304">
        <ele>15.6</ele>
        <time>2017-12-16T15:03:49Z</time>
      </trkpt>
      <trkpt lat="44.83694" lon="-0.5031">
        <ele>14.1</ele>
        <time>2017-12-16T15:03:55Z</time>
      </trkpt>
      <trkpt lat="44.83699" lon="-0.50315">
        <ele>11.7</ele>
        <time>2017-12-16T15:03:59Z</time>
      </trkpt>
      <trkpt lat="44.83705" lon="-0.50323">
        <ele>11</ele>
        <time>2017-12-16T15:04:04Z</time>
      </trkpt>
      <trkpt lat="44.8371" lon="-0.50331">
        <ele>11.1</ele>
        <time>2017-12-16T15:04:09Z</time>
      </trkpt>
      <trkpt lat="44.83716" lon="-0.50339">
        <ele>11.7</ele>
        <time>2017-12-16T15:04:14Z</time>
      </trkpt>
      <trkpt lat="44.83722" lon="-0.50346">
        <ele>11.9</ele>
        <time>2017-12-16T15:04:19Z</time>
      </trkpt>
      <trkpt lat="44.83728" lon="-0.50354">
        <ele>12.4</ele>
        <time>2017-12-16T15:04:25Z</time>
      </trkpt>
      <trkpt lat="44.83734" lon="-0.50363">
        <ele>12.3</ele>
        <time>2017-12-16T15:04:31Z</time>
      </trkpt>
      <trkpt lat="44.8374" lon="-0.50371">
        <ele>11.5</ele>
        <time>2017-12-16T15:04:37Z</time>
      </trkpt>
      <trkpt lat="44.83745" lon="-0.5038">
        <ele>10</ele>
        <time>2017-12-16T15:04:45Z</time>
      </trkpt>
      <trkpt lat="44.83751" lon="-0.50389">
        <ele>10</ele>
        <time>2017-12-16T15:04:52Z</time>
      </trkpt>
      <trkpt lat="44.83756" lon="-0.50397">
        <ele>9.8</ele>
        <time>2017-12-16T15:04:57Z</time>
      </trkpt>
      <trkpt lat="44.83763" lon="-0.50405">
        <ele>9.3</ele>
        <time>2017-12-16T15:05:02Z</time>
      </trkpt>
      <trkpt lat="44.83768" lon="-0.50413">
        <ele>8.2</ele>
        <time>2017-12-16T15:05:07Z</time>
      </trkpt>
      <trkpt lat="44.83775" lon="-0.50421">
        <ele>8.7</ele>
        <time>2017-12-16T15:05:13Z</time>
      </trkpt>
      <trkpt lat="44.8378" lon="-0.50429">
        <ele>8.2</ele>
        <time>2017-12-16T15:05:19Z</time>
      </trkpt>
      <trkpt lat="44.83784" lon="-0.50438">
        <ele>9.1</ele>
        <time>2017-12-16T15:05:26Z</time>
      </trkpt>
      <trkpt lat="44.8379" lon="-0.50445">
        <ele>8.4</ele>
        <time>2017-12-16T15:05:31Z</time>
      </trkpt>
      <trkpt lat="44.83797" lon="-0.50453">
        <ele>8.3</ele>
        <time>2017-12-16T15:05:36Z</time>
      </trkpt>
      <trkpt lat="44.83802" lon="-0.50461">
        <ele>8.7</ele>
        <time>2017-12-16T15:05:41Z</time>
      </trkpt>
      <trkpt lat="44.83807" lon="-0.50471">
        <ele>8.6</ele>
        <time>2017-12-16T15:05:47Z</time>
      </trkpt>
      <trkpt lat="44.83811" lon="-0.50481">
        <ele>9.2</ele>
        <time>2017-12-16T15:05:53Z</time>
      </trkpt>
      <trkpt lat="44.83813" lon="-0.50492">
        <ele>9.1</ele>
        <time>2017-12-16T15:05:59Z</time>
      </trkpt>
      <trkpt lat="44.83817" lon="-0.50502">
        <ele>8.4</ele>
        <time>2017-12-16T15:06:05Z</time>
      </trkpt>
      <trkpt lat="44.8382" lon="-0.50514">
        <ele>5.5</ele>
        <time>2017-12-16T15:06:11Z</time>
      </trkpt>
      <trkpt lat="44.83822" lon="-0.50524">
        <ele>6.6</ele>
        <time>2017-12-16T15:06:16Z</time>
      </trkpt>
      <trkpt lat="44.83825" lon="-0.50534">
        <ele>5.1</ele>
        <time>2017-12-16T15:06:22Z</time>
      </trkpt>
      <trkpt lat="44.83826" lon="-0.50546">
        <ele>4.1</ele>
        <time>2017-12-16T15:06:28Z</time>
      </trkpt>
      <trkpt lat="44.83829" lon="-0.50558">
        <ele>4.7</ele>
        <time>2017-12-16T15:06:34Z</time>
      </trkpt>
      <trkpt lat="44.83831" lon="-0.50568">
        <ele>6.5</ele>
        <time>2017-12-16T15:06:40Z</time>
      </trkpt>
      <trkpt lat="44.83836" lon="-0.50578">
        <ele>5.9</ele>
        <time>2017-12-16T15:06:47Z</time>
      </trkpt>
      <trkpt lat="44.83842" lon="-0.50586">
        <ele>6.6</ele>
        <time>2017-12-16T15:06:53Z</time>
      </trkpt>
      <trkpt lat="44.83849" lon="-0.50591">
        <ele>6.9</ele>
        <time>2017-12-16T15:06:59Z</time>
      </trkpt>
      <trkpt lat="44.83856" lon="-0.50596">
        <ele>6.3</ele>
        <time>2017-12-16T15:07:04Z</time>
      </trkpt>
      <trkpt lat="44.83864" lon="-0.50599">
        <ele>7.6</ele>
        <time>2017-12-16T15:07:09Z</time>
      </trkpt>
      <trkpt lat="44.83871" lon="-0.50602">
        <ele>8.7</ele>
        <time>2017-12-16T15:07:15Z</time>
      </trkpt>
      <trkpt lat="44.83879" lon="-0.50604">
        <ele>10</ele>
        <time>2017-12-16T15:07:20Z</time>
      </trkpt>
      <trkpt lat="44.83887" lon="-0.50605">
        <ele>12</ele>
        <time>2017-12-16T15:07:26Z</time>
      </trkpt>
      <trkpt lat="44.83896" lon="-0.50606">
        <ele>14.2</ele>
        <time>2017-12-16T15:07:33Z</time>
      </trkpt>
      <trkpt lat="44.83904" lon="-0.50605">
        <ele>13.5</ele>
        <time>2017-12-16T15:07:40Z</time>
      </trkpt>
      <trkpt lat="44.83912" lon="-0.50603">
        <ele>13.8</ele>
        <time>2017-12-16T15:07:47Z</time>
      </trkpt>
      <trkpt lat="44.8392" lon="-0.506">
        <ele>12.7</ele>
        <time>2017-12-16T15:07:53Z</time>
      </trkpt>
      <trkpt lat="44.83928" lon="-0.50599">
        <ele>14.8</ele>
        <time>2017-12-16T15:08:00Z</time>
      </trkpt>
      <trkpt lat="44.83937" lon="-0.50602">
        <ele>13.1</ele>
        <time>2017-12-16T15:08:08Z</time>
      </trkpt>
      <trkpt lat="44.83944" lon="-0.50605">
        <ele>11.9</ele>
        <time>2017-12-16T15:08:14Z</time>
      </trkpt>
      <trkpt lat="44.83952" lon="-0.50608">
        <ele>11.8</ele>
        <time>2017-12-16T15:08:19Z</time>
      </trkpt>
      <trkpt lat="44.83959" lon="-0.50611">
        <ele>11.5</ele>
        <time>2017-12-16T15:08:24Z</time>
      </trkpt>
      <trkpt lat="44.83967" lon="-0.50614">
        <ele>9.7</ele>
        <time>2017-12-16T15:08:29Z</time>
      </trkpt>
      <trkpt lat="44.83975" lon="-0.5062">
        <ele>12.2</ele>
        <time>2017-12-16T15:08:34Z</time>
      </trkpt>
      <trkpt lat="44.83982" lon="-0.50627">
        <ele>14.3</ele>
        <time>2017-12-16T15:08:40Z</time>
      </trkpt>
      <trkpt lat="44.83991" lon="-0.50628">
        <ele>15</ele>
        <time>2017-12-16T15:08:49Z</time>
      </trkpt>
      <trkpt lat="44.83987" lon="-0.50639">
        <ele>27.2</ele>
        <time>2017-12-16T15:09:30Z</time>
      </trkpt>
      <trkpt lat="44.83994" lon="-0.50647">
        <ele>20.8</ele>
        <time>2017-12-16T15:10:05Z</time>
      </trkpt>
      <trkpt lat="44.83998" lon="-0.50656">
        <ele>16.7</ele>
        <time>2017-12-16T15:10:11Z</time>
      </trkpt>
      <trkpt lat="44.84004" lon="-0.50663">
        <ele>16.3</ele>
        <time>2017-12-16T15:10:16Z</time>
      </trkpt>
      <trkpt lat="44.84009" lon="-0.50673">
        <ele>14.3</ele>
        <time>2017-12-16T15:10:23Z</time>
      </trkpt>
      <trkpt lat="44.84014" lon="-0.50683">
        <ele>15.5</ele>
        <time>2017-12-16T15:10:29Z</time>
      </trkpt>
      <trkpt lat="44.8402" lon="-0.50691">
        <ele>16.2</ele>
        <time>2017-12-16T15:10:35Z</time>
      </trkpt>
      <trkpt lat="44.84026" lon="-0.50699">
        <ele>17.4</ele>
        <time>2017-12-16T15:10:41Z</time>
      </trkpt>
      <trkpt lat="44.84032" lon="-0.50707">
        <ele>17.6</ele>
        <time>2017-12-16T15:10:46Z</time>
      </trkpt>
      <trkpt lat="44.84037" lon="-0.50717">
        <ele>16.4</ele>
        <time>2017-12-16T15:10:52Z</time>
      </trkpt>
      <trkpt lat="44.84042" lon="-0.50727">
        <ele>16.8</ele>
        <time>2017-12-16T15:10:59Z</time>
      </trkpt>
      <trkpt lat="44.84047" lon="-0.50736">
        <ele>17.6</ele>
        <time>2017-12-16T15:11:06Z</time>
      </trkpt>
      <trkpt lat="44.84055" lon="-0.5074">
        <ele>18.4</ele>
        <time>2017-12-16T15:11:14Z</time>
      </trkpt>
      <trkpt lat="44.84063" lon="-0.50738">
        <ele>18.9</ele>
        <time>2017-12-16T15:11:20Z</time>
      </trkpt>
      <trkpt lat="44.8407" lon="-0.50733">
        <ele>18.8</ele>
        <time>2017-12-16T15:11:26Z</time>
      </trkpt>
      <trkpt lat="44.84077" lon="-0.50728">
        <ele>18.2</ele>
        <time>2017-12-16T15:11:32Z</time>
      </trkpt>
      <trkpt lat="44.84084" lon="-0.50722">
        <ele>17.7</ele>
        <time>2017-12-16T15:11:38Z</time>
      </trkpt>
      <trkpt lat="44.84092" lon="-0.50717">
        <ele>17.4</ele>
        <time>2017-12-16T15:11:45Z</time>
      </trkpt>
      <trkpt lat="44.841" lon="-0.50713">
        <ele>18.4</ele>
        <time>2017-12-16T15:11:51Z</time>
      </trkpt>
      <trkpt lat="44.84107" lon="-0.50708">
        <ele>19.6</ele>
        <time>2017-12-16T15:11:57Z</time>
      </trkpt>
      <trkpt lat="44.84113" lon="-0.50702">
        <ele>20.2</ele>
        <time>2017-12-16T15:12:02Z</time>
      </trkpt>
      <trkpt lat="44.8412" lon="-0.50695">
        <ele>20</ele>
        <time>2017-12-16T15:12:08Z</time>
      </trkpt>
      <trkpt lat="44.84126" lon="-0.50687">
        <ele>18.7</ele>
        <time>2017-12-16T15:12:14Z</time>
      </trkpt>
      <trkpt lat="44.84132" lon="-0.50679">
        <ele>18.5</ele>
        <time>2017-12-16T15:12:20Z</time>
      </trkpt>
      <trkpt lat="44.84138" lon="-0.5067">
        <ele>17.7</ele>
        <time>2017-12-16T15:12:27Z</time>
      </trkpt>
      <trkpt lat="44.84142" lon="-0.50659">
        <ele>16.4</ele>
        <time>2017-12-16T15:12:33Z</time>
      </trkpt>
      <trkpt lat="44.84145" lon="-0.50649">
        <ele>16</ele>
        <time>2017-12-16T15:12:38Z</time>
      </trkpt>
      <trkpt lat="44.84149" lon="-0.5064">
        <ele>17.5</ele>
        <time>2017-12-16T15:12:43Z</time>
      </trkpt>
      <trkpt lat="44.84154" lon="-0.50631">
        <ele>19.4</ele>
        <time>2017-12-16T15:12:49Z</time>
      </trkpt>
      <trkpt lat="44.8416" lon="-0.50622">
        <ele>18.1</ele>
        <time>2017-12-16T15:12:55Z</time>
      </trkpt>
      <trkpt lat="44.84167" lon="-0.50615">
        <ele>18.9</ele>
        <time>2017-12-16T15:13:01Z</time>
      </trkpt>
      <trkpt lat="44.84175" lon="-0.50613">
        <ele>17.9</ele>
        <time>2017-12-16T15:13:07Z</time>
      </trkpt>
      <trkpt lat="44.84182" lon="-0.50614">
        <ele>18.6</ele>
        <time>2017-12-16T15:13:13Z</time>
      </trkpt>
      <trkpt lat="44.8419" lon="-0.50618">
        <ele>17.9</ele>
        <time>2017-12-16T15:13:18Z</time>
      </trkpt>
      <trkpt lat="44.84198" lon="-0.50624">
        <ele>16.3</ele>
        <time>2017-12-16T15:13:24Z</time>
      </trkpt>
      <trkpt lat="44.84203" lon="-0.50631">
        <ele>16</ele>
        <time>2017-12-16T15:13:29Z</time>
      </trkpt>
      <trkpt lat="44.8421" lon="-0.50639">
        <ele>15.9</ele>
        <time>2017-12-16T15:13:34Z</time>
      </trkpt>
      <trkpt lat="44.84215" lon="-0.50647">
        <ele>16.8</ele>
        <time>2017-12-16T15:13:39Z</time>
      </trkpt>
      <trkpt lat="44.8422" lon="-0.50657">
        <ele>18.5</ele>
        <time>2017-12-16T15:13:46Z</time>
      </trkpt>
      <trkpt lat="44.84224" lon="-0.50667">
        <ele>19</ele>
        <time>2017-12-16T15:13:53Z</time>
      </trkpt>
      <trkpt lat="44.8423" lon="-0.50677">
        <ele>18.3</ele>
        <time>2017-12-16T15:13:59Z</time>
      </trkpt>
      <trkpt lat="44.84235" lon="-0.50686">
        <ele>18.2</ele>
        <time>2017-12-16T15:14:05Z</time>
      </trkpt>
      <trkpt lat="44.8424" lon="-0.50695">
        <ele>17.5</ele>
        <time>2017-12-16T15:14:11Z</time>
      </trkpt>
      <trkpt lat="44.84245" lon="-0.50704">
        <ele>15.4</ele>
        <time>2017-12-16T15:14:17Z</time>
      </trkpt>
      <trkpt lat="44.84253" lon="-0.50707">
        <ele>16.8</ele>
        <time>2017-12-16T15:14:23Z</time>
      </trkpt>
      <trkpt lat="44.84261" lon="-0.50709">
        <ele>15</ele>
        <time>2017-12-16T15:14:30Z</time>
      </trkpt>
      <trkpt lat="44.8427" lon="-0.50711">
        <ele>14.2</ele>
        <time>2017-12-16T15:14:37Z</time>
      </trkpt>
      <trkpt lat="44.84278" lon="-0.50714">
        <ele>13.6</ele>
        <time>2017-12-16T15:14:44Z</time>
      </trkpt>
      <trkpt lat="44.84286" lon="-0.50717">
        <ele>12.1</ele>
        <time>2017-12-16T15:14:51Z</time>
      </trkpt>
      <trkpt lat="44.84294" lon="-0.50724">
        <ele>12.1</ele>
        <time>2017-12-16T15:15:00Z</time>
      </trkpt>
      <trkpt lat="44.84292" lon="-0.50735">
        <ele>11.5</ele>
        <time>2017-12-16T15:15:06Z</time>
      </trkpt>
      <trkpt lat="44.84294" lon="-0.50745">
        <ele>7.2</ele>
        <time>2017-12-16T15:15:12Z</time>
      </trkpt>
      <trkpt lat="44.84296" lon="-0.50756">
        <ele>6.1</ele>
        <time>2017-12-16T15:15:18Z</time>
      </trkpt>
      <trkpt lat="44.84297" lon="-0.50767">
        <ele>7.2</ele>
        <time>2017-12-16T15:15:23Z</time>
      </trkpt>
      <trkpt lat="44.84297" lon="-0.50779">
        <ele>9.1</ele>
        <time>2017-12-16T15:15:29Z</time>
      </trkpt>
      <trkpt lat="44.84295" lon="-0.50788">
        <ele>9.1</ele>
        <time>2017-12-16T15:15:34Z</time>
      </trkpt>
      <trkpt lat="44.84293" lon="-0.508">
        <ele>8.4</ele>
        <time>2017-12-16T15:15:40Z</time>
      </trkpt>
      <trkpt lat="44.84293" lon="-0.50813">
        <ele>9.1</ele>
        <time>2017-12-16T15:15:47Z</time>
      </trkpt>
      <trkpt lat="44.84292" lon="-0.50824">
        <ele>11.9</ele>
        <time>2017-12-16T15:15:53Z</time>
      </trkpt>
      <trkpt lat="44.84293" lon="-0.50836">
        <ele>12.6</ele>
        <time>2017-12-16T15:16:00Z</time>
      </trkpt>
      <trkpt lat="44.84292" lon="-0.50848">
        <ele>10.2</ele>
        <time>2017-12-16T15:16:06Z</time>
      </trkpt>
      <trkpt lat="44.84291" lon="-0.50859">
        <ele>9.4</ele>
        <time>2017-12-16T15:16:11Z</time>
      </trkpt>
      <trkpt lat="44.84291" lon="-0.50871">
        <ele>10.1</ele>
        <time>2017-12-16T15:16:17Z</time>
      </trkpt>
      <trkpt lat="44.84288" lon="-0.50881">
        <ele>10.2</ele>
        <time>2017-12-16T15:16:22Z</time>
      </trkpt>
      <trkpt lat="44.84286" lon="-0.50892">
        <ele>9.6</ele>
        <time>2017-12-16T15:16:27Z</time>
      </trkpt>
      <trkpt lat="44.84284" lon="-0.50904">
        <ele>9.1</ele>
        <time>2017-12-16T15:16:34Z</time>
      </trkpt>
      <trkpt lat="44.84285" lon="-0.50916">
        <ele>9.6</ele>
        <time>2017-12-16T15:16:40Z</time>
      </trkpt>
      <trkpt lat="44.84281" lon="-0.50927">
        <ele>10.9</ele>
        <time>2017-12-16T15:16:45Z</time>
      </trkpt>
      <trkpt lat="44.84278" lon="-0.50939">
        <ele>10.6</ele>
        <time>2017-12-16T15:16:51Z</time>
      </trkpt>
      <trkpt lat="44.84277" lon="-0.5095">
        <ele>10.1</ele>
        <time>2017-12-16T15:16:57Z</time>
      </trkpt>
      <trkpt lat="44.84276" lon="-0.50961">
        <ele>8.9</ele>
        <time>2017-12-16T15:17:02Z</time>
      </trkpt>
      <trkpt lat="44.84275" lon="-0.50973">
        <ele>8.6</ele>
        <time>2017-12-16T15:17:08Z</time>
      </trkpt>
      <trkpt lat="44.84274" lon="-0.50984">
        <ele>7.6</ele>
        <time>2017-12-16T15:17:14Z</time>
      </trkpt>
      <trkpt lat="44.84273" lon="-0.50995">
        <ele>7.3</ele>
        <time>2017-12-16T15:17:19Z</time>
      </trkpt>
      <trkpt lat="44.84275" lon="-0.51008">
        <ele>5.5</ele>
        <time>2017-12-16T15:17:25Z</time>
      </trkpt>
      <trkpt lat="44.84276" lon="-0.51018">
        <ele>5</ele>
        <time>2017-12-16T15:17:31Z</time>
      </trkpt>
      <trkpt lat="44.84277" lon="-0.5103">
        <ele>1.9</ele>
        <time>2017-12-16T15:17:37Z</time>
      </trkpt>
      <trkpt lat="44.84281" lon="-0.5104">
        <ele>1.2</ele>
        <time>2017-12-16T15:17:43Z</time>
      </trkpt>
      <trkpt lat="44.84286" lon="-0.51049">
        <ele>0.5</ele>
        <time>2017-12-16T15:17:49Z</time>
      </trkpt>
      <trkpt lat="44.8429" lon="-0.51059">
        <ele>1.2</ele>
        <time>2017-12-16T15:17:55Z</time>
      </trkpt>
      <trkpt lat="44.8429" lon="-0.51071">
        <ele>2.5</ele>
        <time>2017-12-16T15:18:02Z</time>
      </trkpt>
      <trkpt lat="44.84292" lon="-0.51081">
        <ele>0.8</ele>
        <time>2017-12-16T15:18:08Z</time>
      </trkpt>
      <trkpt lat="44.84295" lon="-0.51093">
        <ele>63.6</ele>
        <time>2017-12-16T15:18:14Z</time>
      </trkpt>
      <trkpt lat="44.843" lon="-0.51103">
        <ele>0.5</ele>
        <time>2017-12-16T15:18:20Z</time>
      </trkpt>
      <trkpt lat="44.84306" lon="-0.51112">
        <ele>0.7</ele>
        <time>2017-12-16T15:18:28Z</time>
      </trkpt>
      <trkpt lat="44.84311" lon="-0.51122">
        <ele>8.8</ele>
        <time>2017-12-16T15:18:36Z</time>
      </trkpt>
      <trkpt lat="44.84314" lon="-0.51133">
        <ele>10.4</ele>
        <time>2017-12-16T15:18:43Z</time>
      </trkpt>
      <trkpt lat="44.84308" lon="-0.51142">
        <ele>8.1</ele>
        <time>2017-12-16T15:18:51Z</time>
      </trkpt>
      <trkpt lat="44.8431" lon="-0.51154">
        <ele>5.1</ele>
        <time>2017-12-16T15:18:58Z</time>
      </trkpt>
      <trkpt lat="44.8431" lon="-0.51166">
        <ele>4.8</ele>
        <time>2017-12-16T15:19:04Z</time>
      </trkpt>
      <trkpt lat="44.84312" lon="-0.51177">
        <ele>3.2</ele>
        <time>2017-12-16T15:19:11Z</time>
      </trkpt>
      <trkpt lat="44.84313" lon="-0.51189">
        <ele>2.6</ele>
        <time>2017-12-16T15:19:17Z</time>
      </trkpt>
      <trkpt lat="44.84316" lon="-0.51199">
        <ele>2.8</ele>
        <time>2017-12-16T15:19:22Z</time>
      </trkpt>
      <trkpt lat="44.84318" lon="-0.51211">
        <ele>2.2</ele>
        <time>2017-12-16T15:19:28Z</time>
      </trkpt>
      <trkpt lat="44.84319" lon="-0.51224">
        <ele>5.2</ele>
        <time>2017-12-16T15:19:34Z</time>
      </trkpt>
      <trkpt lat="44.84322" lon="-0.51236">
        <ele>7.3</ele>
        <time>2017-12-16T15:19:40Z</time>
      </trkpt>
      <trkpt lat="44.84324" lon="-0.51247">
        <ele>9.5</ele>
        <time>2017-12-16T15:19:46Z</time>
      </trkpt>
      <trkpt lat="44.84328" lon="-0.51256">
        <ele>12.6</ele>
        <time>2017-12-16T15:19:51Z</time>
      </trkpt>
      <trkpt lat="44.84331" lon="-0.51268">
        <ele>10.9</ele>
        <time>2017-12-16T15:19:57Z</time>
      </trkpt>
      <trkpt lat="44.84331" lon="-0.51279">
        <ele>12.1</ele>
        <time>2017-12-16T15:20:03Z</time>
      </trkpt>
      <trkpt lat="44.84331" lon="-0.51292">
        <ele>10.1</ele>
        <time>2017-12-16T15:20:10Z</time>
      </trkpt>
      <trkpt lat="44.84332" lon="-0.51303">
        <ele>9.6</ele>
        <time>2017-12-16T15:20:16Z</time>
      </trkpt>
      <trkpt lat="44.84331" lon="-0.51315">
        <ele>10.4</ele>
        <time>2017-12-16T15:20:22Z</time>
      </trkpt>
      <trkpt lat="44.84328" lon="-0.51327">
        <ele>11.8</ele>
        <time>2017-12-16T15:20:29Z</time>
      </trkpt>
      <trkpt lat="44.84327" lon="-0.51339">
        <ele>15.6</ele>
        <time>2017-12-16T15:20:39Z</time>
      </trkpt>
      <trkpt lat="44.84328" lon="-0.51351">
        <ele>15.7</ele>
        <time>2017-12-16T15:20:46Z</time>
      </trkpt>
      <trkpt lat="44.84329" lon="-0.51361">
        <ele>17.5</ele>
        <time>2017-12-16T15:20:51Z</time>
      </trkpt>
      <trkpt lat="44.84328" lon="-0.51373">
        <ele>13.2</ele>
        <time>2017-12-16T15:20:56Z</time>
      </trkpt>
      <trkpt lat="44.84328" lon="-0.51383">
        <ele>11.1</ele>
        <time>2017-12-16T15:21:01Z</time>
      </trkpt>
      <trkpt lat="44.84326" lon="-0.51396">
        <ele>10.6</ele>
        <time>2017-12-16T15:21:06Z</time>
      </trkpt>
      <trkpt lat="44.84326" lon="-0.51407">
        <ele>10.2</ele>
        <time>2017-12-16T15:21:12Z</time>
      </trkpt>
      <trkpt lat="44.84327" lon="-0.51419">
        <ele>10.4</ele>
        <time>2017-12-16T15:21:17Z</time>
      </trkpt>
      <trkpt lat="44.84326" lon="-0.5143">
        <ele>12.3</ele>
        <time>2017-12-16T15:21:22Z</time>
      </trkpt>
      <trkpt lat="44.84323" lon="-0.51441">
        <ele>12.4</ele>
        <time>2017-12-16T15:21:28Z</time>
      </trkpt>
      <trkpt lat="44.84319" lon="-0.51451">
        <ele>10.9</ele>
        <time>2017-12-16T15:21:34Z</time>
      </trkpt>
      <trkpt lat="44.84315" lon="-0.5146">
        <ele>10.7</ele>
        <time>2017-12-16T15:21:40Z</time>
      </trkpt>
      <trkpt lat="44.8431" lon="-0.51469">
        <ele>12.3</ele>
        <time>2017-12-16T15:21:46Z</time>
      </trkpt>
      <trkpt lat="44.84305" lon="-0.5148">
        <ele>9.6</ele>
        <time>2017-12-16T15:21:52Z</time>
      </trkpt>
      <trkpt lat="44.843" lon="-0.51488">
        <ele>8.2</ele>
        <time>2017-12-16T15:21:58Z</time>
      </trkpt>
      <trkpt lat="44.84295" lon="-0.51499">
        <ele>7.9</ele>
        <time>2017-12-16T15:22:03Z</time>
      </trkpt>
      <trkpt lat="44.8429" lon="-0.51509">
        <ele>8.3</ele>
        <time>2017-12-16T15:22:08Z</time>
      </trkpt>
      <trkpt lat="44.84285" lon="-0.51519">
        <ele>9.1</ele>
        <time>2017-12-16T15:22:14Z</time>
      </trkpt>
      <trkpt lat="44.8428" lon="-0.51527">
        <ele>10.8</ele>
        <time>2017-12-16T15:22:20Z</time>
      </trkpt>
      <trkpt lat="44.84275" lon="-0.51537">
        <ele>11.5</ele>
        <time>2017-12-16T15:22:26Z</time>
      </trkpt>
      <trkpt lat="44.84269" lon="-0.51546">
        <ele>11.8</ele>
        <time>2017-12-16T15:22:32Z</time>
      </trkpt>
      <trkpt lat="44.84268" lon="-0.51558">
        <ele>5.6</ele>
        <time>2017-12-16T15:22:39Z</time>
      </trkpt>
      <trkpt lat="44.84267" lon="-0.5157">
        <ele>6.5</ele>
        <time>2017-12-16T15:22:46Z</time>
      </trkpt>
      <trkpt lat="44.84261" lon="-0.51579">
        <ele>8.3</ele>
        <time>2017-12-16T15:22:54Z</time>
      </trkpt>
      <trkpt lat="44.84257" lon="-0.51589">
        <ele>9</ele>
        <time>2017-12-16T15:23:00Z</time>
      </trkpt>
      <trkpt lat="44.84256" lon="-0.516">
        <ele>10.9</ele>
        <time>2017-12-16T15:23:06Z</time>
      </trkpt>
      <trkpt lat="44.84254" lon="-0.51611">
        <ele>9.1</ele>
        <time>2017-12-16T15:23:12Z</time>
      </trkpt>
      <trkpt lat="44.84251" lon="-0.51623">
        <ele>9.5</ele>
        <time>2017-12-16T15:23:18Z</time>
      </trkpt>
      <trkpt lat="44.84249" lon="-0.51633">
        <ele>9.6</ele>
        <time>2017-12-16T15:23:23Z</time>
      </trkpt>
      <trkpt lat="44.84246" lon="-0.51643">
        <ele>10.4</ele>
        <time>2017-12-16T15:23:28Z</time>
      </trkpt>
      <trkpt lat="44.84244" lon="-0.51655">
        <ele>10.7</ele>
        <time>2017-12-16T15:23:34Z</time>
      </trkpt>
      <trkpt lat="44.84241" lon="-0.51666">
        <ele>10.1</ele>
        <time>2017-12-16T15:23:39Z</time>
      </trkpt>
      <trkpt lat="44.84239" lon="-0.51678">
        <ele>8.7</ele>
        <time>2017-12-16T15:23:45Z</time>
      </trkpt>
      <trkpt lat="44.84236" lon="-0.51688">
        <ele>8.1</ele>
        <time>2017-12-16T15:23:50Z</time>
      </trkpt>
      <trkpt lat="44.84233" lon="-0.51698">
        <ele>6.9</ele>
        <time>2017-12-16T15:23:56Z</time>
      </trkpt>
      <trkpt lat="44.84233" lon="-0.51711">
        <ele>6.1</ele>
        <time>2017-12-16T15:24:02Z</time>
      </trkpt>
      <trkpt lat="44.84231" lon="-0.51722">
        <ele>4.4</ele>
        <time>2017-12-16T15:24:08Z</time>
      </trkpt>
      <trkpt lat="44.8423" lon="-0.51732">
        <ele>4.2</ele>
        <time>2017-12-16T15:24:13Z</time>
      </trkpt>
      <trkpt lat="44.84227" lon="-0.51744">
        <ele>2</ele>
        <time>2017-12-16T15:24:19Z</time>
      </trkpt>
      <trkpt lat="44.84226" lon="-0.51754">
        <ele>-1.3</ele>
        <time>2017-12-16T15:24:25Z</time>
      </trkpt>
      <trkpt lat="44.84225" lon="-0.51766">
        <ele>-1.4</ele>
        <time>2017-12-16T15:24:31Z</time>
      </trkpt>
      <trkpt lat="44.84224" lon="-0.51777">
        <ele>-1</ele>
        <time>2017-12-16T15:24:37Z</time>
      </trkpt>
      <trkpt lat="44.84222" lon="-0.51788">
        <ele>-2.1</ele>
        <time>2017-12-16T15:24:43Z</time>
      </trkpt>
      <trkpt lat="44.84219" lon="-0.518">
        <ele>-1.5</ele>
        <time>2017-12-16T15:24:49Z</time>
      </trkpt>
      <trkpt lat="44.84217" lon="-0.51811">
        <ele>3.2</ele>
        <time>2017-12-16T15:24:56Z</time>
      </trkpt>
      <trkpt lat="44.84216" lon="-0.51822">
        <ele>3.8</ele>
        <time>2017-12-16T15:25:03Z</time>
      </trkpt>
      <trkpt lat="44.84212" lon="-0.51832">
        <ele>4.6</ele>
        <time>2017-12-16T15:25:08Z</time>
      </trkpt>
      <trkpt lat="44.84211" lon="-0.51843">
        <ele>4.4</ele>
        <time>2017-12-16T15:25:13Z</time>
      </trkpt>
      <trkpt lat="44.84208" lon="-0.51855">
        <ele>6</ele>
        <time>2017-12-16T15:25:19Z</time>
      </trkpt>
      <trkpt lat="44.84206" lon="-0.51866">
        <ele>6.4</ele>
        <time>2017-12-16T15:25:25Z</time>
      </trkpt>
      <trkpt lat="44.84206" lon="-0.51878">
        <ele>7.5</ele>
        <time>2017-12-16T15:25:32Z</time>
      </trkpt>
      <trkpt lat="44.84205" lon="-0.5189">
        <ele>6.3</ele>
        <time>2017-12-16T15:25:39Z</time>
      </trkpt>
      <trkpt lat="44.84209" lon="-0.51901">
        <ele>6.5</ele>
        <time>2017-12-16T15:25:45Z</time>
      </trkpt>
      <trkpt lat="44.84211" lon="-0.51911">
        <ele>5.4</ele>
        <time>2017-12-16T15:25:51Z</time>
      </trkpt>
      <trkpt lat="44.8421" lon="-0.51924">
        <ele>10</ele>
        <time>2017-12-16T15:25:56Z</time>
      </trkpt>
      <trkpt lat="44.84209" lon="-0.51936">
        <ele>10.4</ele>
        <time>2017-12-16T15:26:02Z</time>
      </trkpt>
      <trkpt lat="44.84209" lon="-0.51948">
        <ele>12</ele>
        <time>2017-12-16T15:26:08Z</time>
      </trkpt>
      <trkpt lat="44.84209" lon="-0.51961">
        <ele>10.3</ele>
        <time>2017-12-16T15:26:14Z</time>
      </trkpt>
      <trkpt lat="44.8421" lon="-0.51972">
        <ele>10.7</ele>
        <time>2017-12-16T15:26:19Z</time>
      </trkpt>
      <trkpt lat="44.84213" lon="-0.51984">
        <ele>11.4</ele>
        <time>2017-12-16T15:26:25Z</time>
      </trkpt>
      <trkpt lat="44.84214" lon="-0.51996">
        <ele>9.2</ele>
        <time>2017-12-16T15:26:31Z</time>
      </trkpt>
      <trkpt lat="44.84213" lon="-0.52008">
        <ele>6.4</ele>
        <time>2017-12-16T15:26:37Z</time>
      </trkpt>
      <trkpt lat="44.8421" lon="-0.52019">
        <ele>3</ele>
        <time>2017-12-16T15:26:43Z</time>
      </trkpt>
      <trkpt lat="44.84209" lon="-0.52031">
        <ele>2.6</ele>
        <time>2017-12-16T15:26:50Z</time>
      </trkpt>
      <trkpt lat="44.84214" lon="-0.52041">
        <ele>0.7</ele>
        <time>2017-12-16T15:26:56Z</time>
      </trkpt>
      <trkpt lat="44.84216" lon="-0.52053">
        <ele>1.5</ele>
        <time>2017-12-16T15:27:01Z</time>
      </trkpt>
      <trkpt lat="44.84215" lon="-0.52064">
        <ele>1.1</ele>
        <time>2017-12-16T15:27:06Z</time>
      </trkpt>
      <trkpt lat="44.84216" lon="-0.52075">
        <ele>0.7</ele>
        <time>2017-12-16T15:27:12Z</time>
      </trkpt>
      <trkpt lat="44.84219" lon="-0.52086">
        <ele>-0.8</ele>
        <time>2017-12-16T15:27:18Z</time>
      </trkpt>
      <trkpt lat="44.8422" lon="-0.52098">
        <ele>-3.3</ele>
        <time>2017-12-16T15:27:25Z</time>
      </trkpt>
      <trkpt lat="44.84218" lon="-0.52109">
        <ele>-4.2</ele>
        <time>2017-12-16T15:27:30Z</time>
      </trkpt>
      <trkpt lat="44.84218" lon="-0.5212">
        <ele>-4.2</ele>
        <time>2017-12-16T15:27:36Z</time>
      </trkpt>
      <trkpt lat="44.84218" lon="-0.52131">
        <ele>-4.1</ele>
        <time>2017-12-16T15:27:42Z</time>
      </trkpt>
      <trkpt lat="44.84223" lon="-0.5214">
        <ele>-4.8</ele>
        <time>2017-12-16T15:27:48Z</time>
      </trkpt>
      <trkpt lat="44.84227" lon="-0.52151">
        <ele>-5.9</ele>
        <time>2017-12-16T15:27:54Z</time>
      </trkpt>
      <trkpt lat="44.84228" lon="-0.52161">
        <ele>-6.2</ele>
        <time>2017-12-16T15:27:59Z</time>
      </trkpt>
      <trkpt lat="44.84227" lon="-0.52173">
        <ele>-6.6</ele>
        <time>2017-12-16T15:28:04Z</time>
      </trkpt>
      <trkpt lat="44.84231" lon="-0.52183">
        <ele>-6.6</ele>
        <time>2017-12-16T15:28:17Z</time>
      </trkpt>
      <trkpt lat="44.84233" lon="-0.52195">
        <ele>-7.9</ele>
        <time>2017-12-16T15:28:28Z</time>
      </trkpt>
      <trkpt lat="44.84234" lon="-0.52206">
        <ele>-9.4</ele>
        <time>2017-12-16T15:28:33Z</time>
      </trkpt>
      <trkpt lat="44.84234" lon="-0.52218">
        <ele>-10.3</ele>
        <time>2017-12-16T15:28:39Z</time>
      </trkpt>
      <trkpt lat="44.84233" lon="-0.5223">
        <ele>-10.7</ele>
        <time>2017-12-16T15:28:45Z</time>
      </trkpt>
      <trkpt lat="44.84231" lon="-0.5224">
        <ele>-11.9</ele>
        <time>2017-12-16T15:28:50Z</time>
      </trkpt>
      <trkpt lat="44.84229" lon="-0.52252">
        <ele>-12.4</ele>
        <time>2017-12-16T15:28:58Z</time>
      </trkpt>
      <trkpt lat="44.84222" lon="-0.52261">
        <ele>-12.3</ele>
        <time>2017-12-16T15:29:03Z</time>
      </trkpt>
      <trkpt lat="44.84216" lon="-0.5227">
        <ele>-12.7</ele>
        <time>2017-12-16T15:29:09Z</time>
      </trkpt>
      <trkpt lat="44.84208" lon="-0.52274">
        <ele>-7.1</ele>
        <time>2017-12-16T15:29:23Z</time>
      </trkpt>
      <trkpt lat="44.84199" lon="-0.52275">
        <ele>-6.4</ele>
        <time>2017-12-16T15:29:29Z</time>
      </trkpt>
      <trkpt lat="44.84191" lon="-0.52275">
        <ele>-6.8</ele>
        <time>2017-12-16T15:29:34Z</time>
      </trkpt>
      <trkpt lat="44.84183" lon="-0.52273">
        <ele>-6.7</ele>
        <time>2017-12-16T15:29:39Z</time>
      </trkpt>
      <trkpt lat="44.84175" lon="-0.52271">
        <ele>-5.9</ele>
        <time>2017-12-16T15:29:45Z</time>
      </trkpt>
      <trkpt lat="44.84166" lon="-0.52269">
        <ele>-5.1</ele>
        <time>2017-12-16T15:29:50Z</time>
      </trkpt>
      <trkpt lat="44.84158" lon="-0.52265">
        <ele>-4.8</ele>
        <time>2017-12-16T15:29:57Z</time>
      </trkpt>
      <trkpt lat="44.84151" lon="-0.52261">
        <ele>-3.9</ele>
        <time>2017-12-16T15:30:03Z</time>
      </trkpt>
      <trkpt lat="44.84142" lon="-0.52258">
        <ele>-3.9</ele>
        <time>2017-12-16T15:30:11Z</time>
      </trkpt>
      <trkpt lat="44.84134" lon="-0.52255">
        <ele>-5.4</ele>
        <time>2017-12-16T15:30:19Z</time>
      </trkpt>
      <trkpt lat="44.84126" lon="-0.52251">
        <ele>-5.6</ele>
        <time>2017-12-16T15:30:26Z</time>
      </trkpt>
      <trkpt lat="44.84118" lon="-0.52248">
        <ele>-5</ele>
        <time>2017-12-16T15:30:32Z</time>
      </trkpt>
      <trkpt lat="44.84109" lon="-0.52247">
        <ele>-4.9</ele>
        <time>2017-12-16T15:30:39Z</time>
      </trkpt>
      <trkpt lat="44.84101" lon="-0.5225">
        <ele>-4.8</ele>
        <time>2017-12-16T15:30:47Z</time>
      </trkpt>
      <trkpt lat="44.84093" lon="-0.52256">
        <ele>-5.3</ele>
        <time>2017-12-16T15:30:54Z</time>
      </trkpt>
      <trkpt lat="44.84086" lon="-0.52261">
        <ele>-5.3</ele>
        <time>2017-12-16T15:30:59Z</time>
      </trkpt>
      <trkpt lat="44.8408" lon="-0.52268">
        <ele>-6.1</ele>
        <time>2017-12-16T15:31:05Z</time>
      </trkpt>
      <trkpt lat="44.84084" lon="-0.52279">
        <ele>-5.4</ele>
        <time>2017-12-16T15:31:29Z</time>
      </trkpt>
      <trkpt lat="44.84084" lon="-0.52291">
        <ele>-6</ele>
        <time>2017-12-16T15:32:17Z</time>
      </trkpt>
      <trkpt lat="44.84092" lon="-0.52294">
        <ele>-3.7</ele>
        <time>2017-12-16T15:33:41Z</time>
      </trkpt>
      <trkpt lat="44.84095" lon="-0.52297">
        <ele>-3.6</ele>
        <time>2017-12-16T15:33:42Z</time>
      </trkpt>
    </trkseg>
  </trk>
</gpx>